<?xml version="1.0" encoding="UTF-8" standalone="no" ?>
<gpx xmlns="http://www.topografix.com/GPX/1/1" xmlns:xsi="http://www.w3.org/2001/XMLSchema-instance" xsi:schemaLocation="http://www.topografix.com/GPX/1/1 http://www.topografix.com/GPX/1/1/gpx.xsd" version="1.1" creator="VisuGPX - https://www.visugpx.com">
  <metadata>
    <name>Le cougoir</name>
    <desc><![CDATA[Randonnée depuis le vieux village de Teyssières (26)]]></desc>
  </metadata>
  <trk>
    <name><![CDATA[COUGOIR   03:08:35 PM]]></name>
    <trkseg>
      <trkpt lat="44.45007" lon="5.13192">
        <ele>712.95</ele>
        <time>2014-09-17T07:48:07Z</time>
      </trkpt>
      <trkpt lat="44.45007" lon="5.13192">
        <ele>709.59</ele>
        <time>2014-09-17T07:48:14Z</time>
      </trkpt>
      <trkpt lat="44.45013" lon="5.13193">
        <ele>711.51</ele>
        <time>2014-09-17T07:48:58Z</time>
      </trkpt>
      <trkpt lat="44.45025" lon="5.13193">
        <ele>710.07</ele>
        <time>2014-09-17T07:49:08Z</time>
      </trkpt>
      <trkpt lat="44.4504" lon="5.13185">
        <ele>709.11</ele>
        <time>2014-09-17T07:49:21Z</time>
      </trkpt>
      <trkpt lat="44.45048" lon="5.13179">
        <ele>708.15</ele>
        <time>2014-09-17T07:49:34Z</time>
      </trkpt>
      <trkpt lat="44.45059" lon="5.13171">
        <ele>708.15</ele>
        <time>2014-09-17T07:49:44Z</time>
      </trkpt>
      <trkpt lat="44.45068" lon="5.1318">
        <ele>706.71</ele>
        <time>2014-09-17T07:49:57Z</time>
      </trkpt>
      <trkpt lat="44.4507" lon="5.13193">
        <ele>705.75</ele>
        <time>2014-09-17T07:50:06Z</time>
      </trkpt>
      <trkpt lat="44.45072" lon="5.13196">
        <ele>706.23</ele>
        <time>2014-09-17T07:50:08Z</time>
      </trkpt>
      <trkpt lat="44.45075" lon="5.13211">
        <ele>705.75</ele>
        <time>2014-09-17T07:50:18Z</time>
      </trkpt>
      <trkpt lat="44.45078" lon="5.13221">
        <ele>704.78</ele>
        <time>2014-09-17T07:50:24Z</time>
      </trkpt>
      <trkpt lat="44.4508" lon="5.13223">
        <ele>704.78</ele>
        <time>2014-09-17T07:50:26Z</time>
      </trkpt>
      <trkpt lat="44.45086" lon="5.1324">
        <ele>704.78</ele>
        <time>2014-09-17T07:50:37Z</time>
      </trkpt>
      <trkpt lat="44.45087" lon="5.13243">
        <ele>705.26</ele>
        <time>2014-09-17T07:50:39Z</time>
      </trkpt>
      <trkpt lat="44.45095" lon="5.13254">
        <ele>704.3</ele>
        <time>2014-09-17T07:50:48Z</time>
      </trkpt>
      <trkpt lat="44.45097" lon="5.13258">
        <ele>704.3</ele>
        <time>2014-09-17T07:50:51Z</time>
      </trkpt>
      <trkpt lat="44.451" lon="5.13272">
        <ele>704.78</ele>
        <time>2014-09-17T07:51:00Z</time>
      </trkpt>
      <trkpt lat="44.45099" lon="5.13282">
        <ele>706.23</ele>
        <time>2014-09-17T07:51:06Z</time>
      </trkpt>
      <trkpt lat="44.45101" lon="5.13293">
        <ele>706.71</ele>
        <time>2014-09-17T07:51:13Z</time>
      </trkpt>
      <trkpt lat="44.45096" lon="5.13317">
        <ele>706.71</ele>
        <time>2014-09-17T07:51:28Z</time>
      </trkpt>
      <trkpt lat="44.45089" lon="5.13332">
        <ele>707.19</ele>
        <time>2014-09-17T07:51:40Z</time>
      </trkpt>
      <trkpt lat="44.45088" lon="5.13347">
        <ele>707.67</ele>
        <time>2014-09-17T07:51:49Z</time>
      </trkpt>
      <trkpt lat="44.45089" lon="5.13362">
        <ele>708.15</ele>
        <time>2014-09-17T07:51:59Z</time>
      </trkpt>
      <trkpt lat="44.45088" lon="5.13363">
        <ele>708.63</ele>
        <time>2014-09-17T07:52:00Z</time>
      </trkpt>
      <trkpt lat="44.45089" lon="5.1337">
        <ele>708.15</ele>
        <time>2014-09-17T07:52:04Z</time>
      </trkpt>
      <trkpt lat="44.45092" lon="5.13385">
        <ele>708.63</ele>
        <time>2014-09-17T07:52:11Z</time>
      </trkpt>
      <trkpt lat="44.45095" lon="5.13391">
        <ele>708.63</ele>
        <time>2014-09-17T07:52:15Z</time>
      </trkpt>
      <trkpt lat="44.45096" lon="5.13405">
        <ele>708.15</ele>
        <time>2014-09-17T07:52:22Z</time>
      </trkpt>
      <trkpt lat="44.45097" lon="5.13427">
        <ele>707.67</ele>
        <time>2014-09-17T07:52:34Z</time>
      </trkpt>
      <trkpt lat="44.45099" lon="5.13449">
        <ele>706.23</ele>
        <time>2014-09-17T07:52:47Z</time>
      </trkpt>
      <trkpt lat="44.45098" lon="5.13461">
        <ele>705.26</ele>
        <time>2014-09-17T07:52:54Z</time>
      </trkpt>
      <trkpt lat="44.45098" lon="5.13472">
        <ele>705.26</ele>
        <time>2014-09-17T07:53:00Z</time>
      </trkpt>
      <trkpt lat="44.45097" lon="5.13492">
        <ele>704.3</ele>
        <time>2014-09-17T07:53:10Z</time>
      </trkpt>
      <trkpt lat="44.45096" lon="5.135">
        <ele>704.3</ele>
        <time>2014-09-17T07:53:13Z</time>
      </trkpt>
      <trkpt lat="44.451" lon="5.13511">
        <ele>704.3</ele>
        <time>2014-09-17T07:53:19Z</time>
      </trkpt>
      <trkpt lat="44.451" lon="5.13519">
        <ele>703.82</ele>
        <time>2014-09-17T07:53:23Z</time>
      </trkpt>
      <trkpt lat="44.451" lon="5.13523">
        <ele>704.3</ele>
        <time>2014-09-17T07:53:25Z</time>
      </trkpt>
      <trkpt lat="44.45101" lon="5.13526">
        <ele>704.3</ele>
        <time>2014-09-17T07:53:27Z</time>
      </trkpt>
      <trkpt lat="44.45101" lon="5.13537">
        <ele>703.82</ele>
        <time>2014-09-17T07:53:33Z</time>
      </trkpt>
      <trkpt lat="44.45098" lon="5.13555">
        <ele>703.82</ele>
        <time>2014-09-17T07:53:44Z</time>
      </trkpt>
      <trkpt lat="44.45095" lon="5.13568">
        <ele>702.86</ele>
        <time>2014-09-17T07:53:54Z</time>
      </trkpt>
      <trkpt lat="44.451" lon="5.13579">
        <ele>702.86</ele>
        <time>2014-09-17T07:54:02Z</time>
      </trkpt>
      <trkpt lat="44.45109" lon="5.1359">
        <ele>703.34</ele>
        <time>2014-09-17T07:54:12Z</time>
      </trkpt>
      <trkpt lat="44.45111" lon="5.13595">
        <ele>703.34</ele>
        <time>2014-09-17T07:54:16Z</time>
      </trkpt>
      <trkpt lat="44.45111" lon="5.136">
        <ele>703.34</ele>
        <time>2014-09-17T07:54:19Z</time>
      </trkpt>
      <trkpt lat="44.45112" lon="5.1361">
        <ele>703.82</ele>
        <time>2014-09-17T07:54:25Z</time>
      </trkpt>
      <trkpt lat="44.45112" lon="5.1362">
        <ele>705.26</ele>
        <time>2014-09-17T07:54:32Z</time>
      </trkpt>
      <trkpt lat="44.45112" lon="5.13622">
        <ele>704.78</ele>
        <time>2014-09-17T07:54:34Z</time>
      </trkpt>
      <trkpt lat="44.45106" lon="5.13633">
        <ele>706.71</ele>
        <time>2014-09-17T07:54:43Z</time>
      </trkpt>
      <trkpt lat="44.45101" lon="5.13648">
        <ele>707.67</ele>
        <time>2014-09-17T07:54:55Z</time>
      </trkpt>
      <trkpt lat="44.45101" lon="5.13655">
        <ele>709.59</ele>
        <time>2014-09-17T07:55:01Z</time>
      </trkpt>
      <trkpt lat="44.45101" lon="5.1366">
        <ele>710.07</ele>
        <time>2014-09-17T07:55:04Z</time>
      </trkpt>
      <trkpt lat="44.45102" lon="5.13668">
        <ele>710.07</ele>
        <time>2014-09-17T07:55:09Z</time>
      </trkpt>
      <trkpt lat="44.451" lon="5.13674">
        <ele>711.51</ele>
        <time>2014-09-17T07:55:13Z</time>
      </trkpt>
      <trkpt lat="44.45098" lon="5.1368">
        <ele>711.51</ele>
        <time>2014-09-17T07:55:17Z</time>
      </trkpt>
      <trkpt lat="44.45096" lon="5.13686">
        <ele>711.03</ele>
        <time>2014-09-17T07:55:22Z</time>
      </trkpt>
      <trkpt lat="44.45097" lon="5.13698">
        <ele>711.99</ele>
        <time>2014-09-17T07:55:30Z</time>
      </trkpt>
      <trkpt lat="44.45099" lon="5.13701">
        <ele>712.47</ele>
        <time>2014-09-17T07:55:33Z</time>
      </trkpt>
      <trkpt lat="44.45104" lon="5.13713">
        <ele>713.92</ele>
        <time>2014-09-17T07:55:41Z</time>
      </trkpt>
      <trkpt lat="44.45105" lon="5.13716">
        <ele>713.92</ele>
        <time>2014-09-17T07:55:43Z</time>
      </trkpt>
      <trkpt lat="44.45101" lon="5.13726">
        <ele>715.36</ele>
        <time>2014-09-17T07:55:56Z</time>
      </trkpt>
      <trkpt lat="44.451" lon="5.13724">
        <ele>715.84</ele>
        <time>2014-09-17T07:56:01Z</time>
      </trkpt>
      <trkpt lat="44.45098" lon="5.13722">
        <ele>716.8</ele>
        <time>2014-09-17T07:56:04Z</time>
      </trkpt>
      <trkpt lat="44.45097" lon="5.1372">
        <ele>717.76</ele>
        <time>2014-09-17T07:56:06Z</time>
      </trkpt>
      <trkpt lat="44.45094" lon="5.13715">
        <ele>718.72</ele>
        <time>2014-09-17T07:56:12Z</time>
      </trkpt>
      <trkpt lat="44.45094" lon="5.13714">
        <ele>717.76</ele>
        <time>2014-09-17T07:56:13Z</time>
      </trkpt>
      <trkpt lat="44.45088" lon="5.13708">
        <ele>718.72</ele>
        <time>2014-09-17T07:56:23Z</time>
      </trkpt>
      <trkpt lat="44.45081" lon="5.13698">
        <ele>721.61</ele>
        <time>2014-09-17T07:56:34Z</time>
      </trkpt>
      <trkpt lat="44.45071" lon="5.1369">
        <ele>722.57</ele>
        <time>2014-09-17T07:56:45Z</time>
      </trkpt>
      <trkpt lat="44.45063" lon="5.13681">
        <ele>724.49</ele>
        <time>2014-09-17T07:56:57Z</time>
      </trkpt>
      <trkpt lat="44.45056" lon="5.13672">
        <ele>725.45</ele>
        <time>2014-09-17T07:57:06Z</time>
      </trkpt>
      <trkpt lat="44.45054" lon="5.1366">
        <ele>727.37</ele>
        <time>2014-09-17T07:57:14Z</time>
      </trkpt>
      <trkpt lat="44.4505" lon="5.13664">
        <ele>728.34</ele>
        <time>2014-09-17T07:57:17Z</time>
      </trkpt>
      <trkpt lat="44.45048" lon="5.1367">
        <ele>728.34</ele>
        <time>2014-09-17T07:57:22Z</time>
      </trkpt>
      <trkpt lat="44.45048" lon="5.13675">
        <ele>728.34</ele>
        <time>2014-09-17T07:57:25Z</time>
      </trkpt>
      <trkpt lat="44.45055" lon="5.13687">
        <ele>729.78</ele>
        <time>2014-09-17T07:57:37Z</time>
      </trkpt>
      <trkpt lat="44.45058" lon="5.13697">
        <ele>730.74</ele>
        <time>2014-09-17T07:57:47Z</time>
      </trkpt>
      <trkpt lat="44.45063" lon="5.13709">
        <ele>732.18</ele>
        <time>2014-09-17T07:57:57Z</time>
      </trkpt>
      <trkpt lat="44.45066" lon="5.13713">
        <ele>733.14</ele>
        <time>2014-09-17T07:58:00Z</time>
      </trkpt>
      <trkpt lat="44.45068" lon="5.1372">
        <ele>733.62</ele>
        <time>2014-09-17T07:58:05Z</time>
      </trkpt>
      <trkpt lat="44.45071" lon="5.13728">
        <ele>734.58</ele>
        <time>2014-09-17T07:58:11Z</time>
      </trkpt>
      <trkpt lat="44.45073" lon="5.13735">
        <ele>735.07</ele>
        <time>2014-09-17T07:58:16Z</time>
      </trkpt>
      <trkpt lat="44.45074" lon="5.13742">
        <ele>736.51</ele>
        <time>2014-09-17T07:58:21Z</time>
      </trkpt>
      <trkpt lat="44.45074" lon="5.13744">
        <ele>735.55</ele>
        <time>2014-09-17T07:58:23Z</time>
      </trkpt>
      <trkpt lat="44.45074" lon="5.13747">
        <ele>736.51</ele>
        <time>2014-09-17T07:58:26Z</time>
      </trkpt>
      <trkpt lat="44.45069" lon="5.13753">
        <ele>736.99</ele>
        <time>2014-09-17T07:58:38Z</time>
      </trkpt>
      <trkpt lat="44.45069" lon="5.13752">
        <ele>738.43</ele>
        <time>2014-09-17T07:58:39Z</time>
      </trkpt>
      <trkpt lat="44.45067" lon="5.13747">
        <ele>739.39</ele>
        <time>2014-09-17T07:58:47Z</time>
      </trkpt>
      <trkpt lat="44.4507" lon="5.13746">
        <ele>739.39</ele>
        <time>2014-09-17T07:58:51Z</time>
      </trkpt>
      <trkpt lat="44.45064" lon="5.13737">
        <ele>741.31</ele>
        <time>2014-09-17T07:59:03Z</time>
      </trkpt>
      <trkpt lat="44.45057" lon="5.1373">
        <ele>742.28</ele>
        <time>2014-09-17T07:59:13Z</time>
      </trkpt>
      <trkpt lat="44.45053" lon="5.1373">
        <ele>743.24</ele>
        <time>2014-09-17T07:59:16Z</time>
      </trkpt>
      <trkpt lat="44.45046" lon="5.13726">
        <ele>744.68</ele>
        <time>2014-09-17T07:59:25Z</time>
      </trkpt>
      <trkpt lat="44.45036" lon="5.13724">
        <ele>745.64</ele>
        <time>2014-09-17T07:59:37Z</time>
      </trkpt>
      <trkpt lat="44.45028" lon="5.13719">
        <ele>747.08</ele>
        <time>2014-09-17T07:59:46Z</time>
      </trkpt>
      <trkpt lat="44.45023" lon="5.13715">
        <ele>748.04</ele>
        <time>2014-09-17T07:59:52Z</time>
      </trkpt>
      <trkpt lat="44.45011" lon="5.13711">
        <ele>749</ele>
        <time>2014-09-17T08:00:03Z</time>
      </trkpt>
      <trkpt lat="44.45005" lon="5.13708">
        <ele>749</ele>
        <time>2014-09-17T08:00:09Z</time>
      </trkpt>
      <trkpt lat="44.44994" lon="5.1369">
        <ele>750.93</ele>
        <time>2014-09-17T08:00:22Z</time>
      </trkpt>
      <trkpt lat="44.44991" lon="5.13687">
        <ele>749.49</ele>
        <time>2014-09-17T08:00:26Z</time>
      </trkpt>
      <trkpt lat="44.44984" lon="5.1368">
        <ele>751.89</ele>
        <time>2014-09-17T08:00:33Z</time>
      </trkpt>
      <trkpt lat="44.44983" lon="5.13675">
        <ele>750.93</ele>
        <time>2014-09-17T08:00:36Z</time>
      </trkpt>
      <trkpt lat="44.4498" lon="5.13671">
        <ele>752.37</ele>
        <time>2014-09-17T08:00:39Z</time>
      </trkpt>
      <trkpt lat="44.44978" lon="5.13669">
        <ele>751.41</ele>
        <time>2014-09-17T08:00:41Z</time>
      </trkpt>
      <trkpt lat="44.44977" lon="5.13665">
        <ele>752.85</ele>
        <time>2014-09-17T08:00:44Z</time>
      </trkpt>
      <trkpt lat="44.44971" lon="5.13658">
        <ele>753.33</ele>
        <time>2014-09-17T08:00:52Z</time>
      </trkpt>
      <trkpt lat="44.44967" lon="5.13649">
        <ele>753.81</ele>
        <time>2014-09-17T08:00:59Z</time>
      </trkpt>
      <trkpt lat="44.44965" lon="5.13642">
        <ele>754.29</ele>
        <time>2014-09-17T08:01:04Z</time>
      </trkpt>
      <trkpt lat="44.44964" lon="5.13635">
        <ele>755.25</ele>
        <time>2014-09-17T08:01:08Z</time>
      </trkpt>
      <trkpt lat="44.44962" lon="5.13629">
        <ele>755.73</ele>
        <time>2014-09-17T08:01:13Z</time>
      </trkpt>
      <trkpt lat="44.44956" lon="5.13613">
        <ele>756.21</ele>
        <time>2014-09-17T08:01:24Z</time>
      </trkpt>
      <trkpt lat="44.44954" lon="5.13608">
        <ele>758.14</ele>
        <time>2014-09-17T08:01:28Z</time>
      </trkpt>
      <trkpt lat="44.4495" lon="5.13601">
        <ele>758.62</ele>
        <time>2014-09-17T08:01:35Z</time>
      </trkpt>
      <trkpt lat="44.44945" lon="5.13591">
        <ele>758.14</ele>
        <time>2014-09-17T08:01:44Z</time>
      </trkpt>
      <trkpt lat="44.44942" lon="5.13585">
        <ele>758.62</ele>
        <time>2014-09-17T08:01:50Z</time>
      </trkpt>
      <trkpt lat="44.44939" lon="5.13591">
        <ele>760.06</ele>
        <time>2014-09-17T08:01:57Z</time>
      </trkpt>
      <trkpt lat="44.44939" lon="5.13599">
        <ele>761.02</ele>
        <time>2014-09-17T08:02:07Z</time>
      </trkpt>
      <trkpt lat="44.44939" lon="5.136">
        <ele>761.98</ele>
        <time>2014-09-17T08:02:08Z</time>
      </trkpt>
      <trkpt lat="44.44942" lon="5.13617">
        <ele>763.42</ele>
        <time>2014-09-17T08:02:20Z</time>
      </trkpt>
      <trkpt lat="44.44942" lon="5.1362">
        <ele>763.42</ele>
        <time>2014-09-17T08:02:23Z</time>
      </trkpt>
      <trkpt lat="44.44942" lon="5.13626">
        <ele>763.9</ele>
        <time>2014-09-17T08:02:34Z</time>
      </trkpt>
      <trkpt lat="44.44942" lon="5.13626">
        <ele>764.39</ele>
        <time>2014-09-17T08:03:00Z</time>
      </trkpt>
      <trkpt lat="44.44939" lon="5.13632">
        <ele>764.87</ele>
        <time>2014-09-17T08:05:21Z</time>
      </trkpt>
      <trkpt lat="44.44935" lon="5.13644">
        <ele>764.87</ele>
        <time>2014-09-17T08:05:32Z</time>
      </trkpt>
      <trkpt lat="44.44934" lon="5.13645">
        <ele>764.87</ele>
        <time>2014-09-17T08:05:33Z</time>
      </trkpt>
      <trkpt lat="44.44932" lon="5.13663">
        <ele>765.83</ele>
        <time>2014-09-17T08:05:45Z</time>
      </trkpt>
      <trkpt lat="44.44931" lon="5.13676">
        <ele>766.31</ele>
        <time>2014-09-17T08:05:54Z</time>
      </trkpt>
      <trkpt lat="44.4493" lon="5.13686">
        <ele>767.27</ele>
        <time>2014-09-17T08:06:02Z</time>
      </trkpt>
      <trkpt lat="44.44929" lon="5.13688">
        <ele>767.75</ele>
        <time>2014-09-17T08:06:04Z</time>
      </trkpt>
      <trkpt lat="44.44931" lon="5.13695">
        <ele>768.23</ele>
        <time>2014-09-17T08:06:08Z</time>
      </trkpt>
      <trkpt lat="44.44929" lon="5.13703">
        <ele>769.19</ele>
        <time>2014-09-17T08:06:14Z</time>
      </trkpt>
      <trkpt lat="44.44927" lon="5.13705">
        <ele>768.71</ele>
        <time>2014-09-17T08:06:16Z</time>
      </trkpt>
      <trkpt lat="44.44921" lon="5.13711">
        <ele>769.19</ele>
        <time>2014-09-17T08:06:22Z</time>
      </trkpt>
      <trkpt lat="44.4492" lon="5.13718">
        <ele>770.63</ele>
        <time>2014-09-17T08:06:30Z</time>
      </trkpt>
      <trkpt lat="44.44919" lon="5.1372">
        <ele>771.6</ele>
        <time>2014-09-17T08:06:33Z</time>
      </trkpt>
      <trkpt lat="44.44916" lon="5.13727">
        <ele>773.04</ele>
        <time>2014-09-17T08:06:43Z</time>
      </trkpt>
      <trkpt lat="44.44916" lon="5.13728">
        <ele>773.52</ele>
        <time>2014-09-17T08:06:44Z</time>
      </trkpt>
      <trkpt lat="44.44915" lon="5.13731">
        <ele>774.48</ele>
        <time>2014-09-17T08:06:49Z</time>
      </trkpt>
      <trkpt lat="44.44909" lon="5.13736">
        <ele>776.4</ele>
        <time>2014-09-17T08:06:59Z</time>
      </trkpt>
      <trkpt lat="44.44906" lon="5.13744">
        <ele>779.29</ele>
        <time>2014-09-17T08:07:15Z</time>
      </trkpt>
      <trkpt lat="44.44906" lon="5.13749">
        <ele>779.77</ele>
        <time>2014-09-17T08:07:20Z</time>
      </trkpt>
      <trkpt lat="44.44904" lon="5.13753">
        <ele>780.73</ele>
        <time>2014-09-17T08:07:23Z</time>
      </trkpt>
      <trkpt lat="44.44903" lon="5.13763">
        <ele>782.17</ele>
        <time>2014-09-17T08:07:33Z</time>
      </trkpt>
      <trkpt lat="44.44909" lon="5.13769">
        <ele>782.65</ele>
        <time>2014-09-17T08:07:42Z</time>
      </trkpt>
      <trkpt lat="44.44911" lon="5.13771">
        <ele>783.61</ele>
        <time>2014-09-17T08:07:45Z</time>
      </trkpt>
      <trkpt lat="44.44918" lon="5.13778">
        <ele>785.53</ele>
        <time>2014-09-17T08:07:56Z</time>
      </trkpt>
      <trkpt lat="44.44919" lon="5.13784">
        <ele>786.02</ele>
        <time>2014-09-17T08:08:01Z</time>
      </trkpt>
      <trkpt lat="44.44918" lon="5.13788">
        <ele>786.02</ele>
        <time>2014-09-17T08:08:06Z</time>
      </trkpt>
      <trkpt lat="44.44917" lon="5.13792">
        <ele>786.5</ele>
        <time>2014-09-17T08:08:09Z</time>
      </trkpt>
      <trkpt lat="44.44916" lon="5.13801">
        <ele>787.46</ele>
        <time>2014-09-17T08:08:18Z</time>
      </trkpt>
      <trkpt lat="44.44914" lon="5.1381">
        <ele>788.42</ele>
        <time>2014-09-17T08:08:27Z</time>
      </trkpt>
      <trkpt lat="44.44913" lon="5.13815">
        <ele>788.42</ele>
        <time>2014-09-17T08:08:31Z</time>
      </trkpt>
      <trkpt lat="44.44909" lon="5.13827">
        <ele>788.9</ele>
        <time>2014-09-17T08:08:40Z</time>
      </trkpt>
      <trkpt lat="44.44906" lon="5.13837">
        <ele>790.34</ele>
        <time>2014-09-17T08:08:49Z</time>
      </trkpt>
      <trkpt lat="44.44905" lon="5.13849">
        <ele>791.78</ele>
        <time>2014-09-17T08:09:00Z</time>
      </trkpt>
      <trkpt lat="44.44902" lon="5.13859">
        <ele>792.74</ele>
        <time>2014-09-17T08:09:09Z</time>
      </trkpt>
      <trkpt lat="44.449" lon="5.13874">
        <ele>792.26</ele>
        <time>2014-09-17T08:09:19Z</time>
      </trkpt>
      <trkpt lat="44.44897" lon="5.13885">
        <ele>792.74</ele>
        <time>2014-09-17T08:09:28Z</time>
      </trkpt>
      <trkpt lat="44.44893" lon="5.13899">
        <ele>793.22</ele>
        <time>2014-09-17T08:09:38Z</time>
      </trkpt>
      <trkpt lat="44.44895" lon="5.13913">
        <ele>794.19</ele>
        <time>2014-09-17T08:09:49Z</time>
      </trkpt>
      <trkpt lat="44.44894" lon="5.13925">
        <ele>796.11</ele>
        <time>2014-09-17T08:10:04Z</time>
      </trkpt>
      <trkpt lat="44.44893" lon="5.13934">
        <ele>797.07</ele>
        <time>2014-09-17T08:10:16Z</time>
      </trkpt>
      <trkpt lat="44.44891" lon="5.13939">
        <ele>798.99</ele>
        <time>2014-09-17T08:10:32Z</time>
      </trkpt>
      <trkpt lat="44.44887" lon="5.1394">
        <ele>798.99</ele>
        <time>2014-09-17T08:10:39Z</time>
      </trkpt>
      <trkpt lat="44.44881" lon="5.13945">
        <ele>799.47</ele>
        <time>2014-09-17T08:10:48Z</time>
      </trkpt>
      <trkpt lat="44.44874" lon="5.13956">
        <ele>802.84</ele>
        <time>2014-09-17T08:11:04Z</time>
      </trkpt>
      <trkpt lat="44.4487" lon="5.13969">
        <ele>806.2</ele>
        <time>2014-09-17T08:11:21Z</time>
      </trkpt>
      <trkpt lat="44.44868" lon="5.13978">
        <ele>807.16</ele>
        <time>2014-09-17T08:11:32Z</time>
      </trkpt>
      <trkpt lat="44.44871" lon="5.13981">
        <ele>808.61</ele>
        <time>2014-09-17T08:11:36Z</time>
      </trkpt>
      <trkpt lat="44.44872" lon="5.13984">
        <ele>808.13</ele>
        <time>2014-09-17T08:11:38Z</time>
      </trkpt>
      <trkpt lat="44.44869" lon="5.13999">
        <ele>811.49</ele>
        <time>2014-09-17T08:11:55Z</time>
      </trkpt>
      <trkpt lat="44.4487" lon="5.14003">
        <ele>812.93</ele>
        <time>2014-09-17T08:12:06Z</time>
      </trkpt>
      <trkpt lat="44.44871" lon="5.14013">
        <ele>814.85</ele>
        <time>2014-09-17T08:12:14Z</time>
      </trkpt>
      <trkpt lat="44.44874" lon="5.14024">
        <ele>817.26</ele>
        <time>2014-09-17T08:12:29Z</time>
      </trkpt>
      <trkpt lat="44.44874" lon="5.14032">
        <ele>817.74</ele>
        <time>2014-09-17T08:12:36Z</time>
      </trkpt>
      <trkpt lat="44.44873" lon="5.14039">
        <ele>820.14</ele>
        <time>2014-09-17T08:12:48Z</time>
      </trkpt>
      <trkpt lat="44.4487" lon="5.14048">
        <ele>820.62</ele>
        <time>2014-09-17T08:12:58Z</time>
      </trkpt>
      <trkpt lat="44.44863" lon="5.14053">
        <ele>822.06</ele>
        <time>2014-09-17T08:13:09Z</time>
      </trkpt>
      <trkpt lat="44.44858" lon="5.14057">
        <ele>825.43</ele>
        <time>2014-09-17T08:13:22Z</time>
      </trkpt>
      <trkpt lat="44.44854" lon="5.14057">
        <ele>826.39</ele>
        <time>2014-09-17T08:13:33Z</time>
      </trkpt>
      <trkpt lat="44.4485" lon="5.14058">
        <ele>829.76</ele>
        <time>2014-09-17T08:13:49Z</time>
      </trkpt>
      <trkpt lat="44.44844" lon="5.14056">
        <ele>830.72</ele>
        <time>2014-09-17T08:13:58Z</time>
      </trkpt>
      <trkpt lat="44.44843" lon="5.14056">
        <ele>830.24</ele>
        <time>2014-09-17T08:13:59Z</time>
      </trkpt>
      <trkpt lat="44.44834" lon="5.14057">
        <ele>830.24</ele>
        <time>2014-09-17T08:14:09Z</time>
      </trkpt>
      <trkpt lat="44.44827" lon="5.14059">
        <ele>832.64</ele>
        <time>2014-09-17T08:14:21Z</time>
      </trkpt>
      <trkpt lat="44.44822" lon="5.14061">
        <ele>836</ele>
        <time>2014-09-17T08:14:37Z</time>
      </trkpt>
      <trkpt lat="44.44816" lon="5.14067">
        <ele>838.41</ele>
        <time>2014-09-17T08:14:52Z</time>
      </trkpt>
      <trkpt lat="44.44808" lon="5.14067">
        <ele>841.77</ele>
        <time>2014-09-17T08:15:09Z</time>
      </trkpt>
      <trkpt lat="44.44805" lon="5.14066">
        <ele>843.21</ele>
        <time>2014-09-17T08:15:22Z</time>
      </trkpt>
      <trkpt lat="44.44798" lon="5.14065">
        <ele>844.66</ele>
        <time>2014-09-17T08:15:34Z</time>
      </trkpt>
      <trkpt lat="44.44791" lon="5.14066">
        <ele>847.54</ele>
        <time>2014-09-17T08:15:53Z</time>
      </trkpt>
      <trkpt lat="44.44779" lon="5.14065">
        <ele>849.46</ele>
        <time>2014-09-17T08:16:10Z</time>
      </trkpt>
      <trkpt lat="44.44766" lon="5.14062">
        <ele>849.94</ele>
        <time>2014-09-17T08:16:25Z</time>
      </trkpt>
      <trkpt lat="44.44758" lon="5.14056">
        <ele>850.9</ele>
        <time>2014-09-17T08:16:36Z</time>
      </trkpt>
      <trkpt lat="44.44754" lon="5.14052">
        <ele>852.83</ele>
        <time>2014-09-17T08:16:48Z</time>
      </trkpt>
      <trkpt lat="44.44745" lon="5.14048">
        <ele>855.71</ele>
        <time>2014-09-17T08:17:04Z</time>
      </trkpt>
      <trkpt lat="44.44744" lon="5.14048">
        <ele>855.71</ele>
        <time>2014-09-17T08:17:05Z</time>
      </trkpt>
      <trkpt lat="44.44733" lon="5.14044">
        <ele>857.15</ele>
        <time>2014-09-17T08:17:19Z</time>
      </trkpt>
      <trkpt lat="44.44726" lon="5.14043">
        <ele>859.08</ele>
        <time>2014-09-17T08:17:32Z</time>
      </trkpt>
      <trkpt lat="44.44712" lon="5.14047">
        <ele>861</ele>
        <time>2014-09-17T08:17:51Z</time>
      </trkpt>
      <trkpt lat="44.44696" lon="5.14055">
        <ele>864.36</ele>
        <time>2014-09-17T08:18:15Z</time>
      </trkpt>
      <trkpt lat="44.44693" lon="5.14057">
        <ele>866.29</ele>
        <time>2014-09-17T08:18:24Z</time>
      </trkpt>
      <trkpt lat="44.44684" lon="5.14057">
        <ele>869.65</ele>
        <time>2014-09-17T08:18:40Z</time>
      </trkpt>
      <trkpt lat="44.44675" lon="5.1405">
        <ele>873.01</ele>
        <time>2014-09-17T08:19:00Z</time>
      </trkpt>
      <trkpt lat="44.44675" lon="5.1405">
        <ele>873.01</ele>
        <time>2014-09-17T08:19:01Z</time>
      </trkpt>
      <trkpt lat="44.44662" lon="5.14033">
        <ele>875.42</ele>
        <time>2014-09-17T08:19:26Z</time>
      </trkpt>
      <trkpt lat="44.44655" lon="5.14021">
        <ele>878.78</ele>
        <time>2014-09-17T08:19:43Z</time>
      </trkpt>
      <trkpt lat="44.44654" lon="5.14019">
        <ele>879.26</ele>
        <time>2014-09-17T08:19:46Z</time>
      </trkpt>
      <trkpt lat="44.44653" lon="5.14008">
        <ele>879.74</ele>
        <time>2014-09-17T08:19:55Z</time>
      </trkpt>
      <trkpt lat="44.44647" lon="5.13997">
        <ele>882.63</ele>
        <time>2014-09-17T08:20:12Z</time>
      </trkpt>
      <trkpt lat="44.44643" lon="5.1399">
        <ele>884.07</ele>
        <time>2014-09-17T08:20:21Z</time>
      </trkpt>
      <trkpt lat="44.44641" lon="5.13983">
        <ele>884.07</ele>
        <time>2014-09-17T08:20:31Z</time>
      </trkpt>
      <trkpt lat="44.4464" lon="5.13971">
        <ele>884.55</ele>
        <time>2014-09-17T08:20:40Z</time>
      </trkpt>
      <trkpt lat="44.44635" lon="5.13958">
        <ele>887.91</ele>
        <time>2014-09-17T08:20:56Z</time>
      </trkpt>
      <trkpt lat="44.44631" lon="5.13951">
        <ele>888.4</ele>
        <time>2014-09-17T08:21:02Z</time>
      </trkpt>
      <trkpt lat="44.44627" lon="5.13947">
        <ele>889.36</ele>
        <time>2014-09-17T08:21:07Z</time>
      </trkpt>
      <trkpt lat="44.44623" lon="5.13935">
        <ele>891.76</ele>
        <time>2014-09-17T08:21:19Z</time>
      </trkpt>
      <trkpt lat="44.44622" lon="5.13931">
        <ele>891.76</ele>
        <time>2014-09-17T08:21:26Z</time>
      </trkpt>
      <trkpt lat="44.4462" lon="5.13923">
        <ele>894.16</ele>
        <time>2014-09-17T08:21:40Z</time>
      </trkpt>
      <trkpt lat="44.44614" lon="5.13916">
        <ele>897.53</ele>
        <time>2014-09-17T08:22:01Z</time>
      </trkpt>
      <trkpt lat="44.44591" lon="5.13897">
        <ele>899.45</ele>
        <time>2014-09-17T08:22:34Z</time>
      </trkpt>
      <trkpt lat="44.44584" lon="5.13891">
        <ele>899.93</ele>
        <time>2014-09-17T08:22:45Z</time>
      </trkpt>
      <trkpt lat="44.44582" lon="5.13888">
        <ele>901.85</ele>
        <time>2014-09-17T08:24:32Z</time>
      </trkpt>
      <trkpt lat="44.44582" lon="5.13888">
        <ele>900.89</ele>
        <time>2014-09-17T08:24:38Z</time>
      </trkpt>
      <trkpt lat="44.44568" lon="5.13888">
        <ele>900.89</ele>
        <time>2014-09-17T08:25:47Z</time>
      </trkpt>
      <trkpt lat="44.44579" lon="5.1389">
        <ele>899.45</ele>
        <time>2014-09-17T08:26:15Z</time>
      </trkpt>
      <trkpt lat="44.4456" lon="5.13887">
        <ele>900.89</ele>
        <time>2014-09-17T08:27:05Z</time>
      </trkpt>
      <trkpt lat="44.4456" lon="5.13887">
        <ele>899.93</ele>
        <time>2014-09-17T08:27:18Z</time>
      </trkpt>
      <trkpt lat="44.44574" lon="5.13892">
        <ele>899.93</ele>
        <time>2014-09-17T08:27:35Z</time>
      </trkpt>
      <trkpt lat="44.44562" lon="5.13889">
        <ele>899.45</ele>
        <time>2014-09-17T08:28:43Z</time>
      </trkpt>
      <trkpt lat="44.44554" lon="5.13891">
        <ele>897.05</ele>
        <time>2014-09-17T08:28:58Z</time>
      </trkpt>
      <trkpt lat="44.44542" lon="5.13886">
        <ele>893.68</ele>
        <time>2014-09-17T08:29:15Z</time>
      </trkpt>
      <trkpt lat="44.44527" lon="5.13882">
        <ele>893.68</ele>
        <time>2014-09-17T08:29:30Z</time>
      </trkpt>
      <trkpt lat="44.44507" lon="5.13876">
        <ele>896.57</ele>
        <time>2014-09-17T08:29:56Z</time>
      </trkpt>
      <trkpt lat="44.44494" lon="5.1387">
        <ele>898.01</ele>
        <time>2014-09-17T08:30:09Z</time>
      </trkpt>
      <trkpt lat="44.44484" lon="5.13867">
        <ele>899.93</ele>
        <time>2014-09-17T08:30:18Z</time>
      </trkpt>
      <trkpt lat="44.44471" lon="5.13862">
        <ele>902.33</ele>
        <time>2014-09-17T08:30:37Z</time>
      </trkpt>
      <trkpt lat="44.44461" lon="5.13852">
        <ele>906.18</ele>
        <time>2014-09-17T08:30:57Z</time>
      </trkpt>
      <trkpt lat="44.44448" lon="5.13836">
        <ele>909.06</ele>
        <time>2014-09-17T08:31:19Z</time>
      </trkpt>
      <trkpt lat="44.44443" lon="5.13831">
        <ele>910.99</ele>
        <time>2014-09-17T08:31:30Z</time>
      </trkpt>
      <trkpt lat="44.44439" lon="5.13829">
        <ele>913.87</ele>
        <time>2014-09-17T08:31:45Z</time>
      </trkpt>
      <trkpt lat="44.44435" lon="5.13826">
        <ele>916.75</ele>
        <time>2014-09-17T08:31:59Z</time>
      </trkpt>
      <trkpt lat="44.4443" lon="5.13824">
        <ele>918.68</ele>
        <time>2014-09-17T08:32:10Z</time>
      </trkpt>
      <trkpt lat="44.44421" lon="5.13825">
        <ele>921.56</ele>
        <time>2014-09-17T08:32:26Z</time>
      </trkpt>
      <trkpt lat="44.44411" lon="5.13823">
        <ele>922.04</ele>
        <time>2014-09-17T08:32:38Z</time>
      </trkpt>
      <trkpt lat="44.44399" lon="5.13817">
        <ele>923.96</ele>
        <time>2014-09-17T08:32:59Z</time>
      </trkpt>
      <trkpt lat="44.44387" lon="5.13816">
        <ele>927.81</ele>
        <time>2014-09-17T08:33:18Z</time>
      </trkpt>
      <trkpt lat="44.44378" lon="5.13814">
        <ele>928.29</ele>
        <time>2014-09-17T08:33:30Z</time>
      </trkpt>
      <trkpt lat="44.44357" lon="5.13805">
        <ele>931.17</ele>
        <time>2014-09-17T08:33:49Z</time>
      </trkpt>
      <trkpt lat="44.44338" lon="5.13801">
        <ele>932.14</ele>
        <time>2014-09-17T08:34:07Z</time>
      </trkpt>
      <trkpt lat="44.44311" lon="5.1379">
        <ele>935.5</ele>
        <time>2014-09-17T08:34:39Z</time>
      </trkpt>
      <trkpt lat="44.443" lon="5.13785">
        <ele>935.5</ele>
        <time>2014-09-17T08:35:00Z</time>
      </trkpt>
      <trkpt lat="44.44284" lon="5.13768">
        <ele>933.58</ele>
        <time>2014-09-17T08:35:39Z</time>
      </trkpt>
      <trkpt lat="44.44264" lon="5.1376">
        <ele>932.62</ele>
        <time>2014-09-17T08:35:54Z</time>
      </trkpt>
      <trkpt lat="44.44238" lon="5.1375">
        <ele>935.5</ele>
        <time>2014-09-17T08:36:10Z</time>
      </trkpt>
      <trkpt lat="44.44237" lon="5.13749">
        <ele>935.98</ele>
        <time>2014-09-17T08:36:15Z</time>
      </trkpt>
      <trkpt lat="44.44234" lon="5.13744">
        <ele>936.46</ele>
        <time>2014-09-17T08:36:24Z</time>
      </trkpt>
      <trkpt lat="44.44206" lon="5.1373">
        <ele>939.83</ele>
        <time>2014-09-17T08:36:49Z</time>
      </trkpt>
      <trkpt lat="44.44193" lon="5.1372">
        <ele>942.71</ele>
        <time>2014-09-17T08:37:07Z</time>
      </trkpt>
      <trkpt lat="44.44191" lon="5.13718">
        <ele>946.07</ele>
        <time>2014-09-17T08:37:23Z</time>
      </trkpt>
      <trkpt lat="44.44175" lon="5.13709">
        <ele>948</ele>
        <time>2014-09-17T08:37:40Z</time>
      </trkpt>
      <trkpt lat="44.44168" lon="5.13706">
        <ele>949.92</ele>
        <time>2014-09-17T08:37:53Z</time>
      </trkpt>
      <trkpt lat="44.44162" lon="5.13704">
        <ele>951.36</ele>
        <time>2014-09-17T08:38:07Z</time>
      </trkpt>
      <trkpt lat="44.44159" lon="5.13701">
        <ele>952.32</ele>
        <time>2014-09-17T08:38:16Z</time>
      </trkpt>
      <trkpt lat="44.44153" lon="5.13698">
        <ele>952.8</ele>
        <time>2014-09-17T08:38:28Z</time>
      </trkpt>
      <trkpt lat="44.44143" lon="5.13693">
        <ele>954.25</ele>
        <time>2014-09-17T08:38:43Z</time>
      </trkpt>
      <trkpt lat="44.44142" lon="5.13693">
        <ele>953.77</ele>
        <time>2014-09-17T08:38:45Z</time>
      </trkpt>
      <trkpt lat="44.44131" lon="5.13695">
        <ele>955.21</ele>
        <time>2014-09-17T08:38:57Z</time>
      </trkpt>
      <trkpt lat="44.44124" lon="5.1369">
        <ele>956.65</ele>
        <time>2014-09-17T08:39:08Z</time>
      </trkpt>
      <trkpt lat="44.44118" lon="5.13689">
        <ele>957.61</ele>
        <time>2014-09-17T08:39:19Z</time>
      </trkpt>
      <trkpt lat="44.44118" lon="5.13689">
        <ele>957.13</ele>
        <time>2014-09-17T08:39:20Z</time>
      </trkpt>
      <trkpt lat="44.44114" lon="5.13687">
        <ele>957.13</ele>
        <time>2014-09-17T08:39:30Z</time>
      </trkpt>
      <trkpt lat="44.44099" lon="5.13684">
        <ele>959.05</ele>
        <time>2014-09-17T08:39:57Z</time>
      </trkpt>
      <trkpt lat="44.44089" lon="5.13683">
        <ele>960.49</ele>
        <time>2014-09-17T08:40:12Z</time>
      </trkpt>
      <trkpt lat="44.44087" lon="5.13682">
        <ele>961.94</ele>
        <time>2014-09-17T08:40:15Z</time>
      </trkpt>
      <trkpt lat="44.44079" lon="5.13682">
        <ele>961.94</ele>
        <time>2014-09-17T08:40:23Z</time>
      </trkpt>
      <trkpt lat="44.44073" lon="5.1368">
        <ele>962.9</ele>
        <time>2014-09-17T08:40:31Z</time>
      </trkpt>
      <trkpt lat="44.44067" lon="5.13676">
        <ele>962.9</ele>
        <time>2014-09-17T08:40:37Z</time>
      </trkpt>
      <trkpt lat="44.44061" lon="5.13676">
        <ele>962.9</ele>
        <time>2014-09-17T08:40:43Z</time>
      </trkpt>
      <trkpt lat="44.44057" lon="5.13673">
        <ele>963.86</ele>
        <time>2014-09-17T08:40:47Z</time>
      </trkpt>
      <trkpt lat="44.44049" lon="5.1367">
        <ele>963.86</ele>
        <time>2014-09-17T08:40:54Z</time>
      </trkpt>
      <trkpt lat="44.44046" lon="5.13668">
        <ele>964.34</ele>
        <time>2014-09-17T08:41:11Z</time>
      </trkpt>
      <trkpt lat="44.44045" lon="5.13667">
        <ele>963.86</ele>
        <time>2014-09-17T08:41:12Z</time>
      </trkpt>
      <trkpt lat="44.44041" lon="5.13665">
        <ele>963.86</ele>
        <time>2014-09-17T08:41:15Z</time>
      </trkpt>
      <trkpt lat="44.44039" lon="5.13665">
        <ele>963.86</ele>
        <time>2014-09-17T08:41:17Z</time>
      </trkpt>
      <trkpt lat="44.44036" lon="5.13661">
        <ele>963.38</ele>
        <time>2014-09-17T08:41:21Z</time>
      </trkpt>
      <trkpt lat="44.44021" lon="5.13651">
        <ele>964.34</ele>
        <time>2014-09-17T08:41:35Z</time>
      </trkpt>
      <trkpt lat="44.44015" lon="5.13646">
        <ele>963.86</ele>
        <time>2014-09-17T08:41:49Z</time>
      </trkpt>
      <trkpt lat="44.44014" lon="5.13646">
        <ele>964.34</ele>
        <time>2014-09-17T08:42:07Z</time>
      </trkpt>
      <trkpt lat="44.44012" lon="5.13645">
        <ele>964.82</ele>
        <time>2014-09-17T08:42:39Z</time>
      </trkpt>
      <trkpt lat="44.44012" lon="5.13644">
        <ele>963.86</ele>
        <time>2014-09-17T08:42:53Z</time>
      </trkpt>
      <trkpt lat="44.44007" lon="5.13637">
        <ele>963.38</ele>
        <time>2014-09-17T08:43:04Z</time>
      </trkpt>
      <trkpt lat="44.44" lon="5.13629">
        <ele>963.38</ele>
        <time>2014-09-17T08:43:57Z</time>
      </trkpt>
      <trkpt lat="44.43988" lon="5.13616">
        <ele>962.9</ele>
        <time>2014-09-17T08:44:12Z</time>
      </trkpt>
      <trkpt lat="44.43987" lon="5.13617">
        <ele>962.42</ele>
        <time>2014-09-17T08:44:13Z</time>
      </trkpt>
      <trkpt lat="44.43984" lon="5.13616">
        <ele>962.9</ele>
        <time>2014-09-17T08:44:16Z</time>
      </trkpt>
      <trkpt lat="44.43973" lon="5.13607">
        <ele>962.9</ele>
        <time>2014-09-17T08:44:28Z</time>
      </trkpt>
      <trkpt lat="44.4397" lon="5.13605">
        <ele>961.94</ele>
        <time>2014-09-17T08:44:31Z</time>
      </trkpt>
      <trkpt lat="44.43963" lon="5.13595">
        <ele>961.94</ele>
        <time>2014-09-17T08:44:42Z</time>
      </trkpt>
      <trkpt lat="44.43963" lon="5.13593">
        <ele>960.49</ele>
        <time>2014-09-17T08:44:49Z</time>
      </trkpt>
      <trkpt lat="44.43956" lon="5.13585">
        <ele>961.46</ele>
        <time>2014-09-17T08:45:00Z</time>
      </trkpt>
      <trkpt lat="44.43944" lon="5.13577">
        <ele>959.53</ele>
        <time>2014-09-17T08:45:13Z</time>
      </trkpt>
      <trkpt lat="44.43938" lon="5.13571">
        <ele>959.05</ele>
        <time>2014-09-17T08:45:24Z</time>
      </trkpt>
      <trkpt lat="44.43927" lon="5.1356">
        <ele>958.57</ele>
        <time>2014-09-17T08:45:40Z</time>
      </trkpt>
      <trkpt lat="44.43926" lon="5.13559">
        <ele>958.57</ele>
        <time>2014-09-17T08:45:42Z</time>
      </trkpt>
      <trkpt lat="44.43925" lon="5.13553">
        <ele>957.61</ele>
        <time>2014-09-17T08:45:56Z</time>
      </trkpt>
      <trkpt lat="44.43921" lon="5.13545">
        <ele>958.09</ele>
        <time>2014-09-17T08:46:16Z</time>
      </trkpt>
      <trkpt lat="44.43919" lon="5.13545">
        <ele>958.57</ele>
        <time>2014-09-17T08:46:19Z</time>
      </trkpt>
      <trkpt lat="44.43907" lon="5.13546">
        <ele>959.53</ele>
        <time>2014-09-17T08:46:31Z</time>
      </trkpt>
      <trkpt lat="44.43894" lon="5.13548">
        <ele>961.94</ele>
        <time>2014-09-17T08:46:44Z</time>
      </trkpt>
      <trkpt lat="44.43886" lon="5.13552">
        <ele>963.86</ele>
        <time>2014-09-17T08:46:56Z</time>
      </trkpt>
      <trkpt lat="44.4388" lon="5.13556">
        <ele>965.78</ele>
        <time>2014-09-17T08:47:04Z</time>
      </trkpt>
      <trkpt lat="44.43871" lon="5.13556">
        <ele>966.74</ele>
        <time>2014-09-17T08:47:14Z</time>
      </trkpt>
      <trkpt lat="44.43864" lon="5.13555">
        <ele>969.15</ele>
        <time>2014-09-17T08:47:24Z</time>
      </trkpt>
      <trkpt lat="44.43856" lon="5.13555">
        <ele>971.07</ele>
        <time>2014-09-17T08:47:38Z</time>
      </trkpt>
      <trkpt lat="44.43849" lon="5.13555">
        <ele>973.47</ele>
        <time>2014-09-17T08:47:51Z</time>
      </trkpt>
      <trkpt lat="44.43839" lon="5.13555">
        <ele>974.43</ele>
        <time>2014-09-17T08:48:07Z</time>
      </trkpt>
      <trkpt lat="44.43831" lon="5.13561">
        <ele>975.88</ele>
        <time>2014-09-17T08:48:18Z</time>
      </trkpt>
      <trkpt lat="44.43824" lon="5.13565">
        <ele>977.8</ele>
        <time>2014-09-17T08:48:28Z</time>
      </trkpt>
      <trkpt lat="44.43815" lon="5.13568">
        <ele>978.28</ele>
        <time>2014-09-17T08:48:37Z</time>
      </trkpt>
      <trkpt lat="44.43805" lon="5.13572">
        <ele>978.28</ele>
        <time>2014-09-17T08:48:47Z</time>
      </trkpt>
      <trkpt lat="44.43803" lon="5.13572">
        <ele>978.76</ele>
        <time>2014-09-17T08:48:49Z</time>
      </trkpt>
      <trkpt lat="44.43791" lon="5.13576">
        <ele>981.16</ele>
        <time>2014-09-17T08:49:02Z</time>
      </trkpt>
      <trkpt lat="44.43784" lon="5.13581">
        <ele>981.64</ele>
        <time>2014-09-17T08:49:12Z</time>
      </trkpt>
      <trkpt lat="44.4378" lon="5.13584">
        <ele>984.53</ele>
        <time>2014-09-17T08:49:21Z</time>
      </trkpt>
      <trkpt lat="44.43772" lon="5.13588">
        <ele>987.41</ele>
        <time>2014-09-17T08:49:33Z</time>
      </trkpt>
      <trkpt lat="44.43766" lon="5.13591">
        <ele>987.89</ele>
        <time>2014-09-17T08:49:42Z</time>
      </trkpt>
      <trkpt lat="44.43761" lon="5.13588">
        <ele>987.89</ele>
        <time>2014-09-17T08:49:51Z</time>
      </trkpt>
      <trkpt lat="44.43756" lon="5.13581">
        <ele>987.89</ele>
        <time>2014-09-17T08:50:03Z</time>
      </trkpt>
      <trkpt lat="44.43754" lon="5.13572">
        <ele>990.78</ele>
        <time>2014-09-17T08:50:19Z</time>
      </trkpt>
      <trkpt lat="44.43745" lon="5.1356">
        <ele>991.26</ele>
        <time>2014-09-17T08:50:36Z</time>
      </trkpt>
      <trkpt lat="44.43733" lon="5.1355">
        <ele>992.22</ele>
        <time>2014-09-17T08:50:48Z</time>
      </trkpt>
      <trkpt lat="44.43718" lon="5.13542">
        <ele>991.74</ele>
        <time>2014-09-17T08:51:01Z</time>
      </trkpt>
      <trkpt lat="44.43705" lon="5.13537">
        <ele>991.74</ele>
        <time>2014-09-17T08:51:14Z</time>
      </trkpt>
      <trkpt lat="44.43694" lon="5.13532">
        <ele>991.74</ele>
        <time>2014-09-17T08:51:25Z</time>
      </trkpt>
      <trkpt lat="44.43687" lon="5.13528">
        <ele>993.18</ele>
        <time>2014-09-17T08:51:33Z</time>
      </trkpt>
      <trkpt lat="44.4368" lon="5.13526">
        <ele>992.22</ele>
        <time>2014-09-17T08:51:40Z</time>
      </trkpt>
      <trkpt lat="44.43674" lon="5.13525">
        <ele>992.22</ele>
        <time>2014-09-17T08:51:47Z</time>
      </trkpt>
      <trkpt lat="44.4367" lon="5.13522">
        <ele>992.22</ele>
        <time>2014-09-17T08:51:51Z</time>
      </trkpt>
      <trkpt lat="44.43657" lon="5.13521">
        <ele>993.66</ele>
        <time>2014-09-17T08:52:05Z</time>
      </trkpt>
      <trkpt lat="44.43649" lon="5.13518">
        <ele>992.7</ele>
        <time>2014-09-17T08:52:16Z</time>
      </trkpt>
      <trkpt lat="44.43647" lon="5.13517">
        <ele>991.74</ele>
        <time>2014-09-17T08:52:18Z</time>
      </trkpt>
      <trkpt lat="44.43639" lon="5.13516">
        <ele>993.18</ele>
        <time>2014-09-17T08:52:26Z</time>
      </trkpt>
      <trkpt lat="44.4363" lon="5.13516">
        <ele>993.18</ele>
        <time>2014-09-17T08:52:34Z</time>
      </trkpt>
      <trkpt lat="44.43623" lon="5.13518">
        <ele>992.7</ele>
        <time>2014-09-17T08:52:41Z</time>
      </trkpt>
      <trkpt lat="44.43612" lon="5.13517">
        <ele>993.66</ele>
        <time>2014-09-17T08:52:56Z</time>
      </trkpt>
      <trkpt lat="44.43612" lon="5.13517">
        <ele>994.62</ele>
        <time>2014-09-17T08:53:10Z</time>
      </trkpt>
      <trkpt lat="44.43612" lon="5.13513">
        <ele>993.18</ele>
        <time>2014-09-17T08:53:29Z</time>
      </trkpt>
      <trkpt lat="44.43607" lon="5.13519">
        <ele>993.18</ele>
        <time>2014-09-17T08:53:41Z</time>
      </trkpt>
      <trkpt lat="44.43602" lon="5.13515">
        <ele>994.14</ele>
        <time>2014-09-17T08:53:47Z</time>
      </trkpt>
      <trkpt lat="44.43594" lon="5.1351">
        <ele>994.14</ele>
        <time>2014-09-17T08:53:58Z</time>
      </trkpt>
      <trkpt lat="44.43591" lon="5.13509">
        <ele>994.14</ele>
        <time>2014-09-17T08:54:01Z</time>
      </trkpt>
      <trkpt lat="44.43578" lon="5.13512">
        <ele>994.14</ele>
        <time>2014-09-17T08:54:14Z</time>
      </trkpt>
      <trkpt lat="44.43569" lon="5.13511">
        <ele>994.62</ele>
        <time>2014-09-17T08:54:23Z</time>
      </trkpt>
      <trkpt lat="44.43555" lon="5.13505">
        <ele>996.06</ele>
        <time>2014-09-17T08:54:38Z</time>
      </trkpt>
      <trkpt lat="44.43546" lon="5.13501">
        <ele>997.99</ele>
        <time>2014-09-17T08:54:47Z</time>
      </trkpt>
      <trkpt lat="44.43537" lon="5.13499">
        <ele>997.99</ele>
        <time>2014-09-17T08:54:57Z</time>
      </trkpt>
      <trkpt lat="44.43527" lon="5.13496">
        <ele>1000.39</ele>
        <time>2014-09-17T08:55:07Z</time>
      </trkpt>
      <trkpt lat="44.43519" lon="5.13491">
        <ele>1000.87</ele>
        <time>2014-09-17T08:55:18Z</time>
      </trkpt>
      <trkpt lat="44.43514" lon="5.13487">
        <ele>1003.75</ele>
        <time>2014-09-17T08:55:36Z</time>
      </trkpt>
      <trkpt lat="44.43496" lon="5.1348">
        <ele>1007.12</ele>
        <time>2014-09-17T08:55:58Z</time>
      </trkpt>
      <trkpt lat="44.43485" lon="5.13467">
        <ele>1008.56</ele>
        <time>2014-09-17T08:56:21Z</time>
      </trkpt>
      <trkpt lat="44.4348" lon="5.13457">
        <ele>1010.48</ele>
        <time>2014-09-17T08:56:37Z</time>
      </trkpt>
      <trkpt lat="44.43466" lon="5.13446">
        <ele>1011.93</ele>
        <time>2014-09-17T08:56:50Z</time>
      </trkpt>
      <trkpt lat="44.43457" lon="5.13434">
        <ele>1013.37</ele>
        <time>2014-09-17T08:57:03Z</time>
      </trkpt>
      <trkpt lat="44.43442" lon="5.13421">
        <ele>1013.37</ele>
        <time>2014-09-17T08:57:19Z</time>
      </trkpt>
      <trkpt lat="44.43433" lon="5.13405">
        <ele>1012.89</ele>
        <time>2014-09-17T08:57:36Z</time>
      </trkpt>
      <trkpt lat="44.4343" lon="5.134">
        <ele>1011.93</ele>
        <time>2014-09-17T08:57:42Z</time>
      </trkpt>
      <trkpt lat="44.43428" lon="5.134">
        <ele>1015.77</ele>
        <time>2014-09-17T08:57:44Z</time>
      </trkpt>
      <trkpt lat="44.43416" lon="5.13377">
        <ele>1013.85</ele>
        <time>2014-09-17T08:58:00Z</time>
      </trkpt>
      <trkpt lat="44.43405" lon="5.13354">
        <ele>1013.85</ele>
        <time>2014-09-17T08:58:16Z</time>
      </trkpt>
      <trkpt lat="44.43393" lon="5.13337">
        <ele>1014.81</ele>
        <time>2014-09-17T08:58:33Z</time>
      </trkpt>
      <trkpt lat="44.43386" lon="5.13322">
        <ele>1014.81</ele>
        <time>2014-09-17T08:58:44Z</time>
      </trkpt>
      <trkpt lat="44.4338" lon="5.13313">
        <ele>1014.33</ele>
        <time>2014-09-17T08:58:52Z</time>
      </trkpt>
      <trkpt lat="44.43375" lon="5.13296">
        <ele>1015.29</ele>
        <time>2014-09-17T08:59:04Z</time>
      </trkpt>
      <trkpt lat="44.43363" lon="5.13278">
        <ele>1016.73</ele>
        <time>2014-09-17T08:59:20Z</time>
      </trkpt>
      <trkpt lat="44.43355" lon="5.13263">
        <ele>1017.69</ele>
        <time>2014-09-17T08:59:32Z</time>
      </trkpt>
      <trkpt lat="44.43351" lon="5.13257">
        <ele>1017.69</ele>
        <time>2014-09-17T08:59:38Z</time>
      </trkpt>
      <trkpt lat="44.43345" lon="5.13247">
        <ele>1016.73</ele>
        <time>2014-09-17T08:59:47Z</time>
      </trkpt>
      <trkpt lat="44.43344" lon="5.13246">
        <ele>1016.73</ele>
        <time>2014-09-17T08:59:48Z</time>
      </trkpt>
      <trkpt lat="44.43342" lon="5.13244">
        <ele>1017.21</ele>
        <time>2014-09-17T08:59:50Z</time>
      </trkpt>
      <trkpt lat="44.43338" lon="5.13231">
        <ele>1017.21</ele>
        <time>2014-09-17T09:00:00Z</time>
      </trkpt>
      <trkpt lat="44.43336" lon="5.13222">
        <ele>1017.21</ele>
        <time>2014-09-17T09:00:10Z</time>
      </trkpt>
      <trkpt lat="44.43331" lon="5.1321">
        <ele>1017.69</ele>
        <time>2014-09-17T09:00:21Z</time>
      </trkpt>
      <trkpt lat="44.43324" lon="5.13197">
        <ele>1017.69</ele>
        <time>2014-09-17T09:00:33Z</time>
      </trkpt>
      <trkpt lat="44.43315" lon="5.13184">
        <ele>1019.13</ele>
        <time>2014-09-17T09:00:52Z</time>
      </trkpt>
      <trkpt lat="44.43308" lon="5.13173">
        <ele>1020.1</ele>
        <time>2014-09-17T09:01:03Z</time>
      </trkpt>
      <trkpt lat="44.43304" lon="5.13162">
        <ele>1020.1</ele>
        <time>2014-09-17T09:01:13Z</time>
      </trkpt>
      <trkpt lat="44.43297" lon="5.1315">
        <ele>1022.02</ele>
        <time>2014-09-17T09:02:28Z</time>
      </trkpt>
      <trkpt lat="44.43292" lon="5.13133">
        <ele>1022.02</ele>
        <time>2014-09-17T09:02:39Z</time>
      </trkpt>
      <trkpt lat="44.43295" lon="5.13124">
        <ele>1023.94</ele>
        <time>2014-09-17T09:02:47Z</time>
      </trkpt>
      <trkpt lat="44.43294" lon="5.13113">
        <ele>1024.9</ele>
        <time>2014-09-17T09:02:56Z</time>
      </trkpt>
      <trkpt lat="44.43291" lon="5.13103">
        <ele>1025.86</ele>
        <time>2014-09-17T09:03:06Z</time>
      </trkpt>
      <trkpt lat="44.43292" lon="5.13096">
        <ele>1025.86</ele>
        <time>2014-09-17T09:03:10Z</time>
      </trkpt>
      <trkpt lat="44.43291" lon="5.13087">
        <ele>1027.79</ele>
        <time>2014-09-17T09:03:20Z</time>
      </trkpt>
      <trkpt lat="44.43294" lon="5.13075">
        <ele>1030.19</ele>
        <time>2014-09-17T09:03:34Z</time>
      </trkpt>
      <trkpt lat="44.43292" lon="5.13069">
        <ele>1031.63</ele>
        <time>2014-09-17T09:03:45Z</time>
      </trkpt>
      <trkpt lat="44.4329" lon="5.13061">
        <ele>1032.11</ele>
        <time>2014-09-17T09:03:57Z</time>
      </trkpt>
      <trkpt lat="44.43288" lon="5.13057">
        <ele>1033.07</ele>
        <time>2014-09-17T09:04:11Z</time>
      </trkpt>
      <trkpt lat="44.43285" lon="5.13048">
        <ele>1034.52</ele>
        <time>2014-09-17T09:04:25Z</time>
      </trkpt>
      <trkpt lat="44.43283" lon="5.13041">
        <ele>1036.44</ele>
        <time>2014-09-17T09:04:34Z</time>
      </trkpt>
      <trkpt lat="44.43283" lon="5.1304">
        <ele>1036.44</ele>
        <time>2014-09-17T09:04:36Z</time>
      </trkpt>
      <trkpt lat="44.43281" lon="5.13029">
        <ele>1037.88</ele>
        <time>2014-09-17T09:04:48Z</time>
      </trkpt>
      <trkpt lat="44.43278" lon="5.13021">
        <ele>1038.84</ele>
        <time>2014-09-17T09:04:58Z</time>
      </trkpt>
      <trkpt lat="44.43278" lon="5.13017">
        <ele>1039.8</ele>
        <time>2014-09-17T09:05:01Z</time>
      </trkpt>
      <trkpt lat="44.43279" lon="5.1301">
        <ele>1041.73</ele>
        <time>2014-09-17T09:05:12Z</time>
      </trkpt>
      <trkpt lat="44.43278" lon="5.13">
        <ele>1043.65</ele>
        <time>2014-09-17T09:05:28Z</time>
      </trkpt>
      <trkpt lat="44.43277" lon="5.12993">
        <ele>1045.57</ele>
        <time>2014-09-17T09:05:37Z</time>
      </trkpt>
      <trkpt lat="44.43273" lon="5.12985">
        <ele>1046.05</ele>
        <time>2014-09-17T09:05:48Z</time>
      </trkpt>
      <trkpt lat="44.43274" lon="5.12984">
        <ele>1047.01</ele>
        <time>2014-09-17T09:05:59Z</time>
      </trkpt>
      <trkpt lat="44.43275" lon="5.12979">
        <ele>1047.01</ele>
        <time>2014-09-17T09:06:14Z</time>
      </trkpt>
      <trkpt lat="44.43271" lon="5.1297">
        <ele>1047.97</ele>
        <time>2014-09-17T09:12:45Z</time>
      </trkpt>
      <trkpt lat="44.4327" lon="5.1297">
        <ele>1047.97</ele>
        <time>2014-09-17T09:12:50Z</time>
      </trkpt>
      <trkpt lat="44.43259" lon="5.12973">
        <ele>1046.53</ele>
        <time>2014-09-17T09:12:59Z</time>
      </trkpt>
      <trkpt lat="44.43249" lon="5.12971">
        <ele>1042.21</ele>
        <time>2014-09-17T09:13:08Z</time>
      </trkpt>
      <trkpt lat="44.43248" lon="5.1297">
        <ele>1045.09</ele>
        <time>2014-09-17T09:13:09Z</time>
      </trkpt>
      <trkpt lat="44.43244" lon="5.12971">
        <ele>1044.13</ele>
        <time>2014-09-17T09:13:15Z</time>
      </trkpt>
      <trkpt lat="44.43238" lon="5.1297">
        <ele>1042.69</ele>
        <time>2014-09-17T09:13:21Z</time>
      </trkpt>
      <trkpt lat="44.43229" lon="5.12968">
        <ele>1041.73</ele>
        <time>2014-09-17T09:13:29Z</time>
      </trkpt>
      <trkpt lat="44.43221" lon="5.12965">
        <ele>1040.28</ele>
        <time>2014-09-17T09:13:36Z</time>
      </trkpt>
      <trkpt lat="44.43207" lon="5.12963">
        <ele>1038.84</ele>
        <time>2014-09-17T09:13:47Z</time>
      </trkpt>
      <trkpt lat="44.43205" lon="5.12963">
        <ele>1038.84</ele>
        <time>2014-09-17T09:14:05Z</time>
      </trkpt>
      <trkpt lat="44.432" lon="5.12962">
        <ele>1038.84</ele>
        <time>2014-09-17T09:14:10Z</time>
      </trkpt>
      <trkpt lat="44.43186" lon="5.12969">
        <ele>1037.4</ele>
        <time>2014-09-17T09:14:21Z</time>
      </trkpt>
      <trkpt lat="44.4317" lon="5.12982">
        <ele>1036.44</ele>
        <time>2014-09-17T09:14:34Z</time>
      </trkpt>
      <trkpt lat="44.43166" lon="5.12986">
        <ele>1036.92</ele>
        <time>2014-09-17T09:14:37Z</time>
      </trkpt>
      <trkpt lat="44.43162" lon="5.12987">
        <ele>1036.92</ele>
        <time>2014-09-17T09:14:40Z</time>
      </trkpt>
      <trkpt lat="44.43159" lon="5.12989">
        <ele>1036.92</ele>
        <time>2014-09-17T09:14:42Z</time>
      </trkpt>
      <trkpt lat="44.43156" lon="5.12991">
        <ele>1037.4</ele>
        <time>2014-09-17T09:14:45Z</time>
      </trkpt>
      <trkpt lat="44.43146" lon="5.12998">
        <ele>1038.84</ele>
        <time>2014-09-17T09:14:54Z</time>
      </trkpt>
      <trkpt lat="44.43143" lon="5.13001">
        <ele>1039.8</ele>
        <time>2014-09-17T09:14:58Z</time>
      </trkpt>
      <trkpt lat="44.4314" lon="5.13002">
        <ele>1040.28</ele>
        <time>2014-09-17T09:15:01Z</time>
      </trkpt>
      <trkpt lat="44.43134" lon="5.13004">
        <ele>1041.25</ele>
        <time>2014-09-17T09:15:06Z</time>
      </trkpt>
      <trkpt lat="44.43126" lon="5.13005">
        <ele>1041.73</ele>
        <time>2014-09-17T09:15:12Z</time>
      </trkpt>
      <trkpt lat="44.43119" lon="5.13004">
        <ele>1043.17</ele>
        <time>2014-09-17T09:15:18Z</time>
      </trkpt>
      <trkpt lat="44.43117" lon="5.13003">
        <ele>1043.17</ele>
        <time>2014-09-17T09:15:20Z</time>
      </trkpt>
      <trkpt lat="44.43112" lon="5.13001">
        <ele>1043.65</ele>
        <time>2014-09-17T09:15:24Z</time>
      </trkpt>
      <trkpt lat="44.43109" lon="5.12998">
        <ele>1044.13</ele>
        <time>2014-09-17T09:15:28Z</time>
      </trkpt>
      <trkpt lat="44.43102" lon="5.12993">
        <ele>1045.57</ele>
        <time>2014-09-17T09:15:35Z</time>
      </trkpt>
      <trkpt lat="44.43097" lon="5.12991">
        <ele>1046.53</ele>
        <time>2014-09-17T09:15:40Z</time>
      </trkpt>
      <trkpt lat="44.4309" lon="5.12988">
        <ele>1047.49</ele>
        <time>2014-09-17T09:15:49Z</time>
      </trkpt>
      <trkpt lat="44.43082" lon="5.12983">
        <ele>1048.45</ele>
        <time>2014-09-17T09:16:01Z</time>
      </trkpt>
      <trkpt lat="44.43076" lon="5.12984">
        <ele>1050.86</ele>
        <time>2014-09-17T09:16:13Z</time>
      </trkpt>
      <trkpt lat="44.43067" lon="5.12988">
        <ele>1052.78</ele>
        <time>2014-09-17T09:16:29Z</time>
      </trkpt>
      <trkpt lat="44.43059" lon="5.12983">
        <ele>1055.67</ele>
        <time>2014-09-17T09:16:45Z</time>
      </trkpt>
      <trkpt lat="44.43051" lon="5.12978">
        <ele>1057.11</ele>
        <time>2014-09-17T09:17:00Z</time>
      </trkpt>
      <trkpt lat="44.43042" lon="5.12973">
        <ele>1058.07</ele>
        <time>2014-09-17T09:17:15Z</time>
      </trkpt>
      <trkpt lat="44.43035" lon="5.12972">
        <ele>1059.03</ele>
        <time>2014-09-17T09:17:24Z</time>
      </trkpt>
      <trkpt lat="44.43025" lon="5.1297">
        <ele>1059.51</ele>
        <time>2014-09-17T09:17:35Z</time>
      </trkpt>
      <trkpt lat="44.43017" lon="5.12969">
        <ele>1060.47</ele>
        <time>2014-09-17T09:17:47Z</time>
      </trkpt>
      <trkpt lat="44.43012" lon="5.12973">
        <ele>1062.87</ele>
        <time>2014-09-17T09:18:07Z</time>
      </trkpt>
      <trkpt lat="44.42999" lon="5.12987">
        <ele>1065.76</ele>
        <time>2014-09-17T09:19:13Z</time>
      </trkpt>
      <trkpt lat="44.42995" lon="5.12991">
        <ele>1068.64</ele>
        <time>2014-09-17T09:19:28Z</time>
      </trkpt>
      <trkpt lat="44.42992" lon="5.12997">
        <ele>1070.08</ele>
        <time>2014-09-17T09:19:40Z</time>
      </trkpt>
      <trkpt lat="44.42989" lon="5.13007">
        <ele>1072.97</ele>
        <time>2014-09-17T09:19:57Z</time>
      </trkpt>
      <trkpt lat="44.42989" lon="5.13017">
        <ele>1075.37</ele>
        <time>2014-09-17T09:20:15Z</time>
      </trkpt>
      <trkpt lat="44.4299" lon="5.13024">
        <ele>1078.26</ele>
        <time>2014-09-17T09:20:32Z</time>
      </trkpt>
      <trkpt lat="44.42987" lon="5.13035">
        <ele>1081.14</ele>
        <time>2014-09-17T09:20:51Z</time>
      </trkpt>
      <trkpt lat="44.42986" lon="5.13041">
        <ele>1083.54</ele>
        <time>2014-09-17T09:21:02Z</time>
      </trkpt>
      <trkpt lat="44.42984" lon="5.13054">
        <ele>1085.47</ele>
        <time>2014-09-17T09:21:18Z</time>
      </trkpt>
      <trkpt lat="44.4298" lon="5.13063">
        <ele>1088.35</ele>
        <time>2014-09-17T09:21:36Z</time>
      </trkpt>
      <trkpt lat="44.4298" lon="5.13067">
        <ele>1091.71</ele>
        <time>2014-09-17T09:22:10Z</time>
      </trkpt>
      <trkpt lat="44.42978" lon="5.13077">
        <ele>1093.16</ele>
        <time>2014-09-17T09:22:25Z</time>
      </trkpt>
      <trkpt lat="44.42977" lon="5.13086">
        <ele>1094.12</ele>
        <time>2014-09-17T09:22:37Z</time>
      </trkpt>
      <trkpt lat="44.42974" lon="5.13096">
        <ele>1096.52</ele>
        <time>2014-09-17T09:22:47Z</time>
      </trkpt>
      <trkpt lat="44.42976" lon="5.13106">
        <ele>1098.92</ele>
        <time>2014-09-17T09:22:59Z</time>
      </trkpt>
      <trkpt lat="44.42977" lon="5.13111">
        <ele>1101.33</ele>
        <time>2014-09-17T09:23:12Z</time>
      </trkpt>
      <trkpt lat="44.42978" lon="5.13112">
        <ele>1101.81</ele>
        <time>2014-09-17T09:23:15Z</time>
      </trkpt>
      <trkpt lat="44.42982" lon="5.13119">
        <ele>1103.73</ele>
        <time>2014-09-17T09:23:29Z</time>
      </trkpt>
      <trkpt lat="44.42981" lon="5.13128">
        <ele>1105.17</ele>
        <time>2014-09-17T09:23:43Z</time>
      </trkpt>
      <trkpt lat="44.4298" lon="5.13136">
        <ele>1108.54</ele>
        <time>2014-09-17T09:24:01Z</time>
      </trkpt>
      <trkpt lat="44.42981" lon="5.13141">
        <ele>1109.98</ele>
        <time>2014-09-17T09:24:12Z</time>
      </trkpt>
      <trkpt lat="44.42983" lon="5.13148">
        <ele>1111.9</ele>
        <time>2014-09-17T09:24:31Z</time>
      </trkpt>
      <trkpt lat="44.42984" lon="5.13159">
        <ele>1114.31</ele>
        <time>2014-09-17T09:24:43Z</time>
      </trkpt>
      <trkpt lat="44.4298" lon="5.13172">
        <ele>1116.23</ele>
        <time>2014-09-17T09:24:53Z</time>
      </trkpt>
      <trkpt lat="44.42976" lon="5.13178">
        <ele>1117.19</ele>
        <time>2014-09-17T09:24:58Z</time>
      </trkpt>
      <trkpt lat="44.4297" lon="5.13189">
        <ele>1118.15</ele>
        <time>2014-09-17T09:25:08Z</time>
      </trkpt>
      <trkpt lat="44.42965" lon="5.13209">
        <ele>1121.03</ele>
        <time>2014-09-17T09:25:31Z</time>
      </trkpt>
      <trkpt lat="44.42965" lon="5.13222">
        <ele>1122.48</ele>
        <time>2014-09-17T09:25:41Z</time>
      </trkpt>
      <trkpt lat="44.42965" lon="5.13228">
        <ele>1123.44</ele>
        <time>2014-09-17T09:25:47Z</time>
      </trkpt>
      <trkpt lat="44.42963" lon="5.13242">
        <ele>1126.32</ele>
        <time>2014-09-17T09:26:04Z</time>
      </trkpt>
      <trkpt lat="44.42962" lon="5.13252">
        <ele>1129.69</ele>
        <time>2014-09-17T09:26:17Z</time>
      </trkpt>
      <trkpt lat="44.42962" lon="5.13253">
        <ele>1129.69</ele>
        <time>2014-09-17T09:26:18Z</time>
      </trkpt>
      <trkpt lat="44.42961" lon="5.13261">
        <ele>1131.61</ele>
        <time>2014-09-17T09:26:27Z</time>
      </trkpt>
      <trkpt lat="44.42962" lon="5.13267">
        <ele>1134.49</ele>
        <time>2014-09-17T09:26:36Z</time>
      </trkpt>
      <trkpt lat="44.42962" lon="5.13274">
        <ele>1135.94</ele>
        <time>2014-09-17T09:26:46Z</time>
      </trkpt>
      <trkpt lat="44.42962" lon="5.13284">
        <ele>1137.86</ele>
        <time>2014-09-17T09:26:59Z</time>
      </trkpt>
      <trkpt lat="44.42961" lon="5.13293">
        <ele>1137.86</ele>
        <time>2014-09-17T09:27:10Z</time>
      </trkpt>
      <trkpt lat="44.42958" lon="5.13299">
        <ele>1139.78</ele>
        <time>2014-09-17T09:27:17Z</time>
      </trkpt>
      <trkpt lat="44.42959" lon="5.13312">
        <ele>1142.66</ele>
        <time>2014-09-17T09:27:36Z</time>
      </trkpt>
      <trkpt lat="44.42959" lon="5.13316">
        <ele>1144.59</ele>
        <time>2014-09-17T09:27:45Z</time>
      </trkpt>
      <trkpt lat="44.42956" lon="5.13326">
        <ele>1146.51</ele>
        <time>2014-09-17T09:27:58Z</time>
      </trkpt>
      <trkpt lat="44.42954" lon="5.13332">
        <ele>1148.43</ele>
        <time>2014-09-17T09:28:10Z</time>
      </trkpt>
      <trkpt lat="44.42952" lon="5.13341">
        <ele>1150.84</ele>
        <time>2014-09-17T09:28:24Z</time>
      </trkpt>
      <trkpt lat="44.42947" lon="5.13346">
        <ele>1151.32</ele>
        <time>2014-09-17T09:28:49Z</time>
      </trkpt>
      <trkpt lat="44.42944" lon="5.13354">
        <ele>1154.2</ele>
        <time>2014-09-17T09:29:10Z</time>
      </trkpt>
      <trkpt lat="44.4294" lon="5.13362">
        <ele>1156.12</ele>
        <time>2014-09-17T09:29:21Z</time>
      </trkpt>
      <trkpt lat="44.42937" lon="5.13368">
        <ele>1158.53</ele>
        <time>2014-09-17T09:29:31Z</time>
      </trkpt>
      <trkpt lat="44.42936" lon="5.13372">
        <ele>1159.01</ele>
        <time>2014-09-17T09:29:35Z</time>
      </trkpt>
      <trkpt lat="44.42935" lon="5.13382">
        <ele>1160.93</ele>
        <time>2014-09-17T09:29:45Z</time>
      </trkpt>
      <trkpt lat="44.42932" lon="5.13387">
        <ele>1163.81</ele>
        <time>2014-09-17T09:29:54Z</time>
      </trkpt>
      <trkpt lat="44.42928" lon="5.1339">
        <ele>1164.77</ele>
        <time>2014-09-17T09:30:02Z</time>
      </trkpt>
      <trkpt lat="44.42928" lon="5.1339">
        <ele>1164.77</ele>
        <time>2014-09-17T09:30:03Z</time>
      </trkpt>
      <trkpt lat="44.42923" lon="5.13399">
        <ele>1165.26</ele>
        <time>2014-09-17T09:30:13Z</time>
      </trkpt>
      <trkpt lat="44.4292" lon="5.13403">
        <ele>1167.18</ele>
        <time>2014-09-17T09:30:23Z</time>
      </trkpt>
      <trkpt lat="44.42917" lon="5.13411">
        <ele>1169.1</ele>
        <time>2014-09-17T09:30:31Z</time>
      </trkpt>
      <trkpt lat="44.42911" lon="5.13421">
        <ele>1171.5</ele>
        <time>2014-09-17T09:30:46Z</time>
      </trkpt>
      <trkpt lat="44.42906" lon="5.13427">
        <ele>1173.43</ele>
        <time>2014-09-17T09:30:56Z</time>
      </trkpt>
      <trkpt lat="44.42905" lon="5.13429">
        <ele>1173.91</ele>
        <time>2014-09-17T09:30:59Z</time>
      </trkpt>
      <trkpt lat="44.42901" lon="5.13432">
        <ele>1175.83</ele>
        <time>2014-09-17T09:31:10Z</time>
      </trkpt>
      <trkpt lat="44.42894" lon="5.13439">
        <ele>1177.75</ele>
        <time>2014-09-17T09:31:27Z</time>
      </trkpt>
      <trkpt lat="44.42891" lon="5.13441">
        <ele>1178.23</ele>
        <time>2014-09-17T09:31:29Z</time>
      </trkpt>
      <trkpt lat="44.42889" lon="5.13446">
        <ele>1178.71</ele>
        <time>2014-09-17T09:31:35Z</time>
      </trkpt>
      <trkpt lat="44.42887" lon="5.13449">
        <ele>1180.16</ele>
        <time>2014-09-17T09:31:39Z</time>
      </trkpt>
      <trkpt lat="44.42883" lon="5.13454">
        <ele>1180.64</ele>
        <time>2014-09-17T09:31:45Z</time>
      </trkpt>
      <trkpt lat="44.42879" lon="5.13458">
        <ele>1181.6</ele>
        <time>2014-09-17T09:31:52Z</time>
      </trkpt>
      <trkpt lat="44.42877" lon="5.13462">
        <ele>1182.56</ele>
        <time>2014-09-17T09:31:57Z</time>
      </trkpt>
      <trkpt lat="44.42874" lon="5.13465">
        <ele>1183.52</ele>
        <time>2014-09-17T09:32:03Z</time>
      </trkpt>
      <trkpt lat="44.4287" lon="5.13469">
        <ele>1184.48</ele>
        <time>2014-09-17T09:32:09Z</time>
      </trkpt>
      <trkpt lat="44.42866" lon="5.13473">
        <ele>1184.96</ele>
        <time>2014-09-17T09:32:15Z</time>
      </trkpt>
      <trkpt lat="44.42861" lon="5.13477">
        <ele>1186.88</ele>
        <time>2014-09-17T09:32:21Z</time>
      </trkpt>
      <trkpt lat="44.42856" lon="5.13486">
        <ele>1187.85</ele>
        <time>2014-09-17T09:32:33Z</time>
      </trkpt>
      <trkpt lat="44.42851" lon="5.1349">
        <ele>1189.29</ele>
        <time>2014-09-17T09:32:48Z</time>
      </trkpt>
      <trkpt lat="44.42846" lon="5.13492">
        <ele>1190.73</ele>
        <time>2014-09-17T09:32:55Z</time>
      </trkpt>
      <trkpt lat="44.42836" lon="5.13497">
        <ele>1191.69</ele>
        <time>2014-09-17T09:33:07Z</time>
      </trkpt>
      <trkpt lat="44.42829" lon="5.135">
        <ele>1192.17</ele>
        <time>2014-09-17T09:33:17Z</time>
      </trkpt>
      <trkpt lat="44.42826" lon="5.13505">
        <ele>1194.09</ele>
        <time>2014-09-17T09:33:25Z</time>
      </trkpt>
      <trkpt lat="44.42821" lon="5.13506">
        <ele>1195.06</ele>
        <time>2014-09-17T09:33:33Z</time>
      </trkpt>
      <trkpt lat="44.42814" lon="5.13509">
        <ele>1196.02</ele>
        <time>2014-09-17T09:33:44Z</time>
      </trkpt>
      <trkpt lat="44.42812" lon="5.1351">
        <ele>1195.54</ele>
        <time>2014-09-17T09:33:47Z</time>
      </trkpt>
      <trkpt lat="44.42808" lon="5.13511">
        <ele>1196.98</ele>
        <time>2014-09-17T09:33:50Z</time>
      </trkpt>
      <trkpt lat="44.42804" lon="5.13514">
        <ele>1198.42</ele>
        <time>2014-09-17T09:33:56Z</time>
      </trkpt>
      <trkpt lat="44.42797" lon="5.13519">
        <ele>1198.42</ele>
        <time>2014-09-17T09:34:04Z</time>
      </trkpt>
      <trkpt lat="44.42794" lon="5.13519">
        <ele>1198.9</ele>
        <time>2014-09-17T09:34:08Z</time>
      </trkpt>
      <trkpt lat="44.42787" lon="5.13525">
        <ele>1198.9</ele>
        <time>2014-09-17T09:34:17Z</time>
      </trkpt>
      <trkpt lat="44.4278" lon="5.13529">
        <ele>1199.86</ele>
        <time>2014-09-17T09:34:25Z</time>
      </trkpt>
      <trkpt lat="44.42773" lon="5.13534">
        <ele>1202.27</ele>
        <time>2014-09-17T09:34:33Z</time>
      </trkpt>
      <trkpt lat="44.42766" lon="5.13538">
        <ele>1202.75</ele>
        <time>2014-09-17T09:34:42Z</time>
      </trkpt>
      <trkpt lat="44.4276" lon="5.13542">
        <ele>1202.27</ele>
        <time>2014-09-17T09:34:50Z</time>
      </trkpt>
      <trkpt lat="44.42754" lon="5.13545">
        <ele>1203.23</ele>
        <time>2014-09-17T09:34:58Z</time>
      </trkpt>
      <trkpt lat="44.42751" lon="5.13547">
        <ele>1203.71</ele>
        <time>2014-09-17T09:35:01Z</time>
      </trkpt>
      <trkpt lat="44.42743" lon="5.13554">
        <ele>1205.15</ele>
        <time>2014-09-17T09:35:10Z</time>
      </trkpt>
      <trkpt lat="44.42739" lon="5.13558">
        <ele>1207.07</ele>
        <time>2014-09-17T09:35:16Z</time>
      </trkpt>
      <trkpt lat="44.42733" lon="5.13565">
        <ele>1207.55</ele>
        <time>2014-09-17T09:35:24Z</time>
      </trkpt>
      <trkpt lat="44.42731" lon="5.13567">
        <ele>1208.03</ele>
        <time>2014-09-17T09:35:33Z</time>
      </trkpt>
      <trkpt lat="44.4273" lon="5.13568">
        <ele>1209.48</ele>
        <time>2014-09-17T09:35:35Z</time>
      </trkpt>
      <trkpt lat="44.42725" lon="5.13573">
        <ele>1210.92</ele>
        <time>2014-09-17T09:35:44Z</time>
      </trkpt>
      <trkpt lat="44.42722" lon="5.13577">
        <ele>1212.36</ele>
        <time>2014-09-17T09:35:49Z</time>
      </trkpt>
      <trkpt lat="44.42719" lon="5.13578">
        <ele>1212.84</ele>
        <time>2014-09-17T09:35:53Z</time>
      </trkpt>
      <trkpt lat="44.42711" lon="5.13588">
        <ele>1213.32</ele>
        <time>2014-09-17T09:36:02Z</time>
      </trkpt>
      <trkpt lat="44.42711" lon="5.13588">
        <ele>1214.28</ele>
        <time>2014-09-17T09:36:03Z</time>
      </trkpt>
      <trkpt lat="44.42705" lon="5.13598">
        <ele>1215.24</ele>
        <time>2014-09-17T09:36:12Z</time>
      </trkpt>
      <trkpt lat="44.42702" lon="5.13603">
        <ele>1216.69</ele>
        <time>2014-09-17T09:36:19Z</time>
      </trkpt>
      <trkpt lat="44.42694" lon="5.13612">
        <ele>1218.61</ele>
        <time>2014-09-17T09:36:29Z</time>
      </trkpt>
      <trkpt lat="44.42693" lon="5.13612">
        <ele>1218.61</ele>
        <time>2014-09-17T09:36:30Z</time>
      </trkpt>
      <trkpt lat="44.4269" lon="5.13616">
        <ele>1220.05</ele>
        <time>2014-09-17T09:36:39Z</time>
      </trkpt>
      <trkpt lat="44.42689" lon="5.1362">
        <ele>1219.09</ele>
        <time>2014-09-17T09:36:49Z</time>
      </trkpt>
      <trkpt lat="44.42689" lon="5.1362">
        <ele>1220.53</ele>
        <time>2014-09-17T09:37:13Z</time>
      </trkpt>
      <trkpt lat="44.42689" lon="5.1362">
        <ele>1219.09</ele>
        <time>2014-09-17T09:37:18Z</time>
      </trkpt>
      <trkpt lat="44.42689" lon="5.1362">
        <ele>1220.05</ele>
        <time>2014-09-17T09:37:20Z</time>
      </trkpt>
      <trkpt lat="44.42689" lon="5.13621">
        <ele>1221.49</ele>
        <time>2014-09-17T09:37:57Z</time>
      </trkpt>
      <trkpt lat="44.42689" lon="5.13623">
        <ele>1222.45</ele>
        <time>2014-09-17T09:38:17Z</time>
      </trkpt>
      <trkpt lat="44.42688" lon="5.13623">
        <ele>1221.01</ele>
        <time>2014-09-17T09:39:16Z</time>
      </trkpt>
      <trkpt lat="44.42688" lon="5.13623">
        <ele>1221.49</ele>
        <time>2014-09-17T09:39:26Z</time>
      </trkpt>
      <trkpt lat="44.42688" lon="5.13623">
        <ele>1219.09</ele>
        <time>2014-09-17T09:40:10Z</time>
      </trkpt>
      <trkpt lat="44.42688" lon="5.13623">
        <ele>1222.45</ele>
        <time>2014-09-17T09:40:34Z</time>
      </trkpt>
      <trkpt lat="44.42688" lon="5.13623">
        <ele>1221.49</ele>
        <time>2014-09-17T09:40:54Z</time>
      </trkpt>
      <trkpt lat="44.42688" lon="5.13623">
        <ele>1220.53</ele>
        <time>2014-09-17T09:41:51Z</time>
      </trkpt>
      <trkpt lat="44.42686" lon="5.13622">
        <ele>1221.97</ele>
        <time>2014-09-17T09:42:20Z</time>
      </trkpt>
      <trkpt lat="44.42681" lon="5.13631">
        <ele>1222.93</ele>
        <time>2014-09-17T09:42:33Z</time>
      </trkpt>
      <trkpt lat="44.42677" lon="5.13642">
        <ele>1223.42</ele>
        <time>2014-09-17T09:42:41Z</time>
      </trkpt>
      <trkpt lat="44.42674" lon="5.13657">
        <ele>1224.86</ele>
        <time>2014-09-17T09:42:55Z</time>
      </trkpt>
      <trkpt lat="44.42672" lon="5.13671">
        <ele>1226.78</ele>
        <time>2014-09-17T09:43:10Z</time>
      </trkpt>
      <trkpt lat="44.42668" lon="5.13689">
        <ele>1227.26</ele>
        <time>2014-09-17T09:43:22Z</time>
      </trkpt>
      <trkpt lat="44.42663" lon="5.13703">
        <ele>1228.7</ele>
        <time>2014-09-17T09:43:31Z</time>
      </trkpt>
      <trkpt lat="44.42662" lon="5.13714">
        <ele>1230.14</ele>
        <time>2014-09-17T09:43:42Z</time>
      </trkpt>
      <trkpt lat="44.42661" lon="5.13716">
        <ele>1229.66</ele>
        <time>2014-09-17T09:43:43Z</time>
      </trkpt>
      <trkpt lat="44.42659" lon="5.13733">
        <ele>1230.62</ele>
        <time>2014-09-17T09:43:55Z</time>
      </trkpt>
      <trkpt lat="44.42657" lon="5.13748">
        <ele>1231.11</ele>
        <time>2014-09-17T09:44:08Z</time>
      </trkpt>
      <trkpt lat="44.42658" lon="5.13758">
        <ele>1233.03</ele>
        <time>2014-09-17T09:44:18Z</time>
      </trkpt>
      <trkpt lat="44.42658" lon="5.13763">
        <ele>1232.55</ele>
        <time>2014-09-17T09:44:22Z</time>
      </trkpt>
      <trkpt lat="44.4266" lon="5.13768">
        <ele>1233.51</ele>
        <time>2014-09-17T09:44:26Z</time>
      </trkpt>
      <trkpt lat="44.42659" lon="5.13775">
        <ele>1232.55</ele>
        <time>2014-09-17T09:44:31Z</time>
      </trkpt>
      <trkpt lat="44.42659" lon="5.13787">
        <ele>1232.07</ele>
        <time>2014-09-17T09:44:39Z</time>
      </trkpt>
      <trkpt lat="44.42662" lon="5.13795">
        <ele>1232.55</ele>
        <time>2014-09-17T09:44:44Z</time>
      </trkpt>
      <trkpt lat="44.42663" lon="5.13805">
        <ele>1233.03</ele>
        <time>2014-09-17T09:44:50Z</time>
      </trkpt>
      <trkpt lat="44.42664" lon="5.13817">
        <ele>1234.95</ele>
        <time>2014-09-17T09:44:56Z</time>
      </trkpt>
      <trkpt lat="44.42664" lon="5.13827">
        <ele>1233.99</ele>
        <time>2014-09-17T09:45:02Z</time>
      </trkpt>
      <trkpt lat="44.42663" lon="5.13831">
        <ele>1234.47</ele>
        <time>2014-09-17T09:45:08Z</time>
      </trkpt>
      <trkpt lat="44.42663" lon="5.13836">
        <ele>1234.95</ele>
        <time>2014-09-17T09:45:13Z</time>
      </trkpt>
      <trkpt lat="44.42663" lon="5.13842">
        <ele>1234.95</ele>
        <time>2014-09-17T09:45:17Z</time>
      </trkpt>
      <trkpt lat="44.42663" lon="5.13847">
        <ele>1234.47</ele>
        <time>2014-09-17T09:45:21Z</time>
      </trkpt>
      <trkpt lat="44.42663" lon="5.13852">
        <ele>1234.47</ele>
        <time>2014-09-17T09:45:25Z</time>
      </trkpt>
      <trkpt lat="44.42662" lon="5.13854">
        <ele>1235.43</ele>
        <time>2014-09-17T09:45:27Z</time>
      </trkpt>
      <trkpt lat="44.42662" lon="5.13858">
        <ele>1236.39</ele>
        <time>2014-09-17T09:45:30Z</time>
      </trkpt>
      <trkpt lat="44.42663" lon="5.13867">
        <ele>1235.91</ele>
        <time>2014-09-17T09:45:41Z</time>
      </trkpt>
      <trkpt lat="44.42663" lon="5.13871">
        <ele>1236.87</ele>
        <time>2014-09-17T09:45:45Z</time>
      </trkpt>
      <trkpt lat="44.42666" lon="5.13883">
        <ele>1238.32</ele>
        <time>2014-09-17T09:45:57Z</time>
      </trkpt>
      <trkpt lat="44.42669" lon="5.13893">
        <ele>1241.2</ele>
        <time>2014-09-17T09:46:08Z</time>
      </trkpt>
      <trkpt lat="44.42669" lon="5.13894">
        <ele>1241.68</ele>
        <time>2014-09-17T09:46:09Z</time>
      </trkpt>
      <trkpt lat="44.42669" lon="5.13906">
        <ele>1242.16</ele>
        <time>2014-09-17T09:46:20Z</time>
      </trkpt>
      <trkpt lat="44.42669" lon="5.13916">
        <ele>1243.6</ele>
        <time>2014-09-17T09:46:31Z</time>
      </trkpt>
      <trkpt lat="44.42668" lon="5.13927">
        <ele>1246.49</ele>
        <time>2014-09-17T09:46:42Z</time>
      </trkpt>
      <trkpt lat="44.42671" lon="5.13941">
        <ele>1246.49</ele>
        <time>2014-09-17T09:46:54Z</time>
      </trkpt>
      <trkpt lat="44.4267" lon="5.13951">
        <ele>1247.93</ele>
        <time>2014-09-17T09:47:05Z</time>
      </trkpt>
      <trkpt lat="44.42671" lon="5.13954">
        <ele>1249.37</ele>
        <time>2014-09-17T09:47:08Z</time>
      </trkpt>
      <trkpt lat="44.42673" lon="5.13958">
        <ele>1249.37</ele>
        <time>2014-09-17T09:47:13Z</time>
      </trkpt>
      <trkpt lat="44.42674" lon="5.13966">
        <ele>1250.81</ele>
        <time>2014-09-17T09:47:18Z</time>
      </trkpt>
      <trkpt lat="44.42677" lon="5.13976">
        <ele>1250.33</ele>
        <time>2014-09-17T09:47:28Z</time>
      </trkpt>
      <trkpt lat="44.42677" lon="5.13982">
        <ele>1251.77</ele>
        <time>2014-09-17T09:47:35Z</time>
      </trkpt>
      <trkpt lat="44.42679" lon="5.13994">
        <ele>1252.74</ele>
        <time>2014-09-17T09:47:46Z</time>
      </trkpt>
      <trkpt lat="44.4268" lon="5.14001">
        <ele>1255.62</ele>
        <time>2014-09-17T09:47:53Z</time>
      </trkpt>
      <trkpt lat="44.42681" lon="5.14011">
        <ele>1257.06</ele>
        <time>2014-09-17T09:48:04Z</time>
      </trkpt>
      <trkpt lat="44.42682" lon="5.14018">
        <ele>1257.54</ele>
        <time>2014-09-17T09:48:15Z</time>
      </trkpt>
      <trkpt lat="44.4268" lon="5.14026">
        <ele>1258.5</ele>
        <time>2014-09-17T09:48:26Z</time>
      </trkpt>
      <trkpt lat="44.4268" lon="5.14027">
        <ele>1258.98</ele>
        <time>2014-09-17T09:48:27Z</time>
      </trkpt>
      <trkpt lat="44.4268" lon="5.14031">
        <ele>1259.94</ele>
        <time>2014-09-17T09:48:30Z</time>
      </trkpt>
      <trkpt lat="44.4268" lon="5.14043">
        <ele>1260.43</ele>
        <time>2014-09-17T09:48:41Z</time>
      </trkpt>
      <trkpt lat="44.42681" lon="5.14046">
        <ele>1260.91</ele>
        <time>2014-09-17T09:48:43Z</time>
      </trkpt>
      <trkpt lat="44.42681" lon="5.14053">
        <ele>1260.91</ele>
        <time>2014-09-17T09:48:49Z</time>
      </trkpt>
      <trkpt lat="44.42682" lon="5.14056">
        <ele>1261.39</ele>
        <time>2014-09-17T09:48:51Z</time>
      </trkpt>
      <trkpt lat="44.42683" lon="5.14064">
        <ele>1261.39</ele>
        <time>2014-09-17T09:48:58Z</time>
      </trkpt>
      <trkpt lat="44.42685" lon="5.14073">
        <ele>1261.87</ele>
        <time>2014-09-17T09:49:05Z</time>
      </trkpt>
      <trkpt lat="44.42686" lon="5.14085">
        <ele>1264.27</ele>
        <time>2014-09-17T09:49:14Z</time>
      </trkpt>
      <trkpt lat="44.42683" lon="5.14101">
        <ele>1264.75</ele>
        <time>2014-09-17T09:49:28Z</time>
      </trkpt>
      <trkpt lat="44.42681" lon="5.14107">
        <ele>1265.23</ele>
        <time>2014-09-17T09:49:36Z</time>
      </trkpt>
      <trkpt lat="44.4268" lon="5.14113">
        <ele>1265.71</ele>
        <time>2014-09-17T09:49:40Z</time>
      </trkpt>
      <trkpt lat="44.42674" lon="5.1413">
        <ele>1265.71</ele>
        <time>2014-09-17T09:49:56Z</time>
      </trkpt>
      <trkpt lat="44.42673" lon="5.14132">
        <ele>1265.23</ele>
        <time>2014-09-17T09:49:58Z</time>
      </trkpt>
      <trkpt lat="44.4267" lon="5.1414">
        <ele>1264.75</ele>
        <time>2014-09-17T09:50:08Z</time>
      </trkpt>
      <trkpt lat="44.42669" lon="5.14145">
        <ele>1266.19</ele>
        <time>2014-09-17T09:50:19Z</time>
      </trkpt>
      <trkpt lat="44.42666" lon="5.14148">
        <ele>1262.83</ele>
        <time>2014-09-17T09:50:30Z</time>
      </trkpt>
      <trkpt lat="44.4266" lon="5.14153">
        <ele>1262.35</ele>
        <time>2014-09-17T09:50:42Z</time>
      </trkpt>
      <trkpt lat="44.42659" lon="5.14153">
        <ele>1260.43</ele>
        <time>2014-09-17T09:50:45Z</time>
      </trkpt>
      <trkpt lat="44.42651" lon="5.14155">
        <ele>1257.54</ele>
        <time>2014-09-17T09:51:02Z</time>
      </trkpt>
      <trkpt lat="44.42648" lon="5.14162">
        <ele>1255.14</ele>
        <time>2014-09-17T09:51:15Z</time>
      </trkpt>
      <trkpt lat="44.42646" lon="5.14164">
        <ele>1251.77</ele>
        <time>2014-09-17T09:51:27Z</time>
      </trkpt>
      <trkpt lat="44.42641" lon="5.14168">
        <ele>1250.33</ele>
        <time>2014-09-17T09:51:41Z</time>
      </trkpt>
      <trkpt lat="44.42632" lon="5.14177">
        <ele>1247.45</ele>
        <time>2014-09-17T09:51:51Z</time>
      </trkpt>
      <trkpt lat="44.42622" lon="5.14185">
        <ele>1246.97</ele>
        <time>2014-09-17T09:52:03Z</time>
      </trkpt>
      <trkpt lat="44.42618" lon="5.1419">
        <ele>1246.01</ele>
        <time>2014-09-17T09:52:12Z</time>
      </trkpt>
      <trkpt lat="44.42616" lon="5.14191">
        <ele>1245.53</ele>
        <time>2014-09-17T09:52:14Z</time>
      </trkpt>
      <trkpt lat="44.42609" lon="5.14198">
        <ele>1243.12</ele>
        <time>2014-09-17T09:52:25Z</time>
      </trkpt>
      <trkpt lat="44.42601" lon="5.14202">
        <ele>1240.72</ele>
        <time>2014-09-17T09:52:39Z</time>
      </trkpt>
      <trkpt lat="44.42597" lon="5.14202">
        <ele>1239.28</ele>
        <time>2014-09-17T09:52:51Z</time>
      </trkpt>
      <trkpt lat="44.42592" lon="5.14207">
        <ele>1236.87</ele>
        <time>2014-09-17T09:53:05Z</time>
      </trkpt>
      <trkpt lat="44.42584" lon="5.14212">
        <ele>1233.99</ele>
        <time>2014-09-17T09:53:24Z</time>
      </trkpt>
      <trkpt lat="44.42577" lon="5.14217">
        <ele>1231.11</ele>
        <time>2014-09-17T09:53:40Z</time>
      </trkpt>
      <trkpt lat="44.42569" lon="5.14217">
        <ele>1227.74</ele>
        <time>2014-09-17T09:54:06Z</time>
      </trkpt>
      <trkpt lat="44.4256" lon="5.14222">
        <ele>1224.86</ele>
        <time>2014-09-17T09:54:26Z</time>
      </trkpt>
      <trkpt lat="44.42542" lon="5.14239">
        <ele>1223.9</ele>
        <time>2014-09-17T09:54:48Z</time>
      </trkpt>
      <trkpt lat="44.42534" lon="5.14251">
        <ele>1224.38</ele>
        <time>2014-09-17T09:54:58Z</time>
      </trkpt>
      <trkpt lat="44.42534" lon="5.14259">
        <ele>1223.9</ele>
        <time>2014-09-17T09:55:03Z</time>
      </trkpt>
      <trkpt lat="44.42534" lon="5.14263">
        <ele>1224.38</ele>
        <time>2014-09-17T09:55:05Z</time>
      </trkpt>
      <trkpt lat="44.42528" lon="5.14278">
        <ele>1225.82</ele>
        <time>2014-09-17T09:55:15Z</time>
      </trkpt>
      <trkpt lat="44.42527" lon="5.14296">
        <ele>1228.22</ele>
        <time>2014-09-17T09:55:28Z</time>
      </trkpt>
      <trkpt lat="44.42523" lon="5.14311">
        <ele>1229.18</ele>
        <time>2014-09-17T09:55:42Z</time>
      </trkpt>
      <trkpt lat="44.42521" lon="5.14319">
        <ele>1231.11</ele>
        <time>2014-09-17T09:55:51Z</time>
      </trkpt>
      <trkpt lat="44.42519" lon="5.14329">
        <ele>1232.55</ele>
        <time>2014-09-17T09:56:05Z</time>
      </trkpt>
      <trkpt lat="44.42518" lon="5.14337">
        <ele>1233.51</ele>
        <time>2014-09-17T09:56:12Z</time>
      </trkpt>
      <trkpt lat="44.42514" lon="5.14357">
        <ele>1235.43</ele>
        <time>2014-09-17T09:56:24Z</time>
      </trkpt>
      <trkpt lat="44.42515" lon="5.1436">
        <ele>1235.43</ele>
        <time>2014-09-17T09:56:26Z</time>
      </trkpt>
      <trkpt lat="44.42514" lon="5.14377">
        <ele>1238.32</ele>
        <time>2014-09-17T09:56:39Z</time>
      </trkpt>
      <trkpt lat="44.42512" lon="5.14382">
        <ele>1239.28</ele>
        <time>2014-09-17T09:56:43Z</time>
      </trkpt>
      <trkpt lat="44.42511" lon="5.14385">
        <ele>1240.24</ele>
        <time>2014-09-17T09:56:59Z</time>
      </trkpt>
      <trkpt lat="44.4251" lon="5.14386">
        <ele>1241.2</ele>
        <time>2014-09-17T09:57:17Z</time>
      </trkpt>
      <trkpt lat="44.4251" lon="5.14386">
        <ele>1240.24</ele>
        <time>2014-09-17T09:57:28Z</time>
      </trkpt>
      <trkpt lat="44.42509" lon="5.14388">
        <ele>1243.12</ele>
        <time>2014-09-17T09:58:06Z</time>
      </trkpt>
      <trkpt lat="44.42509" lon="5.14388">
        <ele>1241.2</ele>
        <time>2014-09-17T09:58:12Z</time>
      </trkpt>
      <trkpt lat="44.42509" lon="5.14396">
        <ele>1241.68</ele>
        <time>2014-09-17T09:58:39Z</time>
      </trkpt>
      <trkpt lat="44.42505" lon="5.14407">
        <ele>1241.2</ele>
        <time>2014-09-17T09:58:51Z</time>
      </trkpt>
      <trkpt lat="44.42504" lon="5.14413">
        <ele>1242.64</ele>
        <time>2014-09-17T09:59:02Z</time>
      </trkpt>
      <trkpt lat="44.42503" lon="5.14419">
        <ele>1245.04</ele>
        <time>2014-09-17T09:59:12Z</time>
      </trkpt>
      <trkpt lat="44.42501" lon="5.14422">
        <ele>1245.53</ele>
        <time>2014-09-17T09:59:22Z</time>
      </trkpt>
      <trkpt lat="44.42501" lon="5.14434">
        <ele>1246.97</ele>
        <time>2014-09-17T09:59:36Z</time>
      </trkpt>
      <trkpt lat="44.42501" lon="5.14443">
        <ele>1248.41</ele>
        <time>2014-09-17T09:59:48Z</time>
      </trkpt>
      <trkpt lat="44.42499" lon="5.1445">
        <ele>1250.81</ele>
        <time>2014-09-17T10:00:03Z</time>
      </trkpt>
      <trkpt lat="44.42498" lon="5.14455">
        <ele>1252.25</ele>
        <time>2014-09-17T10:00:10Z</time>
      </trkpt>
      <trkpt lat="44.42495" lon="5.14464">
        <ele>1253.22</ele>
        <time>2014-09-17T10:00:21Z</time>
      </trkpt>
      <trkpt lat="44.42494" lon="5.14469">
        <ele>1254.66</ele>
        <time>2014-09-17T10:00:27Z</time>
      </trkpt>
      <trkpt lat="44.42493" lon="5.14483">
        <ele>1255.62</ele>
        <time>2014-09-17T10:00:38Z</time>
      </trkpt>
      <trkpt lat="44.42493" lon="5.14486">
        <ele>1255.62</ele>
        <time>2014-09-17T10:00:40Z</time>
      </trkpt>
      <trkpt lat="44.42493" lon="5.14489">
        <ele>1256.58</ele>
        <time>2014-09-17T10:00:43Z</time>
      </trkpt>
      <trkpt lat="44.42495" lon="5.14504">
        <ele>1258.02</ele>
        <time>2014-09-17T10:00:55Z</time>
      </trkpt>
      <trkpt lat="44.42496" lon="5.14511">
        <ele>1258.98</ele>
        <time>2014-09-17T10:01:02Z</time>
      </trkpt>
      <trkpt lat="44.42497" lon="5.14523">
        <ele>1259.94</ele>
        <time>2014-09-17T10:01:12Z</time>
      </trkpt>
      <trkpt lat="44.42495" lon="5.14527">
        <ele>1260.91</ele>
        <time>2014-09-17T10:01:25Z</time>
      </trkpt>
      <trkpt lat="44.42492" lon="5.14525">
        <ele>1260.91</ele>
        <time>2014-09-17T10:01:50Z</time>
      </trkpt>
      <trkpt lat="44.42492" lon="5.14525">
        <ele>1263.79</ele>
        <time>2014-09-17T10:02:27Z</time>
      </trkpt>
      <trkpt lat="44.42492" lon="5.14525">
        <ele>1262.35</ele>
        <time>2014-09-17T10:02:30Z</time>
      </trkpt>
      <trkpt lat="44.42492" lon="5.14524">
        <ele>1260.91</ele>
        <time>2014-09-17T10:03:03Z</time>
      </trkpt>
      <trkpt lat="44.42492" lon="5.14525">
        <ele>1260.91</ele>
        <time>2014-09-17T10:05:50Z</time>
      </trkpt>
      <trkpt lat="44.42492" lon="5.14521">
        <ele>1260.43</ele>
        <time>2014-09-17T10:06:21Z</time>
      </trkpt>
      <trkpt lat="44.42491" lon="5.14513">
        <ele>1259.46</ele>
        <time>2014-09-17T10:07:04Z</time>
      </trkpt>
      <trkpt lat="44.42493" lon="5.14502">
        <ele>1258.02</ele>
        <time>2014-09-17T10:07:16Z</time>
      </trkpt>
      <trkpt lat="44.42492" lon="5.14492">
        <ele>1257.54</ele>
        <time>2014-09-17T10:07:28Z</time>
      </trkpt>
      <trkpt lat="44.42492" lon="5.14485">
        <ele>1256.58</ele>
        <time>2014-09-17T10:07:35Z</time>
      </trkpt>
      <trkpt lat="44.42493" lon="5.1448">
        <ele>1256.58</ele>
        <time>2014-09-17T10:07:39Z</time>
      </trkpt>
      <trkpt lat="44.42494" lon="5.14462">
        <ele>1254.66</ele>
        <time>2014-09-17T10:07:52Z</time>
      </trkpt>
      <trkpt lat="44.42494" lon="5.14449">
        <ele>1252.74</ele>
        <time>2014-09-17T10:08:05Z</time>
      </trkpt>
      <trkpt lat="44.42494" lon="5.14438">
        <ele>1250.33</ele>
        <time>2014-09-17T10:08:17Z</time>
      </trkpt>
      <trkpt lat="44.42493" lon="5.14432">
        <ele>1247.45</ele>
        <time>2014-09-17T10:08:30Z</time>
      </trkpt>
      <trkpt lat="44.42492" lon="5.14431">
        <ele>1247.45</ele>
        <time>2014-09-17T10:08:31Z</time>
      </trkpt>
      <trkpt lat="44.42485" lon="5.14435">
        <ele>1245.53</ele>
        <time>2014-09-17T10:08:45Z</time>
      </trkpt>
      <trkpt lat="44.4248" lon="5.14438">
        <ele>1243.6</ele>
        <time>2014-09-17T10:09:01Z</time>
      </trkpt>
      <trkpt lat="44.42476" lon="5.14438">
        <ele>1241.2</ele>
        <time>2014-09-17T10:09:19Z</time>
      </trkpt>
      <trkpt lat="44.42473" lon="5.14436">
        <ele>1239.76</ele>
        <time>2014-09-17T10:09:30Z</time>
      </trkpt>
      <trkpt lat="44.42466" lon="5.14434">
        <ele>1237.83</ele>
        <time>2014-09-17T10:09:43Z</time>
      </trkpt>
      <trkpt lat="44.42459" lon="5.14436">
        <ele>1235.43</ele>
        <time>2014-09-17T10:09:54Z</time>
      </trkpt>
      <trkpt lat="44.42455" lon="5.14437">
        <ele>1234.47</ele>
        <time>2014-09-17T10:10:05Z</time>
      </trkpt>
      <trkpt lat="44.42447" lon="5.14434">
        <ele>1231.11</ele>
        <time>2014-09-17T10:10:16Z</time>
      </trkpt>
      <trkpt lat="44.42441" lon="5.14435">
        <ele>1228.7</ele>
        <time>2014-09-17T10:10:25Z</time>
      </trkpt>
      <trkpt lat="44.42433" lon="5.14439">
        <ele>1226.78</ele>
        <time>2014-09-17T10:10:37Z</time>
      </trkpt>
      <trkpt lat="44.42423" lon="5.1444">
        <ele>1223.9</ele>
        <time>2014-09-17T10:10:53Z</time>
      </trkpt>
      <trkpt lat="44.42415" lon="5.1444">
        <ele>1222.45</ele>
        <time>2014-09-17T10:11:05Z</time>
      </trkpt>
      <trkpt lat="44.42408" lon="5.14441">
        <ele>1221.01</ele>
        <time>2014-09-17T10:11:14Z</time>
      </trkpt>
      <trkpt lat="44.42407" lon="5.14441">
        <ele>1219.57</ele>
        <time>2014-09-17T10:11:17Z</time>
      </trkpt>
      <trkpt lat="44.42401" lon="5.14442">
        <ele>1218.13</ele>
        <time>2014-09-17T10:11:25Z</time>
      </trkpt>
      <trkpt lat="44.42392" lon="5.1445">
        <ele>1216.69</ele>
        <time>2014-09-17T10:11:36Z</time>
      </trkpt>
      <trkpt lat="44.42383" lon="5.14453">
        <ele>1214.76</ele>
        <time>2014-09-17T10:11:48Z</time>
      </trkpt>
      <trkpt lat="44.42374" lon="5.14458">
        <ele>1213.8</ele>
        <time>2014-09-17T10:12:00Z</time>
      </trkpt>
      <trkpt lat="44.42366" lon="5.14462">
        <ele>1212.36</ele>
        <time>2014-09-17T10:12:11Z</time>
      </trkpt>
      <trkpt lat="44.4236" lon="5.14466">
        <ele>1211.4</ele>
        <time>2014-09-17T10:12:30Z</time>
      </trkpt>
      <trkpt lat="44.42359" lon="5.14466">
        <ele>1209.48</ele>
        <time>2014-09-17T10:12:52Z</time>
      </trkpt>
      <trkpt lat="44.42359" lon="5.14466">
        <ele>1149.39</ele>
        <time>2014-09-17T11:02:30Z</time>
      </trkpt>
      <trkpt lat="44.42359" lon="5.14466">
        <ele>1203.23</ele>
        <time>2014-09-17T11:02:33Z</time>
      </trkpt>
      <trkpt lat="44.42359" lon="5.14466">
        <ele>1202.27</ele>
        <time>2014-09-17T11:02:35Z</time>
      </trkpt>
      <trkpt lat="44.42359" lon="5.14466">
        <ele>1203.71</ele>
        <time>2014-09-17T11:02:36Z</time>
      </trkpt>
      <trkpt lat="44.42359" lon="5.14466">
        <ele>1200.82</ele>
        <time>2014-09-17T11:02:41Z</time>
      </trkpt>
      <trkpt lat="44.42359" lon="5.14466">
        <ele>1198.9</ele>
        <time>2014-09-17T11:02:53Z</time>
      </trkpt>
      <trkpt lat="44.42299" lon="5.14489">
        <ele>1197.46</ele>
        <time>2014-09-17T11:03:24Z</time>
      </trkpt>
      <trkpt lat="44.42294" lon="5.14482">
        <ele>1196.98</ele>
        <time>2014-09-17T11:03:39Z</time>
      </trkpt>
      <trkpt lat="44.4229" lon="5.14477">
        <ele>1196.98</ele>
        <time>2014-09-17T11:03:47Z</time>
      </trkpt>
      <trkpt lat="44.42283" lon="5.14472">
        <ele>1194.58</ele>
        <time>2014-09-17T11:03:54Z</time>
      </trkpt>
      <trkpt lat="44.42275" lon="5.14475">
        <ele>1193.13</ele>
        <time>2014-09-17T11:04:01Z</time>
      </trkpt>
      <trkpt lat="44.42273" lon="5.14475">
        <ele>1193.13</ele>
        <time>2014-09-17T11:04:03Z</time>
      </trkpt>
      <trkpt lat="44.42268" lon="5.14474">
        <ele>1191.69</ele>
        <time>2014-09-17T11:04:09Z</time>
      </trkpt>
      <trkpt lat="44.4226" lon="5.14476">
        <ele>1189.29</ele>
        <time>2014-09-17T11:04:21Z</time>
      </trkpt>
      <trkpt lat="44.42253" lon="5.14482">
        <ele>1187.85</ele>
        <time>2014-09-17T11:04:34Z</time>
      </trkpt>
      <trkpt lat="44.42251" lon="5.14482">
        <ele>1186.4</ele>
        <time>2014-09-17T11:04:37Z</time>
      </trkpt>
      <trkpt lat="44.42243" lon="5.14489">
        <ele>1184.48</ele>
        <time>2014-09-17T11:04:48Z</time>
      </trkpt>
      <trkpt lat="44.4223" lon="5.14487">
        <ele>1182.56</ele>
        <time>2014-09-17T11:05:03Z</time>
      </trkpt>
      <trkpt lat="44.42229" lon="5.14487">
        <ele>1181.12</ele>
        <time>2014-09-17T11:05:05Z</time>
      </trkpt>
      <trkpt lat="44.42221" lon="5.14481">
        <ele>1178.71</ele>
        <time>2014-09-17T11:05:18Z</time>
      </trkpt>
      <trkpt lat="44.42214" lon="5.14482">
        <ele>1176.31</ele>
        <time>2014-09-17T11:05:30Z</time>
      </trkpt>
      <trkpt lat="44.42207" lon="5.14487">
        <ele>1175.35</ele>
        <time>2014-09-17T11:05:40Z</time>
      </trkpt>
      <trkpt lat="44.42198" lon="5.14491">
        <ele>1173.43</ele>
        <time>2014-09-17T11:05:51Z</time>
      </trkpt>
      <trkpt lat="44.42187" lon="5.14492">
        <ele>1171.5</ele>
        <time>2014-09-17T11:06:05Z</time>
      </trkpt>
      <trkpt lat="44.42179" lon="5.14497">
        <ele>1171.02</ele>
        <time>2014-09-17T11:06:17Z</time>
      </trkpt>
      <trkpt lat="44.42175" lon="5.14501">
        <ele>1170.06</ele>
        <time>2014-09-17T11:06:32Z</time>
      </trkpt>
      <trkpt lat="44.42169" lon="5.14503">
        <ele>1170.06</ele>
        <time>2014-09-17T11:06:45Z</time>
      </trkpt>
      <trkpt lat="44.42164" lon="5.14503">
        <ele>1169.1</ele>
        <time>2014-09-17T11:06:50Z</time>
      </trkpt>
      <trkpt lat="44.42156" lon="5.145">
        <ele>1165.74</ele>
        <time>2014-09-17T11:06:57Z</time>
      </trkpt>
      <trkpt lat="44.42155" lon="5.145">
        <ele>1166.22</ele>
        <time>2014-09-17T11:06:58Z</time>
      </trkpt>
      <trkpt lat="44.42143" lon="5.14502">
        <ele>1162.85</ele>
        <time>2014-09-17T11:07:10Z</time>
      </trkpt>
      <trkpt lat="44.42135" lon="5.14503">
        <ele>1160.93</ele>
        <time>2014-09-17T11:07:21Z</time>
      </trkpt>
      <trkpt lat="44.42125" lon="5.14501">
        <ele>1160.45</ele>
        <time>2014-09-17T11:07:34Z</time>
      </trkpt>
      <trkpt lat="44.42122" lon="5.14501">
        <ele>1157.08</ele>
        <time>2014-09-17T11:07:38Z</time>
      </trkpt>
      <trkpt lat="44.42121" lon="5.14501">
        <ele>1157.08</ele>
        <time>2014-09-17T11:07:39Z</time>
      </trkpt>
      <trkpt lat="44.42116" lon="5.14502">
        <ele>1156.6</ele>
        <time>2014-09-17T11:07:47Z</time>
      </trkpt>
      <trkpt lat="44.42111" lon="5.14501">
        <ele>1153.72</ele>
        <time>2014-09-17T11:07:56Z</time>
      </trkpt>
      <trkpt lat="44.42111" lon="5.14501">
        <ele>1153.72</ele>
        <time>2014-09-17T11:07:57Z</time>
      </trkpt>
      <trkpt lat="44.4211" lon="5.145">
        <ele>1153.24</ele>
        <time>2014-09-17T11:08:12Z</time>
      </trkpt>
      <trkpt lat="44.42092" lon="5.14493">
        <ele>1155.16</ele>
        <time>2014-09-17T11:08:27Z</time>
      </trkpt>
      <trkpt lat="44.42092" lon="5.14493">
        <ele>1151.32</ele>
        <time>2014-09-17T11:08:34Z</time>
      </trkpt>
      <trkpt lat="44.42093" lon="5.14495">
        <ele>1159.97</ele>
        <time>2014-09-17T11:08:35Z</time>
      </trkpt>
      <trkpt lat="44.42095" lon="5.14506">
        <ele>1152.76</ele>
        <time>2014-09-17T11:08:38Z</time>
      </trkpt>
      <trkpt lat="44.42097" lon="5.14506">
        <ele>1152.28</ele>
        <time>2014-09-17T11:08:39Z</time>
      </trkpt>
      <trkpt lat="44.42097" lon="5.14505">
        <ele>1150.35</ele>
        <time>2014-09-17T11:08:45Z</time>
      </trkpt>
      <trkpt lat="44.42092" lon="5.14503">
        <ele>1148.43</ele>
        <time>2014-09-17T11:08:56Z</time>
      </trkpt>
      <trkpt lat="44.42092" lon="5.14503">
        <ele>1148.43</ele>
        <time>2014-09-17T11:08:57Z</time>
      </trkpt>
      <trkpt lat="44.42086" lon="5.14501">
        <ele>1145.07</ele>
        <time>2014-09-17T11:09:05Z</time>
      </trkpt>
      <trkpt lat="44.4208" lon="5.145">
        <ele>1144.11</ele>
        <time>2014-09-17T11:09:16Z</time>
      </trkpt>
      <trkpt lat="44.42072" lon="5.14501">
        <ele>1142.18</ele>
        <time>2014-09-17T11:09:26Z</time>
      </trkpt>
      <trkpt lat="44.42065" lon="5.14501">
        <ele>1139.78</ele>
        <time>2014-09-17T11:09:37Z</time>
      </trkpt>
      <trkpt lat="44.4206" lon="5.14499">
        <ele>1137.86</ele>
        <time>2014-09-17T11:09:46Z</time>
      </trkpt>
      <trkpt lat="44.42053" lon="5.145">
        <ele>1136.9</ele>
        <time>2014-09-17T11:09:55Z</time>
      </trkpt>
      <trkpt lat="44.42045" lon="5.14496">
        <ele>1134.49</ele>
        <time>2014-09-17T11:10:07Z</time>
      </trkpt>
      <trkpt lat="44.42038" lon="5.14494">
        <ele>1133.53</ele>
        <time>2014-09-17T11:10:15Z</time>
      </trkpt>
      <trkpt lat="44.42029" lon="5.14492">
        <ele>1131.13</ele>
        <time>2014-09-17T11:10:27Z</time>
      </trkpt>
      <trkpt lat="44.42028" lon="5.14492">
        <ele>1131.61</ele>
        <time>2014-09-17T11:10:28Z</time>
      </trkpt>
      <trkpt lat="44.42018" lon="5.14492">
        <ele>1129.21</ele>
        <time>2014-09-17T11:10:41Z</time>
      </trkpt>
      <trkpt lat="44.4201" lon="5.14492">
        <ele>1127.28</ele>
        <time>2014-09-17T11:10:52Z</time>
      </trkpt>
      <trkpt lat="44.42006" lon="5.14494">
        <ele>1126.8</ele>
        <time>2014-09-17T11:10:57Z</time>
      </trkpt>
      <trkpt lat="44.41996" lon="5.14494">
        <ele>1124.4</ele>
        <time>2014-09-17T11:11:07Z</time>
      </trkpt>
      <trkpt lat="44.41989" lon="5.14497">
        <ele>1122.96</ele>
        <time>2014-09-17T11:11:18Z</time>
      </trkpt>
      <trkpt lat="44.41988" lon="5.14497">
        <ele>1122</ele>
        <time>2014-09-17T11:11:19Z</time>
      </trkpt>
      <trkpt lat="44.41978" lon="5.14499">
        <ele>1120.55</ele>
        <time>2014-09-17T11:11:31Z</time>
      </trkpt>
      <trkpt lat="44.41976" lon="5.145">
        <ele>1119.59</ele>
        <time>2014-09-17T11:11:33Z</time>
      </trkpt>
      <trkpt lat="44.41965" lon="5.14502">
        <ele>1116.71</ele>
        <time>2014-09-17T11:11:47Z</time>
      </trkpt>
      <trkpt lat="44.41957" lon="5.14506">
        <ele>1115.27</ele>
        <time>2014-09-17T11:11:56Z</time>
      </trkpt>
      <trkpt lat="44.41952" lon="5.14508">
        <ele>1113.34</ele>
        <time>2014-09-17T11:12:02Z</time>
      </trkpt>
      <trkpt lat="44.41946" lon="5.14508">
        <ele>1112.38</ele>
        <time>2014-09-17T11:12:08Z</time>
      </trkpt>
      <trkpt lat="44.41936" lon="5.14511">
        <ele>1109.02</ele>
        <time>2014-09-17T11:12:18Z</time>
      </trkpt>
      <trkpt lat="44.41929" lon="5.14514">
        <ele>1104.21</ele>
        <time>2014-09-17T11:12:25Z</time>
      </trkpt>
      <trkpt lat="44.41926" lon="5.14514">
        <ele>1104.21</ele>
        <time>2014-09-17T11:12:28Z</time>
      </trkpt>
      <trkpt lat="44.41916" lon="5.14523">
        <ele>1100.85</ele>
        <time>2014-09-17T11:12:39Z</time>
      </trkpt>
      <trkpt lat="44.41902" lon="5.14532">
        <ele>1097</ele>
        <time>2014-09-17T11:12:48Z</time>
      </trkpt>
      <trkpt lat="44.419" lon="5.14532">
        <ele>1096.04</ele>
        <time>2014-09-17T11:12:49Z</time>
      </trkpt>
      <trkpt lat="44.41898" lon="5.14533">
        <ele>1095.08</ele>
        <time>2014-09-17T11:12:51Z</time>
      </trkpt>
      <trkpt lat="44.41891" lon="5.14536">
        <ele>1093.16</ele>
        <time>2014-09-17T11:12:56Z</time>
      </trkpt>
      <trkpt lat="44.41884" lon="5.14539">
        <ele>1090.75</ele>
        <time>2014-09-17T11:13:01Z</time>
      </trkpt>
      <trkpt lat="44.41871" lon="5.14546">
        <ele>1087.87</ele>
        <time>2014-09-17T11:13:14Z</time>
      </trkpt>
      <trkpt lat="44.41863" lon="5.14548">
        <ele>1085.47</ele>
        <time>2014-09-17T11:13:25Z</time>
      </trkpt>
      <trkpt lat="44.41858" lon="5.14552">
        <ele>1082.58</ele>
        <time>2014-09-17T11:13:42Z</time>
      </trkpt>
      <trkpt lat="44.41851" lon="5.14555">
        <ele>1082.1</ele>
        <time>2014-09-17T11:13:48Z</time>
      </trkpt>
      <trkpt lat="44.41847" lon="5.14556">
        <ele>1080.66</ele>
        <time>2014-09-17T11:13:52Z</time>
      </trkpt>
      <trkpt lat="44.41841" lon="5.14557">
        <ele>1078.74</ele>
        <time>2014-09-17T11:13:56Z</time>
      </trkpt>
      <trkpt lat="44.41834" lon="5.14559">
        <ele>1077.29</ele>
        <time>2014-09-17T11:14:02Z</time>
      </trkpt>
      <trkpt lat="44.41826" lon="5.14564">
        <ele>1074.41</ele>
        <time>2014-09-17T11:14:13Z</time>
      </trkpt>
      <trkpt lat="44.41817" lon="5.14567">
        <ele>1072.97</ele>
        <time>2014-09-17T11:14:22Z</time>
      </trkpt>
      <trkpt lat="44.41812" lon="5.14568">
        <ele>1071.53</ele>
        <time>2014-09-17T11:14:27Z</time>
      </trkpt>
      <trkpt lat="44.41803" lon="5.1457">
        <ele>1069.12</ele>
        <time>2014-09-17T11:14:39Z</time>
      </trkpt>
      <trkpt lat="44.41794" lon="5.14572">
        <ele>1066.72</ele>
        <time>2014-09-17T11:14:50Z</time>
      </trkpt>
      <trkpt lat="44.41789" lon="5.14575">
        <ele>1066.24</ele>
        <time>2014-09-17T11:14:55Z</time>
      </trkpt>
      <trkpt lat="44.41787" lon="5.14575">
        <ele>1065.28</ele>
        <time>2014-09-17T11:14:58Z</time>
      </trkpt>
      <trkpt lat="44.41775" lon="5.14581">
        <ele>1062.87</ele>
        <time>2014-09-17T11:15:12Z</time>
      </trkpt>
      <trkpt lat="44.41764" lon="5.14586">
        <ele>1060.95</ele>
        <time>2014-09-17T11:15:23Z</time>
      </trkpt>
      <trkpt lat="44.41756" lon="5.14587">
        <ele>1059.51</ele>
        <time>2014-09-17T11:15:32Z</time>
      </trkpt>
      <trkpt lat="44.41749" lon="5.1459">
        <ele>1058.55</ele>
        <time>2014-09-17T11:15:39Z</time>
      </trkpt>
      <trkpt lat="44.41739" lon="5.14598">
        <ele>1057.59</ele>
        <time>2014-09-17T11:15:50Z</time>
      </trkpt>
      <trkpt lat="44.41732" lon="5.146">
        <ele>1055.18</ele>
        <time>2014-09-17T11:15:59Z</time>
      </trkpt>
      <trkpt lat="44.41724" lon="5.14601">
        <ele>1053.26</ele>
        <time>2014-09-17T11:16:20Z</time>
      </trkpt>
      <trkpt lat="44.41718" lon="5.14598">
        <ele>1051.82</ele>
        <time>2014-09-17T11:16:30Z</time>
      </trkpt>
      <trkpt lat="44.41714" lon="5.14595">
        <ele>1049.42</ele>
        <time>2014-09-17T11:16:38Z</time>
      </trkpt>
      <trkpt lat="44.41707" lon="5.14593">
        <ele>1047.01</ele>
        <time>2014-09-17T11:16:48Z</time>
      </trkpt>
      <trkpt lat="44.41701" lon="5.14593">
        <ele>1045.57</ele>
        <time>2014-09-17T11:17:01Z</time>
      </trkpt>
      <trkpt lat="44.41697" lon="5.14592">
        <ele>1043.17</ele>
        <time>2014-09-17T11:17:12Z</time>
      </trkpt>
      <trkpt lat="44.41695" lon="5.14592">
        <ele>1041.73</ele>
        <time>2014-09-17T11:17:47Z</time>
      </trkpt>
      <trkpt lat="44.41691" lon="5.1459">
        <ele>1040.28</ele>
        <time>2014-09-17T11:19:28Z</time>
      </trkpt>
      <trkpt lat="44.41694" lon="5.14582">
        <ele>1039.32</ele>
        <time>2014-09-17T11:19:38Z</time>
      </trkpt>
      <trkpt lat="44.41694" lon="5.14578">
        <ele>1038.36</ele>
        <time>2014-09-17T11:19:41Z</time>
      </trkpt>
      <trkpt lat="44.41698" lon="5.14565">
        <ele>1035.96</ele>
        <time>2014-09-17T11:19:54Z</time>
      </trkpt>
      <trkpt lat="44.41698" lon="5.14555">
        <ele>1034.04</ele>
        <time>2014-09-17T11:20:06Z</time>
      </trkpt>
      <trkpt lat="44.41698" lon="5.14551">
        <ele>1033.07</ele>
        <time>2014-09-17T11:20:09Z</time>
      </trkpt>
      <trkpt lat="44.41705" lon="5.14536">
        <ele>1031.15</ele>
        <time>2014-09-17T11:20:23Z</time>
      </trkpt>
      <trkpt lat="44.41708" lon="5.14529">
        <ele>1030.19</ele>
        <time>2014-09-17T11:20:32Z</time>
      </trkpt>
      <trkpt lat="44.41711" lon="5.14518">
        <ele>1028.27</ele>
        <time>2014-09-17T11:20:44Z</time>
      </trkpt>
      <trkpt lat="44.41717" lon="5.1451">
        <ele>1027.31</ele>
        <time>2014-09-17T11:20:56Z</time>
      </trkpt>
      <trkpt lat="44.41717" lon="5.14508">
        <ele>1026.83</ele>
        <time>2014-09-17T11:21:05Z</time>
      </trkpt>
      <trkpt lat="44.41719" lon="5.14504">
        <ele>1026.83</ele>
        <time>2014-09-17T11:21:09Z</time>
      </trkpt>
      <trkpt lat="44.4172" lon="5.14499">
        <ele>1026.34</ele>
        <time>2014-09-17T11:21:13Z</time>
      </trkpt>
      <trkpt lat="44.41724" lon="5.14492">
        <ele>1025.86</ele>
        <time>2014-09-17T11:21:21Z</time>
      </trkpt>
      <trkpt lat="44.4173" lon="5.14484">
        <ele>1025.38</ele>
        <time>2014-09-17T11:21:29Z</time>
      </trkpt>
      <trkpt lat="44.41735" lon="5.14478">
        <ele>1024.9</ele>
        <time>2014-09-17T11:21:33Z</time>
      </trkpt>
      <trkpt lat="44.41739" lon="5.14473">
        <ele>1024.9</ele>
        <time>2014-09-17T11:21:37Z</time>
      </trkpt>
      <trkpt lat="44.41742" lon="5.14472">
        <ele>1024.42</ele>
        <time>2014-09-17T11:21:40Z</time>
      </trkpt>
      <trkpt lat="44.41745" lon="5.14466">
        <ele>1023.94</ele>
        <time>2014-09-17T11:21:44Z</time>
      </trkpt>
      <trkpt lat="44.41749" lon="5.14453">
        <ele>1024.42</ele>
        <time>2014-09-17T11:21:52Z</time>
      </trkpt>
      <trkpt lat="44.41752" lon="5.14447">
        <ele>1023.46</ele>
        <time>2014-09-17T11:21:56Z</time>
      </trkpt>
      <trkpt lat="44.41753" lon="5.14444">
        <ele>1022.98</ele>
        <time>2014-09-17T11:21:58Z</time>
      </trkpt>
      <trkpt lat="44.41755" lon="5.14439">
        <ele>1022.98</ele>
        <time>2014-09-17T11:22:01Z</time>
      </trkpt>
      <trkpt lat="44.41756" lon="5.14434">
        <ele>1023.46</ele>
        <time>2014-09-17T11:22:04Z</time>
      </trkpt>
      <trkpt lat="44.41761" lon="5.14425">
        <ele>1022.5</ele>
        <time>2014-09-17T11:22:11Z</time>
      </trkpt>
      <trkpt lat="44.41768" lon="5.14404">
        <ele>1022.5</ele>
        <time>2014-09-17T11:22:24Z</time>
      </trkpt>
      <trkpt lat="44.41773" lon="5.14391">
        <ele>1022.02</ele>
        <time>2014-09-17T11:22:32Z</time>
      </trkpt>
      <trkpt lat="44.41778" lon="5.14379">
        <ele>1021.54</ele>
        <time>2014-09-17T11:22:40Z</time>
      </trkpt>
      <trkpt lat="44.41786" lon="5.14363">
        <ele>1021.54</ele>
        <time>2014-09-17T11:22:51Z</time>
      </trkpt>
      <trkpt lat="44.4179" lon="5.14354">
        <ele>1021.54</ele>
        <time>2014-09-17T11:22:58Z</time>
      </trkpt>
      <trkpt lat="44.41795" lon="5.14346">
        <ele>1020.58</ele>
        <time>2014-09-17T11:23:04Z</time>
      </trkpt>
      <trkpt lat="44.41805" lon="5.14331">
        <ele>1019.62</ele>
        <time>2014-09-17T11:23:17Z</time>
      </trkpt>
      <trkpt lat="44.41808" lon="5.14328">
        <ele>1019.62</ele>
        <time>2014-09-17T11:23:20Z</time>
      </trkpt>
      <trkpt lat="44.41811" lon="5.14323">
        <ele>1018.65</ele>
        <time>2014-09-17T11:23:24Z</time>
      </trkpt>
      <trkpt lat="44.41818" lon="5.14317">
        <ele>1019.13</ele>
        <time>2014-09-17T11:23:31Z</time>
      </trkpt>
      <trkpt lat="44.41823" lon="5.14314">
        <ele>1017.69</ele>
        <time>2014-09-17T11:23:35Z</time>
      </trkpt>
      <trkpt lat="44.41828" lon="5.14309">
        <ele>1018.65</ele>
        <time>2014-09-17T11:23:40Z</time>
      </trkpt>
      <trkpt lat="44.41829" lon="5.14306">
        <ele>1018.65</ele>
        <time>2014-09-17T11:23:42Z</time>
      </trkpt>
      <trkpt lat="44.41837" lon="5.14301">
        <ele>1017.69</ele>
        <time>2014-09-17T11:23:50Z</time>
      </trkpt>
      <trkpt lat="44.41839" lon="5.14301">
        <ele>1018.65</ele>
        <time>2014-09-17T11:23:52Z</time>
      </trkpt>
      <trkpt lat="44.41848" lon="5.14293">
        <ele>1017.69</ele>
        <time>2014-09-17T11:24:01Z</time>
      </trkpt>
      <trkpt lat="44.41857" lon="5.14287">
        <ele>1016.73</ele>
        <time>2014-09-17T11:24:09Z</time>
      </trkpt>
      <trkpt lat="44.41873" lon="5.14275">
        <ele>1016.73</ele>
        <time>2014-09-17T11:24:23Z</time>
      </trkpt>
      <trkpt lat="44.4188" lon="5.14269">
        <ele>1016.73</ele>
        <time>2014-09-17T11:24:29Z</time>
      </trkpt>
      <trkpt lat="44.41891" lon="5.14263">
        <ele>1016.25</ele>
        <time>2014-09-17T11:24:38Z</time>
      </trkpt>
      <trkpt lat="44.419" lon="5.14258">
        <ele>1016.73</ele>
        <time>2014-09-17T11:24:45Z</time>
      </trkpt>
      <trkpt lat="44.41917" lon="5.14245">
        <ele>1016.25</ele>
        <time>2014-09-17T11:25:00Z</time>
      </trkpt>
      <trkpt lat="44.41932" lon="5.14234">
        <ele>1016.25</ele>
        <time>2014-09-17T11:25:13Z</time>
      </trkpt>
      <trkpt lat="44.41941" lon="5.14227">
        <ele>1016.25</ele>
        <time>2014-09-17T11:25:21Z</time>
      </trkpt>
      <trkpt lat="44.41947" lon="5.14221">
        <ele>1015.29</ele>
        <time>2014-09-17T11:25:27Z</time>
      </trkpt>
      <trkpt lat="44.41951" lon="5.14217">
        <ele>1015.77</ele>
        <time>2014-09-17T11:25:31Z</time>
      </trkpt>
      <trkpt lat="44.41962" lon="5.14208">
        <ele>1016.73</ele>
        <time>2014-09-17T11:25:41Z</time>
      </trkpt>
      <trkpt lat="44.41975" lon="5.14203">
        <ele>1016.25</ele>
        <time>2014-09-17T11:25:52Z</time>
      </trkpt>
      <trkpt lat="44.41981" lon="5.14199">
        <ele>1016.25</ele>
        <time>2014-09-17T11:25:57Z</time>
      </trkpt>
      <trkpt lat="44.41991" lon="5.14198">
        <ele>1016.73</ele>
        <time>2014-09-17T11:26:04Z</time>
      </trkpt>
      <trkpt lat="44.42" lon="5.14193">
        <ele>1016.25</ele>
        <time>2014-09-17T11:26:13Z</time>
      </trkpt>
      <trkpt lat="44.42011" lon="5.14178">
        <ele>1015.77</ele>
        <time>2014-09-17T11:26:23Z</time>
      </trkpt>
      <trkpt lat="44.42018" lon="5.14152">
        <ele>1013.85</ele>
        <time>2014-09-17T11:26:39Z</time>
      </trkpt>
      <trkpt lat="44.42019" lon="5.14148">
        <ele>1013.85</ele>
        <time>2014-09-17T11:26:41Z</time>
      </trkpt>
      <trkpt lat="44.42018" lon="5.1414">
        <ele>1013.37</ele>
        <time>2014-09-17T11:26:45Z</time>
      </trkpt>
      <trkpt lat="44.42019" lon="5.14133">
        <ele>1013.37</ele>
        <time>2014-09-17T11:26:48Z</time>
      </trkpt>
      <trkpt lat="44.4202" lon="5.14128">
        <ele>1012.89</ele>
        <time>2014-09-17T11:26:51Z</time>
      </trkpt>
      <trkpt lat="44.42021" lon="5.14107">
        <ele>1011.93</ele>
        <time>2014-09-17T11:27:03Z</time>
      </trkpt>
      <trkpt lat="44.4202" lon="5.14099">
        <ele>1011.44</ele>
        <time>2014-09-17T11:27:07Z</time>
      </trkpt>
      <trkpt lat="44.42018" lon="5.14068">
        <ele>1010.96</ele>
        <time>2014-09-17T11:27:22Z</time>
      </trkpt>
      <trkpt lat="44.42019" lon="5.14062">
        <ele>1010.48</ele>
        <time>2014-09-17T11:27:26Z</time>
      </trkpt>
      <trkpt lat="44.42016" lon="5.14042">
        <ele>1010.48</ele>
        <time>2014-09-17T11:27:36Z</time>
      </trkpt>
      <trkpt lat="44.42014" lon="5.1402">
        <ele>1009.04</ele>
        <time>2014-09-17T11:27:48Z</time>
      </trkpt>
      <trkpt lat="44.42015" lon="5.14013">
        <ele>1008.56</ele>
        <time>2014-09-17T11:27:52Z</time>
      </trkpt>
      <trkpt lat="44.42013" lon="5.14004">
        <ele>1007.12</ele>
        <time>2014-09-17T11:27:57Z</time>
      </trkpt>
      <trkpt lat="44.42011" lon="5.13981">
        <ele>1005.2</ele>
        <time>2014-09-17T11:28:09Z</time>
      </trkpt>
      <trkpt lat="44.42012" lon="5.13973">
        <ele>1004.72</ele>
        <time>2014-09-17T11:28:13Z</time>
      </trkpt>
      <trkpt lat="44.42012" lon="5.13965">
        <ele>1004.23</ele>
        <time>2014-09-17T11:28:17Z</time>
      </trkpt>
      <trkpt lat="44.42015" lon="5.13955">
        <ele>1002.31</ele>
        <time>2014-09-17T11:28:24Z</time>
      </trkpt>
      <trkpt lat="44.42019" lon="5.1394">
        <ele>1001.83</ele>
        <time>2014-09-17T11:28:33Z</time>
      </trkpt>
      <trkpt lat="44.42023" lon="5.13934">
        <ele>1000.87</ele>
        <time>2014-09-17T11:28:38Z</time>
      </trkpt>
      <trkpt lat="44.42032" lon="5.1392">
        <ele>999.91</ele>
        <time>2014-09-17T11:28:49Z</time>
      </trkpt>
      <trkpt lat="44.42043" lon="5.13907">
        <ele>998.95</ele>
        <time>2014-09-17T11:29:01Z</time>
      </trkpt>
      <trkpt lat="44.42044" lon="5.13905">
        <ele>999.43</ele>
        <time>2014-09-17T11:29:02Z</time>
      </trkpt>
      <trkpt lat="44.42056" lon="5.1389">
        <ele>998.47</ele>
        <time>2014-09-17T11:29:14Z</time>
      </trkpt>
      <trkpt lat="44.42057" lon="5.13885">
        <ele>997.99</ele>
        <time>2014-09-17T11:29:17Z</time>
      </trkpt>
      <trkpt lat="44.42058" lon="5.13873">
        <ele>997.02</ele>
        <time>2014-09-17T11:29:24Z</time>
      </trkpt>
      <trkpt lat="44.42058" lon="5.13863">
        <ele>996.54</ele>
        <time>2014-09-17T11:29:29Z</time>
      </trkpt>
      <trkpt lat="44.4206" lon="5.13843">
        <ele>995.58</ele>
        <time>2014-09-17T11:29:42Z</time>
      </trkpt>
      <trkpt lat="44.4206" lon="5.13838">
        <ele>995.58</ele>
        <time>2014-09-17T11:29:59Z</time>
      </trkpt>
      <trkpt lat="44.42063" lon="5.13831">
        <ele>994.62</ele>
        <time>2014-09-17T11:30:27Z</time>
      </trkpt>
      <trkpt lat="44.42067" lon="5.13818">
        <ele>994.62</ele>
        <time>2014-09-17T11:30:37Z</time>
      </trkpt>
      <trkpt lat="44.42068" lon="5.13815">
        <ele>993.66</ele>
        <time>2014-09-17T11:30:39Z</time>
      </trkpt>
      <trkpt lat="44.4207" lon="5.13806">
        <ele>993.66</ele>
        <time>2014-09-17T11:30:44Z</time>
      </trkpt>
      <trkpt lat="44.42071" lon="5.13803">
        <ele>993.18</ele>
        <time>2014-09-17T11:30:46Z</time>
      </trkpt>
      <trkpt lat="44.42072" lon="5.13796">
        <ele>992.7</ele>
        <time>2014-09-17T11:30:50Z</time>
      </trkpt>
      <trkpt lat="44.42073" lon="5.13778">
        <ele>991.26</ele>
        <time>2014-09-17T11:31:01Z</time>
      </trkpt>
      <trkpt lat="44.42073" lon="5.13755">
        <ele>990.78</ele>
        <time>2014-09-17T11:31:15Z</time>
      </trkpt>
      <trkpt lat="44.42082" lon="5.13743">
        <ele>989.33</ele>
        <time>2014-09-17T11:31:27Z</time>
      </trkpt>
      <trkpt lat="44.42096" lon="5.13735">
        <ele>987.41</ele>
        <time>2014-09-17T11:31:41Z</time>
      </trkpt>
      <trkpt lat="44.42098" lon="5.13733">
        <ele>986.93</ele>
        <time>2014-09-17T11:31:43Z</time>
      </trkpt>
      <trkpt lat="44.42108" lon="5.13728">
        <ele>985.97</ele>
        <time>2014-09-17T11:31:51Z</time>
      </trkpt>
      <trkpt lat="44.42113" lon="5.13723">
        <ele>985.49</ele>
        <time>2014-09-17T11:31:55Z</time>
      </trkpt>
      <trkpt lat="44.42117" lon="5.1372">
        <ele>985.01</ele>
        <time>2014-09-17T11:31:58Z</time>
      </trkpt>
      <trkpt lat="44.42127" lon="5.1371">
        <ele>983.57</ele>
        <time>2014-09-17T11:32:06Z</time>
      </trkpt>
      <trkpt lat="44.42135" lon="5.13701">
        <ele>983.09</ele>
        <time>2014-09-17T11:32:13Z</time>
      </trkpt>
      <trkpt lat="44.42144" lon="5.13683">
        <ele>980.2</ele>
        <time>2014-09-17T11:32:25Z</time>
      </trkpt>
      <trkpt lat="44.42149" lon="5.13677">
        <ele>978.76</ele>
        <time>2014-09-17T11:32:30Z</time>
      </trkpt>
      <trkpt lat="44.42153" lon="5.13671">
        <ele>978.28</ele>
        <time>2014-09-17T11:32:34Z</time>
      </trkpt>
      <trkpt lat="44.42162" lon="5.13655">
        <ele>976.84</ele>
        <time>2014-09-17T11:32:45Z</time>
      </trkpt>
      <trkpt lat="44.42164" lon="5.13649">
        <ele>976.84</ele>
        <time>2014-09-17T11:32:48Z</time>
      </trkpt>
      <trkpt lat="44.42164" lon="5.13639">
        <ele>975.88</ele>
        <time>2014-09-17T11:32:52Z</time>
      </trkpt>
      <trkpt lat="44.42167" lon="5.13618">
        <ele>974.91</ele>
        <time>2014-09-17T11:33:03Z</time>
      </trkpt>
      <trkpt lat="44.42167" lon="5.13617">
        <ele>974.91</ele>
        <time>2014-09-17T11:33:04Z</time>
      </trkpt>
      <trkpt lat="44.42169" lon="5.13605">
        <ele>974.43</ele>
        <time>2014-09-17T11:33:10Z</time>
      </trkpt>
      <trkpt lat="44.42174" lon="5.13574">
        <ele>973.47</ele>
        <time>2014-09-17T11:33:25Z</time>
      </trkpt>
      <trkpt lat="44.42168" lon="5.13556">
        <ele>972.51</ele>
        <time>2014-09-17T11:33:34Z</time>
      </trkpt>
      <trkpt lat="44.42165" lon="5.13548">
        <ele>971.55</ele>
        <time>2014-09-17T11:33:38Z</time>
      </trkpt>
      <trkpt lat="44.42163" lon="5.13539">
        <ele>970.59</ele>
        <time>2014-09-17T11:33:43Z</time>
      </trkpt>
      <trkpt lat="44.42163" lon="5.13529">
        <ele>969.63</ele>
        <time>2014-09-17T11:33:49Z</time>
      </trkpt>
      <trkpt lat="44.42167" lon="5.13505">
        <ele>968.67</ele>
        <time>2014-09-17T11:34:02Z</time>
      </trkpt>
      <trkpt lat="44.42167" lon="5.13498">
        <ele>968.18</ele>
        <time>2014-09-17T11:34:05Z</time>
      </trkpt>
      <trkpt lat="44.42164" lon="5.13486">
        <ele>966.74</ele>
        <time>2014-09-17T11:34:12Z</time>
      </trkpt>
      <trkpt lat="44.42163" lon="5.13471">
        <ele>965.78</ele>
        <time>2014-09-17T11:34:20Z</time>
      </trkpt>
      <trkpt lat="44.42159" lon="5.13439">
        <ele>964.34</ele>
        <time>2014-09-17T11:34:36Z</time>
      </trkpt>
      <trkpt lat="44.42159" lon="5.13413">
        <ele>962.42</ele>
        <time>2014-09-17T11:34:50Z</time>
      </trkpt>
      <trkpt lat="44.42164" lon="5.13392">
        <ele>960.49</ele>
        <time>2014-09-17T11:35:03Z</time>
      </trkpt>
      <trkpt lat="44.42163" lon="5.13388">
        <ele>960.49</ele>
        <time>2014-09-17T11:35:05Z</time>
      </trkpt>
      <trkpt lat="44.42168" lon="5.13368">
        <ele>958.57</ele>
        <time>2014-09-17T11:35:17Z</time>
      </trkpt>
      <trkpt lat="44.42169" lon="5.13366">
        <ele>958.57</ele>
        <time>2014-09-17T11:35:18Z</time>
      </trkpt>
      <trkpt lat="44.42169" lon="5.13361">
        <ele>958.09</ele>
        <time>2014-09-17T11:35:21Z</time>
      </trkpt>
      <trkpt lat="44.42172" lon="5.13349">
        <ele>957.13</ele>
        <time>2014-09-17T11:35:28Z</time>
      </trkpt>
      <trkpt lat="44.42175" lon="5.13343">
        <ele>957.13</ele>
        <time>2014-09-17T11:35:32Z</time>
      </trkpt>
      <trkpt lat="44.4218" lon="5.13316">
        <ele>955.21</ele>
        <time>2014-09-17T11:35:48Z</time>
      </trkpt>
      <trkpt lat="44.4218" lon="5.13315">
        <ele>955.21</ele>
        <time>2014-09-17T11:35:49Z</time>
      </trkpt>
      <trkpt lat="44.42186" lon="5.13294">
        <ele>952.8</ele>
        <time>2014-09-17T11:36:02Z</time>
      </trkpt>
      <trkpt lat="44.42189" lon="5.13276">
        <ele>951.36</ele>
        <time>2014-09-17T11:36:12Z</time>
      </trkpt>
      <trkpt lat="44.42191" lon="5.13257">
        <ele>950.4</ele>
        <time>2014-09-17T11:36:24Z</time>
      </trkpt>
      <trkpt lat="44.42189" lon="5.13236">
        <ele>947.52</ele>
        <time>2014-09-17T11:36:38Z</time>
      </trkpt>
      <trkpt lat="44.42188" lon="5.13227">
        <ele>947.04</ele>
        <time>2014-09-17T11:36:44Z</time>
      </trkpt>
      <trkpt lat="44.42189" lon="5.13209">
        <ele>944.63</ele>
        <time>2014-09-17T11:36:56Z</time>
      </trkpt>
      <trkpt lat="44.4219" lon="5.13203">
        <ele>944.15</ele>
        <time>2014-09-17T11:37:00Z</time>
      </trkpt>
      <trkpt lat="44.42194" lon="5.13189">
        <ele>942.23</ele>
        <time>2014-09-17T11:37:12Z</time>
      </trkpt>
      <trkpt lat="44.42195" lon="5.13187">
        <ele>941.75</ele>
        <time>2014-09-17T11:37:42Z</time>
      </trkpt>
      <trkpt lat="44.42195" lon="5.13187">
        <ele>942.23</ele>
        <time>2014-09-17T11:38:13Z</time>
      </trkpt>
      <trkpt lat="44.42196" lon="5.13184">
        <ele>941.75</ele>
        <time>2014-09-17T11:38:42Z</time>
      </trkpt>
      <trkpt lat="44.42195" lon="5.13179">
        <ele>941.75</ele>
        <time>2014-09-17T11:38:52Z</time>
      </trkpt>
      <trkpt lat="44.42195" lon="5.13179">
        <ele>941.27</ele>
        <time>2014-09-17T11:40:56Z</time>
      </trkpt>
      <trkpt lat="44.42195" lon="5.13173">
        <ele>940.79</ele>
        <time>2014-09-17T11:41:46Z</time>
      </trkpt>
      <trkpt lat="44.42192" lon="5.13159">
        <ele>937.9</ele>
        <time>2014-09-17T11:41:59Z</time>
      </trkpt>
      <trkpt lat="44.42192" lon="5.13158">
        <ele>937.9</ele>
        <time>2014-09-17T11:42:00Z</time>
      </trkpt>
      <trkpt lat="44.42196" lon="5.13142">
        <ele>935.02</ele>
        <time>2014-09-17T11:42:13Z</time>
      </trkpt>
      <trkpt lat="44.42198" lon="5.1313">
        <ele>933.1</ele>
        <time>2014-09-17T11:42:24Z</time>
      </trkpt>
      <trkpt lat="44.42198" lon="5.13122">
        <ele>931.17</ele>
        <time>2014-09-17T11:42:30Z</time>
      </trkpt>
      <trkpt lat="44.42201" lon="5.13111">
        <ele>931.65</ele>
        <time>2014-09-17T11:42:37Z</time>
      </trkpt>
      <trkpt lat="44.42203" lon="5.13096">
        <ele>929.73</ele>
        <time>2014-09-17T11:42:46Z</time>
      </trkpt>
      <trkpt lat="44.42212" lon="5.13083">
        <ele>929.25</ele>
        <time>2014-09-17T11:42:59Z</time>
      </trkpt>
      <trkpt lat="44.42214" lon="5.13081">
        <ele>930.69</ele>
        <time>2014-09-17T11:43:02Z</time>
      </trkpt>
      <trkpt lat="44.42218" lon="5.13077">
        <ele>931.17</ele>
        <time>2014-09-17T11:43:06Z</time>
      </trkpt>
      <trkpt lat="44.42222" lon="5.13071">
        <ele>932.14</ele>
        <time>2014-09-17T11:43:11Z</time>
      </trkpt>
      <trkpt lat="44.42232" lon="5.13063">
        <ele>933.58</ele>
        <time>2014-09-17T11:43:23Z</time>
      </trkpt>
      <trkpt lat="44.42233" lon="5.13062">
        <ele>933.58</ele>
        <time>2014-09-17T11:43:24Z</time>
      </trkpt>
      <trkpt lat="44.42237" lon="5.13056">
        <ele>935.02</ele>
        <time>2014-09-17T11:43:31Z</time>
      </trkpt>
      <trkpt lat="44.42246" lon="5.13048">
        <ele>936.46</ele>
        <time>2014-09-17T11:43:44Z</time>
      </trkpt>
      <trkpt lat="44.42255" lon="5.13047">
        <ele>937.9</ele>
        <time>2014-09-17T11:43:55Z</time>
      </trkpt>
      <trkpt lat="44.42257" lon="5.13048">
        <ele>938.38</ele>
        <time>2014-09-17T11:43:59Z</time>
      </trkpt>
      <trkpt lat="44.4227" lon="5.13052">
        <ele>939.83</ele>
        <time>2014-09-17T11:44:10Z</time>
      </trkpt>
      <trkpt lat="44.42287" lon="5.13049">
        <ele>940.79</ele>
        <time>2014-09-17T11:44:23Z</time>
      </trkpt>
      <trkpt lat="44.42301" lon="5.13044">
        <ele>941.27</ele>
        <time>2014-09-17T11:44:36Z</time>
      </trkpt>
      <trkpt lat="44.42314" lon="5.13033">
        <ele>942.71</ele>
        <time>2014-09-17T11:44:51Z</time>
      </trkpt>
      <trkpt lat="44.42321" lon="5.1303">
        <ele>944.15</ele>
        <time>2014-09-17T11:44:59Z</time>
      </trkpt>
      <trkpt lat="44.42331" lon="5.13024">
        <ele>945.11</ele>
        <time>2014-09-17T11:45:10Z</time>
      </trkpt>
      <trkpt lat="44.4234" lon="5.13018">
        <ele>946.56</ele>
        <time>2014-09-17T11:45:21Z</time>
      </trkpt>
      <trkpt lat="44.42348" lon="5.13018">
        <ele>947.52</ele>
        <time>2014-09-17T11:45:30Z</time>
      </trkpt>
      <trkpt lat="44.42357" lon="5.13018">
        <ele>949.92</ele>
        <time>2014-09-17T11:45:43Z</time>
      </trkpt>
      <trkpt lat="44.42365" lon="5.13016">
        <ele>951.36</ele>
        <time>2014-09-17T11:45:54Z</time>
      </trkpt>
      <trkpt lat="44.42377" lon="5.13016">
        <ele>952.8</ele>
        <time>2014-09-17T11:46:07Z</time>
      </trkpt>
      <trkpt lat="44.42386" lon="5.13014">
        <ele>955.21</ele>
        <time>2014-09-17T11:46:20Z</time>
      </trkpt>
      <trkpt lat="44.42393" lon="5.13011">
        <ele>956.65</ele>
        <time>2014-09-17T11:46:29Z</time>
      </trkpt>
      <trkpt lat="44.42404" lon="5.13008">
        <ele>959.05</ele>
        <time>2014-09-17T11:46:45Z</time>
      </trkpt>
      <trkpt lat="44.42415" lon="5.13011">
        <ele>961.94</ele>
        <time>2014-09-17T11:47:08Z</time>
      </trkpt>
      <trkpt lat="44.42429" lon="5.13009">
        <ele>963.38</ele>
        <time>2014-09-17T11:47:29Z</time>
      </trkpt>
      <trkpt lat="44.42446" lon="5.13008">
        <ele>964.82</ele>
        <time>2014-09-17T11:47:42Z</time>
      </trkpt>
      <trkpt lat="44.42457" lon="5.13007">
        <ele>966.74</ele>
        <time>2014-09-17T11:47:53Z</time>
      </trkpt>
      <trkpt lat="44.42469" lon="5.13004">
        <ele>968.18</ele>
        <time>2014-09-17T11:48:06Z</time>
      </trkpt>
      <trkpt lat="44.42478" lon="5.13">
        <ele>970.11</ele>
        <time>2014-09-17T11:48:23Z</time>
      </trkpt>
      <trkpt lat="44.42488" lon="5.12994">
        <ele>972.99</ele>
        <time>2014-09-17T11:48:36Z</time>
      </trkpt>
      <trkpt lat="44.42488" lon="5.12994">
        <ele>972.51</ele>
        <time>2014-09-17T11:48:37Z</time>
      </trkpt>
      <trkpt lat="44.4249" lon="5.12996">
        <ele>972.99</ele>
        <time>2014-09-17T11:48:39Z</time>
      </trkpt>
      <trkpt lat="44.4249" lon="5.13003">
        <ele>974.43</ele>
        <time>2014-09-17T11:48:51Z</time>
      </trkpt>
      <trkpt lat="44.42486" lon="5.13012">
        <ele>975.88</ele>
        <time>2014-09-17T11:49:06Z</time>
      </trkpt>
      <trkpt lat="44.42485" lon="5.13024">
        <ele>977.32</ele>
        <time>2014-09-17T11:49:18Z</time>
      </trkpt>
      <trkpt lat="44.42484" lon="5.13036">
        <ele>978.76</ele>
        <time>2014-09-17T11:49:28Z</time>
      </trkpt>
      <trkpt lat="44.42483" lon="5.1305">
        <ele>980.2</ele>
        <time>2014-09-17T11:49:39Z</time>
      </trkpt>
      <trkpt lat="44.42485" lon="5.13065">
        <ele>982.12</ele>
        <time>2014-09-17T11:49:50Z</time>
      </trkpt>
      <trkpt lat="44.42487" lon="5.13075">
        <ele>983.57</ele>
        <time>2014-09-17T11:50:02Z</time>
      </trkpt>
      <trkpt lat="44.42492" lon="5.13076">
        <ele>986.45</ele>
        <time>2014-09-17T11:50:16Z</time>
      </trkpt>
      <trkpt lat="44.42499" lon="5.13074">
        <ele>987.89</ele>
        <time>2014-09-17T11:50:26Z</time>
      </trkpt>
      <trkpt lat="44.42505" lon="5.13069">
        <ele>989.81</ele>
        <time>2014-09-17T11:50:38Z</time>
      </trkpt>
      <trkpt lat="44.42513" lon="5.13066">
        <ele>991.74</ele>
        <time>2014-09-17T11:50:50Z</time>
      </trkpt>
      <trkpt lat="44.42524" lon="5.13059">
        <ele>994.14</ele>
        <time>2014-09-17T11:51:05Z</time>
      </trkpt>
      <trkpt lat="44.42531" lon="5.13058">
        <ele>996.54</ele>
        <time>2014-09-17T11:51:18Z</time>
      </trkpt>
      <trkpt lat="44.42536" lon="5.13056">
        <ele>997.99</ele>
        <time>2014-09-17T11:51:33Z</time>
      </trkpt>
      <trkpt lat="44.42542" lon="5.13053">
        <ele>999.43</ele>
        <time>2014-09-17T11:51:45Z</time>
      </trkpt>
      <trkpt lat="44.42546" lon="5.13052">
        <ele>1002.31</ele>
        <time>2014-09-17T11:52:02Z</time>
      </trkpt>
      <trkpt lat="44.42553" lon="5.13047">
        <ele>1005.2</ele>
        <time>2014-09-17T11:52:20Z</time>
      </trkpt>
      <trkpt lat="44.42558" lon="5.13044">
        <ele>1006.64</ele>
        <time>2014-09-17T11:52:35Z</time>
      </trkpt>
      <trkpt lat="44.42564" lon="5.13038">
        <ele>1008.56</ele>
        <time>2014-09-17T11:52:50Z</time>
      </trkpt>
      <trkpt lat="44.42569" lon="5.1303">
        <ele>1010.48</ele>
        <time>2014-09-17T11:53:01Z</time>
      </trkpt>
      <trkpt lat="44.42573" lon="5.13028">
        <ele>1012.41</ele>
        <time>2014-09-17T11:53:16Z</time>
      </trkpt>
      <trkpt lat="44.42578" lon="5.13019">
        <ele>1014.81</ele>
        <time>2014-09-17T11:53:29Z</time>
      </trkpt>
      <trkpt lat="44.42583" lon="5.13015">
        <ele>1016.25</ele>
        <time>2014-09-17T11:53:41Z</time>
      </trkpt>
      <trkpt lat="44.42583" lon="5.13005">
        <ele>1017.21</ele>
        <time>2014-09-17T11:53:54Z</time>
      </trkpt>
      <trkpt lat="44.42581" lon="5.12997">
        <ele>1017.69</ele>
        <time>2014-09-17T11:54:09Z</time>
      </trkpt>
      <trkpt lat="44.4258" lon="5.12985">
        <ele>1017.21</ele>
        <time>2014-09-17T11:57:02Z</time>
      </trkpt>
      <trkpt lat="44.42586" lon="5.1297">
        <ele>1015.29</ele>
        <time>2014-09-17T11:57:13Z</time>
      </trkpt>
      <trkpt lat="44.42587" lon="5.12967">
        <ele>1015.29</ele>
        <time>2014-09-17T11:57:16Z</time>
      </trkpt>
      <trkpt lat="44.42592" lon="5.12958">
        <ele>1014.33</ele>
        <time>2014-09-17T11:57:25Z</time>
      </trkpt>
      <trkpt lat="44.42594" lon="5.12951">
        <ele>1014.33</ele>
        <time>2014-09-17T11:57:30Z</time>
      </trkpt>
      <trkpt lat="44.42598" lon="5.12947">
        <ele>1013.85</ele>
        <time>2014-09-17T11:57:34Z</time>
      </trkpt>
      <trkpt lat="44.42601" lon="5.12942">
        <ele>1014.33</ele>
        <time>2014-09-17T11:57:38Z</time>
      </trkpt>
      <trkpt lat="44.42611" lon="5.12931">
        <ele>1015.77</ele>
        <time>2014-09-17T11:57:51Z</time>
      </trkpt>
      <trkpt lat="44.42612" lon="5.1293">
        <ele>1016.25</ele>
        <time>2014-09-17T11:57:52Z</time>
      </trkpt>
      <trkpt lat="44.42617" lon="5.12928">
        <ele>1017.21</ele>
        <time>2014-09-17T11:58:02Z</time>
      </trkpt>
      <trkpt lat="44.42622" lon="5.12931">
        <ele>1017.69</ele>
        <time>2014-09-17T11:58:11Z</time>
      </trkpt>
      <trkpt lat="44.42628" lon="5.12936">
        <ele>1018.17</ele>
        <time>2014-09-17T11:58:20Z</time>
      </trkpt>
      <trkpt lat="44.42631" lon="5.12943">
        <ele>1019.13</ele>
        <time>2014-09-17T11:58:31Z</time>
      </trkpt>
      <trkpt lat="44.42636" lon="5.12954">
        <ele>1019.62</ele>
        <time>2014-09-17T11:58:45Z</time>
      </trkpt>
      <trkpt lat="44.42646" lon="5.12962">
        <ele>1020.1</ele>
        <time>2014-09-17T11:58:53Z</time>
      </trkpt>
      <trkpt lat="44.42653" lon="5.12969">
        <ele>1022.02</ele>
        <time>2014-09-17T11:59:05Z</time>
      </trkpt>
      <trkpt lat="44.42663" lon="5.12975">
        <ele>1022.98</ele>
        <time>2014-09-17T11:59:17Z</time>
      </trkpt>
      <trkpt lat="44.42671" lon="5.12978">
        <ele>1024.42</ele>
        <time>2014-09-17T11:59:29Z</time>
      </trkpt>
      <trkpt lat="44.42672" lon="5.12978">
        <ele>1024.42</ele>
        <time>2014-09-17T11:59:30Z</time>
      </trkpt>
      <trkpt lat="44.42684" lon="5.12976">
        <ele>1024.42</ele>
        <time>2014-09-17T11:59:41Z</time>
      </trkpt>
      <trkpt lat="44.42694" lon="5.12976">
        <ele>1024.9</ele>
        <time>2014-09-17T11:59:51Z</time>
      </trkpt>
      <trkpt lat="44.42702" lon="5.12976">
        <ele>1025.86</ele>
        <time>2014-09-17T12:00:02Z</time>
      </trkpt>
      <trkpt lat="44.42708" lon="5.12978">
        <ele>1027.31</ele>
        <time>2014-09-17T12:00:11Z</time>
      </trkpt>
      <trkpt lat="44.42712" lon="5.12979">
        <ele>1027.79</ele>
        <time>2014-09-17T12:00:16Z</time>
      </trkpt>
      <trkpt lat="44.42718" lon="5.12983">
        <ele>1029.23</ele>
        <time>2014-09-17T12:00:26Z</time>
      </trkpt>
      <trkpt lat="44.42724" lon="5.12985">
        <ele>1031.15</ele>
        <time>2014-09-17T12:00:37Z</time>
      </trkpt>
      <trkpt lat="44.4273" lon="5.12986">
        <ele>1031.63</ele>
        <time>2014-09-17T12:00:45Z</time>
      </trkpt>
      <trkpt lat="44.42738" lon="5.12989">
        <ele>1032.59</ele>
        <time>2014-09-17T12:00:55Z</time>
      </trkpt>
      <trkpt lat="44.42748" lon="5.12988">
        <ele>1033.55</ele>
        <time>2014-09-17T12:01:06Z</time>
      </trkpt>
      <trkpt lat="44.42752" lon="5.12989">
        <ele>1033.07</ele>
        <time>2014-09-17T12:01:10Z</time>
      </trkpt>
      <trkpt lat="44.42753" lon="5.12986">
        <ele>1035</ele>
        <time>2014-09-17T12:01:13Z</time>
      </trkpt>
      <trkpt lat="44.42759" lon="5.12983">
        <ele>1036.44</ele>
        <time>2014-09-17T12:01:23Z</time>
      </trkpt>
      <trkpt lat="44.42764" lon="5.12979">
        <ele>1038.36</ele>
        <time>2014-09-17T12:01:33Z</time>
      </trkpt>
      <trkpt lat="44.42768" lon="5.12972">
        <ele>1040.28</ele>
        <time>2014-09-17T12:01:44Z</time>
      </trkpt>
      <trkpt lat="44.4277" lon="5.12971">
        <ele>1041.25</ele>
        <time>2014-09-17T12:01:46Z</time>
      </trkpt>
      <trkpt lat="44.42771" lon="5.12965">
        <ele>1042.69</ele>
        <time>2014-09-17T12:01:55Z</time>
      </trkpt>
      <trkpt lat="44.42774" lon="5.12959">
        <ele>1044.61</ele>
        <time>2014-09-17T12:02:04Z</time>
      </trkpt>
      <trkpt lat="44.42781" lon="5.12951">
        <ele>1047.49</ele>
        <time>2014-09-17T12:02:16Z</time>
      </trkpt>
      <trkpt lat="44.42786" lon="5.12946">
        <ele>1049.42</ele>
        <time>2014-09-17T12:02:26Z</time>
      </trkpt>
      <trkpt lat="44.4279" lon="5.1294">
        <ele>1050.38</ele>
        <time>2014-09-17T12:02:36Z</time>
      </trkpt>
      <trkpt lat="44.4279" lon="5.1294">
        <ele>1051.34</ele>
        <time>2014-09-17T12:02:37Z</time>
      </trkpt>
      <trkpt lat="44.42798" lon="5.12939">
        <ele>1052.3</ele>
        <time>2014-09-17T12:02:47Z</time>
      </trkpt>
      <trkpt lat="44.42801" lon="5.12939">
        <ele>1053.26</ele>
        <time>2014-09-17T12:03:02Z</time>
      </trkpt>
      <trkpt lat="44.42809" lon="5.12938">
        <ele>1055.18</ele>
        <time>2014-09-17T12:03:36Z</time>
      </trkpt>
      <trkpt lat="44.42819" lon="5.1294">
        <ele>1057.11</ele>
        <time>2014-09-17T12:03:47Z</time>
      </trkpt>
      <trkpt lat="44.42827" lon="5.1294">
        <ele>1058.55</ele>
        <time>2014-09-17T12:03:57Z</time>
      </trkpt>
      <trkpt lat="44.4283" lon="5.1294">
        <ele>1059.51</ele>
        <time>2014-09-17T12:04:03Z</time>
      </trkpt>
      <trkpt lat="44.4284" lon="5.12942">
        <ele>1060.95</ele>
        <time>2014-09-17T12:04:14Z</time>
      </trkpt>
      <trkpt lat="44.42844" lon="5.12944">
        <ele>1061.91</ele>
        <time>2014-09-17T12:04:21Z</time>
      </trkpt>
      <trkpt lat="44.42847" lon="5.12944">
        <ele>1062.39</ele>
        <time>2014-09-17T12:04:25Z</time>
      </trkpt>
      <trkpt lat="44.42855" lon="5.12945">
        <ele>1063.84</ele>
        <time>2014-09-17T12:04:34Z</time>
      </trkpt>
      <trkpt lat="44.42861" lon="5.12947">
        <ele>1065.76</ele>
        <time>2014-09-17T12:04:40Z</time>
      </trkpt>
      <trkpt lat="44.4287" lon="5.12948">
        <ele>1067.2</ele>
        <time>2014-09-17T12:04:52Z</time>
      </trkpt>
      <trkpt lat="44.42878" lon="5.12953">
        <ele>1069.12</ele>
        <time>2014-09-17T12:05:03Z</time>
      </trkpt>
      <trkpt lat="44.42879" lon="5.12953">
        <ele>1068.64</ele>
        <time>2014-09-17T12:05:16Z</time>
      </trkpt>
      <trkpt lat="44.42885" lon="5.12956">
        <ele>1067.68</ele>
        <time>2014-09-17T12:07:18Z</time>
      </trkpt>
      <trkpt lat="44.42886" lon="5.12957">
        <ele>1066.72</ele>
        <time>2014-09-17T12:07:24Z</time>
      </trkpt>
      <trkpt lat="44.42888" lon="5.12957">
        <ele>1066.72</ele>
        <time>2014-09-17T12:07:26Z</time>
      </trkpt>
      <trkpt lat="44.42898" lon="5.1296">
        <ele>1066.24</ele>
        <time>2014-09-17T12:07:36Z</time>
      </trkpt>
      <trkpt lat="44.42901" lon="5.1296">
        <ele>1065.76</ele>
        <time>2014-09-17T12:07:39Z</time>
      </trkpt>
      <trkpt lat="44.42908" lon="5.12954">
        <ele>1066.24</ele>
        <time>2014-09-17T12:07:50Z</time>
      </trkpt>
      <trkpt lat="44.42909" lon="5.12953">
        <ele>1066.24</ele>
        <time>2014-09-17T12:07:51Z</time>
      </trkpt>
      <trkpt lat="44.42918" lon="5.12955">
        <ele>1066.72</ele>
        <time>2014-09-17T12:08:01Z</time>
      </trkpt>
      <trkpt lat="44.42919" lon="5.12955">
        <ele>1066.72</ele>
        <time>2014-09-17T12:08:03Z</time>
      </trkpt>
      <trkpt lat="44.42927" lon="5.12961">
        <ele>1067.2</ele>
        <time>2014-09-17T12:08:12Z</time>
      </trkpt>
      <trkpt lat="44.42935" lon="5.12971">
        <ele>1067.2</ele>
        <time>2014-09-17T12:08:23Z</time>
      </trkpt>
      <trkpt lat="44.42941" lon="5.12978">
        <ele>1066.24</ele>
        <time>2014-09-17T12:08:35Z</time>
      </trkpt>
      <trkpt lat="44.42945" lon="5.12979">
        <ele>1064.32</ele>
        <time>2014-09-17T12:08:42Z</time>
      </trkpt>
      <trkpt lat="44.42956" lon="5.12977">
        <ele>1062.87</ele>
        <time>2014-09-17T12:08:52Z</time>
      </trkpt>
      <trkpt lat="44.42961" lon="5.12976">
        <ele>1061.91</ele>
        <time>2014-09-17T12:08:56Z</time>
      </trkpt>
      <trkpt lat="44.42976" lon="5.12978">
        <ele>1062.39</ele>
        <time>2014-09-17T12:09:07Z</time>
      </trkpt>
      <trkpt lat="44.42986" lon="5.1298">
        <ele>1062.87</ele>
        <time>2014-09-17T12:09:18Z</time>
      </trkpt>
      <trkpt lat="44.42987" lon="5.1298">
        <ele>1062.39</ele>
        <time>2014-09-17T12:09:19Z</time>
      </trkpt>
      <trkpt lat="44.42997" lon="5.12983">
        <ele>1062.87</ele>
        <time>2014-09-17T12:09:32Z</time>
      </trkpt>
      <trkpt lat="44.43003" lon="5.12978">
        <ele>1061.43</ele>
        <time>2014-09-17T12:09:51Z</time>
      </trkpt>
      <trkpt lat="44.43009" lon="5.12976">
        <ele>1059.51</ele>
        <time>2014-09-17T12:10:00Z</time>
      </trkpt>
      <trkpt lat="44.43017" lon="5.12975">
        <ele>1058.07</ele>
        <time>2014-09-17T12:10:15Z</time>
      </trkpt>
      <trkpt lat="44.43027" lon="5.12977">
        <ele>1056.63</ele>
        <time>2014-09-17T12:10:30Z</time>
      </trkpt>
      <trkpt lat="44.4304" lon="5.12979">
        <ele>1055.18</ele>
        <time>2014-09-17T12:10:43Z</time>
      </trkpt>
      <trkpt lat="44.43049" lon="5.12983">
        <ele>1053.74</ele>
        <time>2014-09-17T12:11:01Z</time>
      </trkpt>
      <trkpt lat="44.43058" lon="5.12984">
        <ele>1050.86</ele>
        <time>2014-09-17T12:11:12Z</time>
      </trkpt>
      <trkpt lat="44.43064" lon="5.12986">
        <ele>1050.38</ele>
        <time>2014-09-17T12:11:19Z</time>
      </trkpt>
      <trkpt lat="44.43076" lon="5.12987">
        <ele>1049.42</ele>
        <time>2014-09-17T12:11:30Z</time>
      </trkpt>
      <trkpt lat="44.43078" lon="5.12988">
        <ele>1048.45</ele>
        <time>2014-09-17T12:11:32Z</time>
      </trkpt>
      <trkpt lat="44.43088" lon="5.12993">
        <ele>1047.01</ele>
        <time>2014-09-17T12:11:42Z</time>
      </trkpt>
      <trkpt lat="44.43091" lon="5.12994">
        <ele>1047.01</ele>
        <time>2014-09-17T12:11:46Z</time>
      </trkpt>
      <trkpt lat="44.43093" lon="5.12994">
        <ele>1046.53</ele>
        <time>2014-09-17T12:11:48Z</time>
      </trkpt>
      <trkpt lat="44.43102" lon="5.12997">
        <ele>1045.57</ele>
        <time>2014-09-17T12:11:57Z</time>
      </trkpt>
      <trkpt lat="44.43116" lon="5.13002">
        <ele>1043.65</ele>
        <time>2014-09-17T12:12:09Z</time>
      </trkpt>
      <trkpt lat="44.43133" lon="5.13003">
        <ele>1042.21</ele>
        <time>2014-09-17T12:12:22Z</time>
      </trkpt>
      <trkpt lat="44.4314" lon="5.13001">
        <ele>1041.25</ele>
        <time>2014-09-17T12:12:28Z</time>
      </trkpt>
      <trkpt lat="44.4315" lon="5.12995">
        <ele>1039.32</ele>
        <time>2014-09-17T12:12:36Z</time>
      </trkpt>
      <trkpt lat="44.43161" lon="5.12989">
        <ele>1038.36</ele>
        <time>2014-09-17T12:12:43Z</time>
      </trkpt>
      <trkpt lat="44.43171" lon="5.12985">
        <ele>1037.4</ele>
        <time>2014-09-17T12:12:52Z</time>
      </trkpt>
      <trkpt lat="44.43183" lon="5.12979">
        <ele>1037.88</ele>
        <time>2014-09-17T12:13:03Z</time>
      </trkpt>
      <trkpt lat="44.43184" lon="5.12979">
        <ele>1037.4</ele>
        <time>2014-09-17T12:13:04Z</time>
      </trkpt>
      <trkpt lat="44.43186" lon="5.12977">
        <ele>1037.88</ele>
        <time>2014-09-17T12:13:07Z</time>
      </trkpt>
      <trkpt lat="44.43191" lon="5.12974">
        <ele>1038.36</ele>
        <time>2014-09-17T12:13:12Z</time>
      </trkpt>
      <trkpt lat="44.432" lon="5.12971">
        <ele>1039.8</ele>
        <time>2014-09-17T12:13:22Z</time>
      </trkpt>
      <trkpt lat="44.4321" lon="5.12971">
        <ele>1041.73</ele>
        <time>2014-09-17T12:13:34Z</time>
      </trkpt>
      <trkpt lat="44.43214" lon="5.12973">
        <ele>1041.73</ele>
        <time>2014-09-17T12:13:41Z</time>
      </trkpt>
      <trkpt lat="44.43222" lon="5.12977">
        <ele>1043.17</ele>
        <time>2014-09-17T12:13:51Z</time>
      </trkpt>
      <trkpt lat="44.43232" lon="5.12976">
        <ele>1045.09</ele>
        <time>2014-09-17T12:14:02Z</time>
      </trkpt>
      <trkpt lat="44.43236" lon="5.12976">
        <ele>1044.61</ele>
        <time>2014-09-17T12:14:06Z</time>
      </trkpt>
      <trkpt lat="44.43245" lon="5.12977">
        <ele>1046.05</ele>
        <time>2014-09-17T12:14:17Z</time>
      </trkpt>
      <trkpt lat="44.43254" lon="5.12976">
        <ele>1047.97</ele>
        <time>2014-09-17T12:14:27Z</time>
      </trkpt>
      <trkpt lat="44.43262" lon="5.12976">
        <ele>1048.45</ele>
        <time>2014-09-17T12:14:36Z</time>
      </trkpt>
      <trkpt lat="44.43264" lon="5.12978">
        <ele>1048.94</ele>
        <time>2014-09-17T12:14:47Z</time>
      </trkpt>
      <trkpt lat="44.43265" lon="5.12979">
        <ele>1049.9</ele>
        <time>2014-09-17T12:14:57Z</time>
      </trkpt>
      <trkpt lat="44.43269" lon="5.12988">
        <ele>1047.49</ele>
        <time>2014-09-17T12:15:29Z</time>
      </trkpt>
      <trkpt lat="44.4327" lon="5.12996">
        <ele>1046.05</ele>
        <time>2014-09-17T12:15:40Z</time>
      </trkpt>
      <trkpt lat="44.4327" lon="5.13">
        <ele>1046.53</ele>
        <time>2014-09-17T12:15:43Z</time>
      </trkpt>
      <trkpt lat="44.43272" lon="5.13009">
        <ele>1044.61</ele>
        <time>2014-09-17T12:15:56Z</time>
      </trkpt>
      <trkpt lat="44.43271" lon="5.13009">
        <ele>1044.13</ele>
        <time>2014-09-17T12:15:57Z</time>
      </trkpt>
      <trkpt lat="44.4327" lon="5.13017">
        <ele>1042.21</ele>
        <time>2014-09-17T12:16:08Z</time>
      </trkpt>
      <trkpt lat="44.43271" lon="5.13021">
        <ele>1041.25</ele>
        <time>2014-09-17T12:16:13Z</time>
      </trkpt>
      <trkpt lat="44.43272" lon="5.13026">
        <ele>1040.28</ele>
        <time>2014-09-17T12:16:18Z</time>
      </trkpt>
      <trkpt lat="44.43272" lon="5.13028">
        <ele>1040.28</ele>
        <time>2014-09-17T12:16:21Z</time>
      </trkpt>
      <trkpt lat="44.43276" lon="5.13039">
        <ele>1038.36</ele>
        <time>2014-09-17T12:16:34Z</time>
      </trkpt>
      <trkpt lat="44.43279" lon="5.13044">
        <ele>1036.92</ele>
        <time>2014-09-17T12:16:43Z</time>
      </trkpt>
      <trkpt lat="44.43285" lon="5.13058">
        <ele>1035</ele>
        <time>2014-09-17T12:16:59Z</time>
      </trkpt>
      <trkpt lat="44.43286" lon="5.13061">
        <ele>1033.55</ele>
        <time>2014-09-17T12:17:02Z</time>
      </trkpt>
      <trkpt lat="44.43286" lon="5.13066">
        <ele>1033.07</ele>
        <time>2014-09-17T12:17:06Z</time>
      </trkpt>
      <trkpt lat="44.43286" lon="5.13072">
        <ele>1031.63</ele>
        <time>2014-09-17T12:17:10Z</time>
      </trkpt>
      <trkpt lat="44.43289" lon="5.1308">
        <ele>1030.19</ele>
        <time>2014-09-17T12:17:18Z</time>
      </trkpt>
      <trkpt lat="44.43284" lon="5.13089">
        <ele>1029.23</ele>
        <time>2014-09-17T12:17:28Z</time>
      </trkpt>
      <trkpt lat="44.43284" lon="5.13091">
        <ele>1028.27</ele>
        <time>2014-09-17T12:17:30Z</time>
      </trkpt>
      <trkpt lat="44.43287" lon="5.13107">
        <ele>1025.86</ele>
        <time>2014-09-17T12:17:42Z</time>
      </trkpt>
      <trkpt lat="44.43291" lon="5.1312">
        <ele>1025.86</ele>
        <time>2014-09-17T12:17:55Z</time>
      </trkpt>
      <trkpt lat="44.43292" lon="5.13135">
        <ele>1024.42</ele>
        <time>2014-09-17T12:18:08Z</time>
      </trkpt>
      <trkpt lat="44.43293" lon="5.13147">
        <ele>1022.98</ele>
        <time>2014-09-17T12:18:18Z</time>
      </trkpt>
      <trkpt lat="44.43293" lon="5.1315">
        <ele>1022.98</ele>
        <time>2014-09-17T12:18:20Z</time>
      </trkpt>
      <trkpt lat="44.43299" lon="5.13161">
        <ele>1022.98</ele>
        <time>2014-09-17T12:18:29Z</time>
      </trkpt>
      <trkpt lat="44.43302" lon="5.13167">
        <ele>1022.98</ele>
        <time>2014-09-17T12:18:34Z</time>
      </trkpt>
      <trkpt lat="44.43306" lon="5.1318">
        <ele>1022.02</ele>
        <time>2014-09-17T12:18:44Z</time>
      </trkpt>
      <trkpt lat="44.43307" lon="5.13185">
        <ele>1021.06</ele>
        <time>2014-09-17T12:18:49Z</time>
      </trkpt>
      <trkpt lat="44.43309" lon="5.1319">
        <ele>1020.58</ele>
        <time>2014-09-17T12:18:54Z</time>
      </trkpt>
      <trkpt lat="44.43315" lon="5.13203">
        <ele>1019.62</ele>
        <time>2014-09-17T12:19:06Z</time>
      </trkpt>
      <trkpt lat="44.43319" lon="5.13215">
        <ele>1019.13</ele>
        <time>2014-09-17T12:19:17Z</time>
      </trkpt>
      <trkpt lat="44.43322" lon="5.13226">
        <ele>1018.65</ele>
        <time>2014-09-17T12:19:27Z</time>
      </trkpt>
      <trkpt lat="44.43322" lon="5.13228">
        <ele>1018.17</ele>
        <time>2014-09-17T12:19:28Z</time>
      </trkpt>
      <trkpt lat="44.43327" lon="5.1324">
        <ele>1018.17</ele>
        <time>2014-09-17T12:19:37Z</time>
      </trkpt>
      <trkpt lat="44.43333" lon="5.13247">
        <ele>1018.17</ele>
        <time>2014-09-17T12:19:46Z</time>
      </trkpt>
      <trkpt lat="44.43336" lon="5.13252">
        <ele>1018.17</ele>
        <time>2014-09-17T12:19:50Z</time>
      </trkpt>
      <trkpt lat="44.43343" lon="5.13262">
        <ele>1018.65</ele>
        <time>2014-09-17T12:20:01Z</time>
      </trkpt>
      <trkpt lat="44.43345" lon="5.13267">
        <ele>1018.17</ele>
        <time>2014-09-17T12:20:08Z</time>
      </trkpt>
      <trkpt lat="44.43351" lon="5.1328">
        <ele>1017.21</ele>
        <time>2014-09-17T12:20:21Z</time>
      </trkpt>
      <trkpt lat="44.43358" lon="5.13296">
        <ele>1016.73</ele>
        <time>2014-09-17T12:20:33Z</time>
      </trkpt>
      <trkpt lat="44.43364" lon="5.13308">
        <ele>1016.25</ele>
        <time>2014-09-17T12:20:41Z</time>
      </trkpt>
      <trkpt lat="44.43369" lon="5.13316">
        <ele>1017.21</ele>
        <time>2014-09-17T12:20:46Z</time>
      </trkpt>
      <trkpt lat="44.43375" lon="5.1333">
        <ele>1016.25</ele>
        <time>2014-09-17T12:20:59Z</time>
      </trkpt>
      <trkpt lat="44.43383" lon="5.1334">
        <ele>1015.29</ele>
        <time>2014-09-17T12:21:10Z</time>
      </trkpt>
      <trkpt lat="44.4339" lon="5.13352">
        <ele>1014.81</ele>
        <time>2014-09-17T12:21:24Z</time>
      </trkpt>
      <trkpt lat="44.43392" lon="5.13355">
        <ele>1015.29</ele>
        <time>2014-09-17T12:21:27Z</time>
      </trkpt>
      <trkpt lat="44.43396" lon="5.1336">
        <ele>1015.29</ele>
        <time>2014-09-17T12:21:30Z</time>
      </trkpt>
      <trkpt lat="44.43401" lon="5.13368">
        <ele>1015.29</ele>
        <time>2014-09-17T12:21:37Z</time>
      </trkpt>
      <trkpt lat="44.43403" lon="5.13372">
        <ele>1015.29</ele>
        <time>2014-09-17T12:21:39Z</time>
      </trkpt>
      <trkpt lat="44.43406" lon="5.13377">
        <ele>1014.81</ele>
        <time>2014-09-17T12:21:42Z</time>
      </trkpt>
      <trkpt lat="44.43415" lon="5.13388">
        <ele>1015.77</ele>
        <time>2014-09-17T12:21:53Z</time>
      </trkpt>
      <trkpt lat="44.43421" lon="5.13399">
        <ele>1015.77</ele>
        <time>2014-09-17T12:22:02Z</time>
      </trkpt>
      <trkpt lat="44.43431" lon="5.13413">
        <ele>1015.29</ele>
        <time>2014-09-17T12:22:14Z</time>
      </trkpt>
      <trkpt lat="44.43434" lon="5.13417">
        <ele>1014.81</ele>
        <time>2014-09-17T12:22:18Z</time>
      </trkpt>
      <trkpt lat="44.43445" lon="5.1343">
        <ele>1013.37</ele>
        <time>2014-09-17T12:22:29Z</time>
      </trkpt>
      <trkpt lat="44.43447" lon="5.13432">
        <ele>1013.37</ele>
        <time>2014-09-17T12:22:32Z</time>
      </trkpt>
      <trkpt lat="44.4345" lon="5.13436">
        <ele>1013.37</ele>
        <time>2014-09-17T12:22:36Z</time>
      </trkpt>
      <trkpt lat="44.43459" lon="5.13442">
        <ele>1010.96</ele>
        <time>2014-09-17T12:22:46Z</time>
      </trkpt>
      <trkpt lat="44.43466" lon="5.13452">
        <ele>1010.48</ele>
        <time>2014-09-17T12:22:57Z</time>
      </trkpt>
      <trkpt lat="44.43471" lon="5.13461">
        <ele>1009.04</ele>
        <time>2014-09-17T12:23:08Z</time>
      </trkpt>
      <trkpt lat="44.43479" lon="5.1347">
        <ele>1007.6</ele>
        <time>2014-09-17T12:23:18Z</time>
      </trkpt>
      <trkpt lat="44.43488" lon="5.13479">
        <ele>1006.64</ele>
        <time>2014-09-17T12:23:31Z</time>
      </trkpt>
      <trkpt lat="44.43489" lon="5.13479">
        <ele>1006.16</ele>
        <time>2014-09-17T12:23:32Z</time>
      </trkpt>
      <trkpt lat="44.43495" lon="5.13481">
        <ele>1005.2</ele>
        <time>2014-09-17T12:23:39Z</time>
      </trkpt>
      <trkpt lat="44.43501" lon="5.13484">
        <ele>1003.75</ele>
        <time>2014-09-17T12:23:46Z</time>
      </trkpt>
      <trkpt lat="44.43513" lon="5.13491">
        <ele>1002.79</ele>
        <time>2014-09-17T12:23:59Z</time>
      </trkpt>
      <trkpt lat="44.43524" lon="5.13496">
        <ele>1000.87</ele>
        <time>2014-09-17T12:24:10Z</time>
      </trkpt>
      <trkpt lat="44.43537" lon="5.13501">
        <ele>999.43</ele>
        <time>2014-09-17T12:24:24Z</time>
      </trkpt>
      <trkpt lat="44.43553" lon="5.13505">
        <ele>998.47</ele>
        <time>2014-09-17T12:24:36Z</time>
      </trkpt>
      <trkpt lat="44.43566" lon="5.13511">
        <ele>997.51</ele>
        <time>2014-09-17T12:24:48Z</time>
      </trkpt>
      <trkpt lat="44.43569" lon="5.13511">
        <ele>997.51</ele>
        <time>2014-09-17T12:24:51Z</time>
      </trkpt>
      <trkpt lat="44.43573" lon="5.13511">
        <ele>997.51</ele>
        <time>2014-09-17T12:24:54Z</time>
      </trkpt>
      <trkpt lat="44.43587" lon="5.13513">
        <ele>996.06</ele>
        <time>2014-09-17T12:25:07Z</time>
      </trkpt>
      <trkpt lat="44.43592" lon="5.13515">
        <ele>996.54</ele>
        <time>2014-09-17T12:25:12Z</time>
      </trkpt>
      <trkpt lat="44.43605" lon="5.13518">
        <ele>995.1</ele>
        <time>2014-09-17T12:25:24Z</time>
      </trkpt>
      <trkpt lat="44.43619" lon="5.13518">
        <ele>994.62</ele>
        <time>2014-09-17T12:25:36Z</time>
      </trkpt>
      <trkpt lat="44.4363" lon="5.13518">
        <ele>994.14</ele>
        <time>2014-09-17T12:25:45Z</time>
      </trkpt>
      <trkpt lat="44.43637" lon="5.13521">
        <ele>994.62</ele>
        <time>2014-09-17T12:25:50Z</time>
      </trkpt>
      <trkpt lat="44.4365" lon="5.13524">
        <ele>994.62</ele>
        <time>2014-09-17T12:26:02Z</time>
      </trkpt>
      <trkpt lat="44.43656" lon="5.13523">
        <ele>994.62</ele>
        <time>2014-09-17T12:26:12Z</time>
      </trkpt>
      <trkpt lat="44.43659" lon="5.13523">
        <ele>994.14</ele>
        <time>2014-09-17T12:26:27Z</time>
      </trkpt>
      <trkpt lat="44.43665" lon="5.13525">
        <ele>994.62</ele>
        <time>2014-09-17T12:26:32Z</time>
      </trkpt>
      <trkpt lat="44.43673" lon="5.13529">
        <ele>994.14</ele>
        <time>2014-09-17T12:26:43Z</time>
      </trkpt>
      <trkpt lat="44.43682" lon="5.13531">
        <ele>994.14</ele>
        <time>2014-09-17T12:26:55Z</time>
      </trkpt>
      <trkpt lat="44.43684" lon="5.13532">
        <ele>994.14</ele>
        <time>2014-09-17T12:27:10Z</time>
      </trkpt>
      <trkpt lat="44.43695" lon="5.13539">
        <ele>994.14</ele>
        <time>2014-09-17T12:27:21Z</time>
      </trkpt>
      <trkpt lat="44.43698" lon="5.13539">
        <ele>994.14</ele>
        <time>2014-09-17T12:27:24Z</time>
      </trkpt>
      <trkpt lat="44.43703" lon="5.13542">
        <ele>993.66</ele>
        <time>2014-09-17T12:27:28Z</time>
      </trkpt>
      <trkpt lat="44.43713" lon="5.13544">
        <ele>994.62</ele>
        <time>2014-09-17T12:27:39Z</time>
      </trkpt>
      <trkpt lat="44.43725" lon="5.1355">
        <ele>994.14</ele>
        <time>2014-09-17T12:27:51Z</time>
      </trkpt>
      <trkpt lat="44.4373" lon="5.13551">
        <ele>993.66</ele>
        <time>2014-09-17T12:27:57Z</time>
      </trkpt>
      <trkpt lat="44.4374" lon="5.1356">
        <ele>993.66</ele>
        <time>2014-09-17T12:28:10Z</time>
      </trkpt>
      <trkpt lat="44.43742" lon="5.13562">
        <ele>993.66</ele>
        <time>2014-09-17T12:28:13Z</time>
      </trkpt>
      <trkpt lat="44.43746" lon="5.13576">
        <ele>991.26</ele>
        <time>2014-09-17T12:28:27Z</time>
      </trkpt>
      <trkpt lat="44.43747" lon="5.13578">
        <ele>991.26</ele>
        <time>2014-09-17T12:28:29Z</time>
      </trkpt>
      <trkpt lat="44.43754" lon="5.13587">
        <ele>989.81</ele>
        <time>2014-09-17T12:28:40Z</time>
      </trkpt>
      <trkpt lat="44.43763" lon="5.13592">
        <ele>989.33</ele>
        <time>2014-09-17T12:28:52Z</time>
      </trkpt>
      <trkpt lat="44.4377" lon="5.13591">
        <ele>987.41</ele>
        <time>2014-09-17T12:29:05Z</time>
      </trkpt>
      <trkpt lat="44.43778" lon="5.13586">
        <ele>984.53</ele>
        <time>2014-09-17T12:29:17Z</time>
      </trkpt>
      <trkpt lat="44.43784" lon="5.13584">
        <ele>983.09</ele>
        <time>2014-09-17T12:29:22Z</time>
      </trkpt>
      <trkpt lat="44.43795" lon="5.13582">
        <ele>982.12</ele>
        <time>2014-09-17T12:29:32Z</time>
      </trkpt>
      <trkpt lat="44.4381" lon="5.13576">
        <ele>980.68</ele>
        <time>2014-09-17T12:29:45Z</time>
      </trkpt>
      <trkpt lat="44.43817" lon="5.13574">
        <ele>979.24</ele>
        <time>2014-09-17T12:29:53Z</time>
      </trkpt>
      <trkpt lat="44.43822" lon="5.1357">
        <ele>978.76</ele>
        <time>2014-09-17T12:29:57Z</time>
      </trkpt>
      <trkpt lat="44.43827" lon="5.13567">
        <ele>977.32</ele>
        <time>2014-09-17T12:30:03Z</time>
      </trkpt>
      <trkpt lat="44.43835" lon="5.13564">
        <ele>975.39</ele>
        <time>2014-09-17T12:30:14Z</time>
      </trkpt>
      <trkpt lat="44.43845" lon="5.13562">
        <ele>972.99</ele>
        <time>2014-09-17T12:30:29Z</time>
      </trkpt>
      <trkpt lat="44.43859" lon="5.13557">
        <ele>971.07</ele>
        <time>2014-09-17T12:30:44Z</time>
      </trkpt>
      <trkpt lat="44.43873" lon="5.13557">
        <ele>968.18</ele>
        <time>2014-09-17T12:30:57Z</time>
      </trkpt>
      <trkpt lat="44.43887" lon="5.13554">
        <ele>964.34</ele>
        <time>2014-09-17T12:31:10Z</time>
      </trkpt>
      <trkpt lat="44.43901" lon="5.13554">
        <ele>962.9</ele>
        <time>2014-09-17T12:31:22Z</time>
      </trkpt>
      <trkpt lat="44.43903" lon="5.13554">
        <ele>962.9</ele>
        <time>2014-09-17T12:31:26Z</time>
      </trkpt>
      <trkpt lat="44.43913" lon="5.13552">
        <ele>961.94</ele>
        <time>2014-09-17T12:31:39Z</time>
      </trkpt>
      <trkpt lat="44.43915" lon="5.13551">
        <ele>960.49</ele>
        <time>2014-09-17T12:31:53Z</time>
      </trkpt>
      <trkpt lat="44.43918" lon="5.13551">
        <ele>960.98</ele>
        <time>2014-09-17T12:32:51Z</time>
      </trkpt>
      <trkpt lat="44.4392" lon="5.1355">
        <ele>960.49</ele>
        <time>2014-09-17T12:34:15Z</time>
      </trkpt>
      <trkpt lat="44.43921" lon="5.1355">
        <ele>960.01</ele>
        <time>2014-09-17T12:35:18Z</time>
      </trkpt>
      <trkpt lat="44.43927" lon="5.13551">
        <ele>960.01</ele>
        <time>2014-09-17T12:35:25Z</time>
      </trkpt>
      <trkpt lat="44.43933" lon="5.13554">
        <ele>960.49</ele>
        <time>2014-09-17T12:35:32Z</time>
      </trkpt>
      <trkpt lat="44.43941" lon="5.13558">
        <ele>960.49</ele>
        <time>2014-09-17T12:35:38Z</time>
      </trkpt>
      <trkpt lat="44.4395" lon="5.13562">
        <ele>960.49</ele>
        <time>2014-09-17T12:35:48Z</time>
      </trkpt>
      <trkpt lat="44.43954" lon="5.13562">
        <ele>960.01</ele>
        <time>2014-09-17T12:35:51Z</time>
      </trkpt>
      <trkpt lat="44.4397" lon="5.13567">
        <ele>959.53</ele>
        <time>2014-09-17T12:36:04Z</time>
      </trkpt>
      <trkpt lat="44.43972" lon="5.13568">
        <ele>959.05</ele>
        <time>2014-09-17T12:36:05Z</time>
      </trkpt>
      <trkpt lat="44.43984" lon="5.13572">
        <ele>959.05</ele>
        <time>2014-09-17T12:36:16Z</time>
      </trkpt>
      <trkpt lat="44.43995" lon="5.13575">
        <ele>957.61</ele>
        <time>2014-09-17T12:36:28Z</time>
      </trkpt>
      <trkpt lat="44.44001" lon="5.13575">
        <ele>956.65</ele>
        <time>2014-09-17T12:36:38Z</time>
      </trkpt>
      <trkpt lat="44.44009" lon="5.13577">
        <ele>955.69</ele>
        <time>2014-09-17T12:36:51Z</time>
      </trkpt>
      <trkpt lat="44.44013" lon="5.13577">
        <ele>954.73</ele>
        <time>2014-09-17T12:36:57Z</time>
      </trkpt>
      <trkpt lat="44.44023" lon="5.1358">
        <ele>953.28</ele>
        <time>2014-09-17T12:37:08Z</time>
      </trkpt>
      <trkpt lat="44.44036" lon="5.13579">
        <ele>951.36</ele>
        <time>2014-09-17T12:37:22Z</time>
      </trkpt>
      <trkpt lat="44.44044" lon="5.13578">
        <ele>950.88</ele>
        <time>2014-09-17T12:37:37Z</time>
      </trkpt>
      <trkpt lat="44.44057" lon="5.13581">
        <ele>948.96</ele>
        <time>2014-09-17T12:37:50Z</time>
      </trkpt>
      <trkpt lat="44.4406" lon="5.13584">
        <ele>948.48</ele>
        <time>2014-09-17T12:37:53Z</time>
      </trkpt>
      <trkpt lat="44.44076" lon="5.13586">
        <ele>947.52</ele>
        <time>2014-09-17T12:38:06Z</time>
      </trkpt>
      <trkpt lat="44.44082" lon="5.13584">
        <ele>945.59</ele>
        <time>2014-09-17T12:38:13Z</time>
      </trkpt>
      <trkpt lat="44.4409" lon="5.13585">
        <ele>943.67</ele>
        <time>2014-09-17T12:38:23Z</time>
      </trkpt>
      <trkpt lat="44.44098" lon="5.13586">
        <ele>942.23</ele>
        <time>2014-09-17T12:38:35Z</time>
      </trkpt>
      <trkpt lat="44.44108" lon="5.13586">
        <ele>940.31</ele>
        <time>2014-09-17T12:38:50Z</time>
      </trkpt>
      <trkpt lat="44.44116" lon="5.13588">
        <ele>938.38</ele>
        <time>2014-09-17T12:39:02Z</time>
      </trkpt>
      <trkpt lat="44.44129" lon="5.13586">
        <ele>935.02</ele>
        <time>2014-09-17T12:39:17Z</time>
      </trkpt>
      <trkpt lat="44.4414" lon="5.13583">
        <ele>933.1</ele>
        <time>2014-09-17T12:39:27Z</time>
      </trkpt>
      <trkpt lat="44.44154" lon="5.13582">
        <ele>930.21</ele>
        <time>2014-09-17T12:39:45Z</time>
      </trkpt>
      <trkpt lat="44.44165" lon="5.13582">
        <ele>928.29</ele>
        <time>2014-09-17T12:39:57Z</time>
      </trkpt>
      <trkpt lat="44.4418" lon="5.13581">
        <ele>925.89</ele>
        <time>2014-09-17T12:40:16Z</time>
      </trkpt>
      <trkpt lat="44.44191" lon="5.13575">
        <ele>923.96</ele>
        <time>2014-09-17T12:40:27Z</time>
      </trkpt>
      <trkpt lat="44.44199" lon="5.13571">
        <ele>922.04</ele>
        <time>2014-09-17T12:40:36Z</time>
      </trkpt>
      <trkpt lat="44.44212" lon="5.13566">
        <ele>918.68</ele>
        <time>2014-09-17T12:40:52Z</time>
      </trkpt>
      <trkpt lat="44.44218" lon="5.1356">
        <ele>916.75</ele>
        <time>2014-09-17T12:41:00Z</time>
      </trkpt>
      <trkpt lat="44.44229" lon="5.13555">
        <ele>914.35</ele>
        <time>2014-09-17T12:41:18Z</time>
      </trkpt>
      <trkpt lat="44.44238" lon="5.1355">
        <ele>912.91</ele>
        <time>2014-09-17T12:41:30Z</time>
      </trkpt>
      <trkpt lat="44.44246" lon="5.13549">
        <ele>910.99</ele>
        <time>2014-09-17T12:41:43Z</time>
      </trkpt>
      <trkpt lat="44.44256" lon="5.13549">
        <ele>907.14</ele>
        <time>2014-09-17T12:41:56Z</time>
      </trkpt>
      <trkpt lat="44.44268" lon="5.13555">
        <ele>904.26</ele>
        <time>2014-09-17T12:42:11Z</time>
      </trkpt>
      <trkpt lat="44.44274" lon="5.13562">
        <ele>903.3</ele>
        <time>2014-09-17T12:42:19Z</time>
      </trkpt>
      <trkpt lat="44.44279" lon="5.13572">
        <ele>901.37</ele>
        <time>2014-09-17T12:42:32Z</time>
      </trkpt>
      <trkpt lat="44.44287" lon="5.13579">
        <ele>899.45</ele>
        <time>2014-09-17T12:42:44Z</time>
      </trkpt>
      <trkpt lat="44.44295" lon="5.13587">
        <ele>896.09</ele>
        <time>2014-09-17T12:42:59Z</time>
      </trkpt>
      <trkpt lat="44.44302" lon="5.13595">
        <ele>894.16</ele>
        <time>2014-09-17T12:43:11Z</time>
      </trkpt>
      <trkpt lat="44.44308" lon="5.13604">
        <ele>892.24</ele>
        <time>2014-09-17T12:43:23Z</time>
      </trkpt>
      <trkpt lat="44.44317" lon="5.13612">
        <ele>890.8</ele>
        <time>2014-09-17T12:43:35Z</time>
      </trkpt>
      <trkpt lat="44.44325" lon="5.13625">
        <ele>888.88</ele>
        <time>2014-09-17T12:43:45Z</time>
      </trkpt>
      <trkpt lat="44.44329" lon="5.13633">
        <ele>887.91</ele>
        <time>2014-09-17T12:43:56Z</time>
      </trkpt>
      <trkpt lat="44.44336" lon="5.1364">
        <ele>885.03</ele>
        <time>2014-09-17T12:44:08Z</time>
      </trkpt>
      <trkpt lat="44.44342" lon="5.13646">
        <ele>883.59</ele>
        <time>2014-09-17T12:44:18Z</time>
      </trkpt>
      <trkpt lat="44.44348" lon="5.13654">
        <ele>881.67</ele>
        <time>2014-09-17T12:44:27Z</time>
      </trkpt>
      <trkpt lat="44.44353" lon="5.13659">
        <ele>879.26</ele>
        <time>2014-09-17T12:44:43Z</time>
      </trkpt>
      <trkpt lat="44.44364" lon="5.13665">
        <ele>875.9</ele>
        <time>2014-09-17T12:45:05Z</time>
      </trkpt>
      <trkpt lat="44.44372" lon="5.13663">
        <ele>873.98</ele>
        <time>2014-09-17T12:45:18Z</time>
      </trkpt>
      <trkpt lat="44.4438" lon="5.13662">
        <ele>872.53</ele>
        <time>2014-09-17T12:45:28Z</time>
      </trkpt>
      <trkpt lat="44.4439" lon="5.13663">
        <ele>869.17</ele>
        <time>2014-09-17T12:45:39Z</time>
      </trkpt>
      <trkpt lat="44.444" lon="5.13658">
        <ele>868.69</ele>
        <time>2014-09-17T12:45:53Z</time>
      </trkpt>
      <trkpt lat="44.44406" lon="5.13652">
        <ele>867.73</ele>
        <time>2014-09-17T12:46:19Z</time>
      </trkpt>
      <trkpt lat="44.44409" lon="5.1365">
        <ele>866.77</ele>
        <time>2014-09-17T12:46:22Z</time>
      </trkpt>
      <trkpt lat="44.44412" lon="5.13646">
        <ele>866.29</ele>
        <time>2014-09-17T12:46:26Z</time>
      </trkpt>
      <trkpt lat="44.44415" lon="5.13645">
        <ele>865.8</ele>
        <time>2014-09-17T12:46:28Z</time>
      </trkpt>
      <trkpt lat="44.44418" lon="5.13642">
        <ele>865.32</ele>
        <time>2014-09-17T12:46:31Z</time>
      </trkpt>
      <trkpt lat="44.44428" lon="5.13636">
        <ele>863.4</ele>
        <time>2014-09-17T12:46:43Z</time>
      </trkpt>
      <trkpt lat="44.4443" lon="5.13639">
        <ele>862.44</ele>
        <time>2014-09-17T12:46:50Z</time>
      </trkpt>
      <trkpt lat="44.44436" lon="5.13645">
        <ele>861</ele>
        <time>2014-09-17T12:47:02Z</time>
      </trkpt>
      <trkpt lat="44.4444" lon="5.13653">
        <ele>860.04</ele>
        <time>2014-09-17T12:47:14Z</time>
      </trkpt>
      <trkpt lat="44.44448" lon="5.13657">
        <ele>858.11</ele>
        <time>2014-09-17T12:47:27Z</time>
      </trkpt>
      <trkpt lat="44.44456" lon="5.13662">
        <ele>855.23</ele>
        <time>2014-09-17T12:47:56Z</time>
      </trkpt>
      <trkpt lat="44.44461" lon="5.13665">
        <ele>853.79</ele>
        <time>2014-09-17T12:48:02Z</time>
      </trkpt>
      <trkpt lat="44.44469" lon="5.13669">
        <ele>852.35</ele>
        <time>2014-09-17T12:48:14Z</time>
      </trkpt>
      <trkpt lat="44.4448" lon="5.13668">
        <ele>849.46</ele>
        <time>2014-09-17T12:48:32Z</time>
      </trkpt>
      <trkpt lat="44.44488" lon="5.13669">
        <ele>848.5</ele>
        <time>2014-09-17T12:48:42Z</time>
      </trkpt>
      <trkpt lat="44.44499" lon="5.13667">
        <ele>848.02</ele>
        <time>2014-09-17T12:48:52Z</time>
      </trkpt>
      <trkpt lat="44.44504" lon="5.13665">
        <ele>846.58</ele>
        <time>2014-09-17T12:48:58Z</time>
      </trkpt>
      <trkpt lat="44.44515" lon="5.13663">
        <ele>844.66</ele>
        <time>2014-09-17T12:49:09Z</time>
      </trkpt>
      <trkpt lat="44.44523" lon="5.13662">
        <ele>843.69</ele>
        <time>2014-09-17T12:49:19Z</time>
      </trkpt>
      <trkpt lat="44.44529" lon="5.13653">
        <ele>841.77</ele>
        <time>2014-09-17T12:49:30Z</time>
      </trkpt>
      <trkpt lat="44.44531" lon="5.13651">
        <ele>841.29</ele>
        <time>2014-09-17T12:49:32Z</time>
      </trkpt>
      <trkpt lat="44.44535" lon="5.13644">
        <ele>839.85</ele>
        <time>2014-09-17T12:49:38Z</time>
      </trkpt>
      <trkpt lat="44.44544" lon="5.13629">
        <ele>838.89</ele>
        <time>2014-09-17T12:49:50Z</time>
      </trkpt>
      <trkpt lat="44.44551" lon="5.13618">
        <ele>837.93</ele>
        <time>2014-09-17T12:50:01Z</time>
      </trkpt>
      <trkpt lat="44.44555" lon="5.13612">
        <ele>835.52</ele>
        <time>2014-09-17T12:50:10Z</time>
      </trkpt>
      <trkpt lat="44.44566" lon="5.13606">
        <ele>832.64</ele>
        <time>2014-09-17T12:50:22Z</time>
      </trkpt>
      <trkpt lat="44.44572" lon="5.13596">
        <ele>830.72</ele>
        <time>2014-09-17T12:50:33Z</time>
      </trkpt>
      <trkpt lat="44.4458" lon="5.13585">
        <ele>829.27</ele>
        <time>2014-09-17T12:50:48Z</time>
      </trkpt>
      <trkpt lat="44.44588" lon="5.13578">
        <ele>828.31</ele>
        <time>2014-09-17T12:50:59Z</time>
      </trkpt>
      <trkpt lat="44.44597" lon="5.13569">
        <ele>826.87</ele>
        <time>2014-09-17T12:51:12Z</time>
      </trkpt>
      <trkpt lat="44.44607" lon="5.13564">
        <ele>826.87</ele>
        <time>2014-09-17T12:51:21Z</time>
      </trkpt>
      <trkpt lat="44.4461" lon="5.13555">
        <ele>825.91</ele>
        <time>2014-09-17T12:51:28Z</time>
      </trkpt>
      <trkpt lat="44.4462" lon="5.13546">
        <ele>823.51</ele>
        <time>2014-09-17T12:51:39Z</time>
      </trkpt>
      <trkpt lat="44.44626" lon="5.13539">
        <ele>821.1</ele>
        <time>2014-09-17T12:51:51Z</time>
      </trkpt>
      <trkpt lat="44.4463" lon="5.13529">
        <ele>820.14</ele>
        <time>2014-09-17T12:52:00Z</time>
      </trkpt>
      <trkpt lat="44.44637" lon="5.13521">
        <ele>819.18</ele>
        <time>2014-09-17T12:52:10Z</time>
      </trkpt>
      <trkpt lat="44.44639" lon="5.13516">
        <ele>817.74</ele>
        <time>2014-09-17T12:52:16Z</time>
      </trkpt>
      <trkpt lat="44.4465" lon="5.13508">
        <ele>815.82</ele>
        <time>2014-09-17T12:52:30Z</time>
      </trkpt>
      <trkpt lat="44.44659" lon="5.13504">
        <ele>813.89</ele>
        <time>2014-09-17T12:52:41Z</time>
      </trkpt>
      <trkpt lat="44.44667" lon="5.13497">
        <ele>811.97</ele>
        <time>2014-09-17T12:52:51Z</time>
      </trkpt>
      <trkpt lat="44.44672" lon="5.13491">
        <ele>810.53</ele>
        <time>2014-09-17T12:52:59Z</time>
      </trkpt>
      <trkpt lat="44.44676" lon="5.13484">
        <ele>809.09</ele>
        <time>2014-09-17T12:53:11Z</time>
      </trkpt>
      <trkpt lat="44.44684" lon="5.13481">
        <ele>807.16</ele>
        <time>2014-09-17T12:53:21Z</time>
      </trkpt>
      <trkpt lat="44.44687" lon="5.13484">
        <ele>804.76</ele>
        <time>2014-09-17T12:53:31Z</time>
      </trkpt>
      <trkpt lat="44.44694" lon="5.1349">
        <ele>803.8</ele>
        <time>2014-09-17T12:53:43Z</time>
      </trkpt>
      <trkpt lat="44.44699" lon="5.13492">
        <ele>801.88</ele>
        <time>2014-09-17T12:53:49Z</time>
      </trkpt>
      <trkpt lat="44.44707" lon="5.13502">
        <ele>800.44</ele>
        <time>2014-09-17T12:54:03Z</time>
      </trkpt>
      <trkpt lat="44.44711" lon="5.13506">
        <ele>798.99</ele>
        <time>2014-09-17T12:54:11Z</time>
      </trkpt>
      <trkpt lat="44.44715" lon="5.13511">
        <ele>797.55</ele>
        <time>2014-09-17T12:54:19Z</time>
      </trkpt>
      <trkpt lat="44.44718" lon="5.13514">
        <ele>796.11</ele>
        <time>2014-09-17T12:54:22Z</time>
      </trkpt>
      <trkpt lat="44.44725" lon="5.13518">
        <ele>794.19</ele>
        <time>2014-09-17T12:54:34Z</time>
      </trkpt>
      <trkpt lat="44.44733" lon="5.13515">
        <ele>792.26</ele>
        <time>2014-09-17T12:54:46Z</time>
      </trkpt>
      <trkpt lat="44.44741" lon="5.13511">
        <ele>789.86</ele>
        <time>2014-09-17T12:54:56Z</time>
      </trkpt>
      <trkpt lat="44.44749" lon="5.1351">
        <ele>788.42</ele>
        <time>2014-09-17T12:55:04Z</time>
      </trkpt>
      <trkpt lat="44.44759" lon="5.13509">
        <ele>786.98</ele>
        <time>2014-09-17T12:55:15Z</time>
      </trkpt>
      <trkpt lat="44.44757" lon="5.13503">
        <ele>786.5</ele>
        <time>2014-09-17T12:55:30Z</time>
      </trkpt>
      <trkpt lat="44.44752" lon="5.13501">
        <ele>785.05</ele>
        <time>2014-09-17T12:55:40Z</time>
      </trkpt>
      <trkpt lat="44.44751" lon="5.135">
        <ele>784.57</ele>
        <time>2014-09-17T12:55:41Z</time>
      </trkpt>
      <trkpt lat="44.44745" lon="5.13486">
        <ele>782.17</ele>
        <time>2014-09-17T12:55:53Z</time>
      </trkpt>
      <trkpt lat="44.44742" lon="5.13474">
        <ele>780.73</ele>
        <time>2014-09-17T12:56:06Z</time>
      </trkpt>
      <trkpt lat="44.44739" lon="5.13461">
        <ele>778.81</ele>
        <time>2014-09-17T12:56:18Z</time>
      </trkpt>
      <trkpt lat="44.44736" lon="5.13451">
        <ele>776.88</ele>
        <time>2014-09-17T12:56:28Z</time>
      </trkpt>
      <trkpt lat="44.44735" lon="5.13443">
        <ele>774.96</ele>
        <time>2014-09-17T12:56:52Z</time>
      </trkpt>
      <trkpt lat="44.44737" lon="5.13447">
        <ele>773.04</ele>
        <time>2014-09-17T12:57:07Z</time>
      </trkpt>
      <trkpt lat="44.44743" lon="5.13452">
        <ele>770.15</ele>
        <time>2014-09-17T12:57:17Z</time>
      </trkpt>
      <trkpt lat="44.44752" lon="5.1346">
        <ele>768.23</ele>
        <time>2014-09-17T12:57:31Z</time>
      </trkpt>
      <trkpt lat="44.44763" lon="5.13462">
        <ele>767.27</ele>
        <time>2014-09-17T12:57:40Z</time>
      </trkpt>
      <trkpt lat="44.4478" lon="5.13459">
        <ele>764.39</ele>
        <time>2014-09-17T12:57:51Z</time>
      </trkpt>
      <trkpt lat="44.44785" lon="5.13457">
        <ele>762.94</ele>
        <time>2014-09-17T12:57:57Z</time>
      </trkpt>
      <trkpt lat="44.44791" lon="5.13447">
        <ele>760.54</ele>
        <time>2014-09-17T12:58:09Z</time>
      </trkpt>
      <trkpt lat="44.44792" lon="5.13447">
        <ele>760.06</ele>
        <time>2014-09-17T12:58:10Z</time>
      </trkpt>
      <trkpt lat="44.448" lon="5.13439">
        <ele>758.62</ele>
        <time>2014-09-17T12:58:21Z</time>
      </trkpt>
      <trkpt lat="44.44801" lon="5.13438">
        <ele>758.62</ele>
        <time>2014-09-17T12:58:23Z</time>
      </trkpt>
      <trkpt lat="44.44809" lon="5.13435">
        <ele>756.69</ele>
        <time>2014-09-17T12:58:32Z</time>
      </trkpt>
      <trkpt lat="44.44819" lon="5.13434">
        <ele>752.85</ele>
        <time>2014-09-17T12:58:47Z</time>
      </trkpt>
      <trkpt lat="44.4483" lon="5.13433">
        <ele>750.93</ele>
        <time>2014-09-17T12:59:00Z</time>
      </trkpt>
      <trkpt lat="44.44838" lon="5.13437">
        <ele>751.41</ele>
        <time>2014-09-17T12:59:12Z</time>
      </trkpt>
      <trkpt lat="44.44844" lon="5.13444">
        <ele>754.77</ele>
        <time>2014-09-17T12:59:32Z</time>
      </trkpt>
      <trkpt lat="44.44854" lon="5.13444">
        <ele>752.37</ele>
        <time>2014-09-17T12:59:48Z</time>
      </trkpt>
      <trkpt lat="44.44866" lon="5.13443">
        <ele>749.97</ele>
        <time>2014-09-17T13:00:02Z</time>
      </trkpt>
      <trkpt lat="44.44874" lon="5.13436">
        <ele>749</ele>
        <time>2014-09-17T13:00:11Z</time>
      </trkpt>
      <trkpt lat="44.44886" lon="5.13428">
        <ele>745.64</ele>
        <time>2014-09-17T13:00:31Z</time>
      </trkpt>
      <trkpt lat="44.44896" lon="5.13416">
        <ele>742.28</ele>
        <time>2014-09-17T13:00:51Z</time>
      </trkpt>
      <trkpt lat="44.44903" lon="5.134">
        <ele>738.91</ele>
        <time>2014-09-17T13:01:08Z</time>
      </trkpt>
      <trkpt lat="44.44901" lon="5.13382">
        <ele>737.47</ele>
        <time>2014-09-17T13:02:30Z</time>
      </trkpt>
      <trkpt lat="44.44903" lon="5.1338">
        <ele>736.99</ele>
        <time>2014-09-17T13:02:33Z</time>
      </trkpt>
      <trkpt lat="44.44908" lon="5.13375">
        <ele>736.51</ele>
        <time>2014-09-17T13:02:37Z</time>
      </trkpt>
      <trkpt lat="44.44915" lon="5.13366">
        <ele>734.1</ele>
        <time>2014-09-17T13:02:45Z</time>
      </trkpt>
      <trkpt lat="44.44917" lon="5.13354">
        <ele>731.7</ele>
        <time>2014-09-17T13:02:57Z</time>
      </trkpt>
      <trkpt lat="44.44927" lon="5.13342">
        <ele>729.78</ele>
        <time>2014-09-17T13:03:25Z</time>
      </trkpt>
      <trkpt lat="44.44932" lon="5.13336">
        <ele>729.3</ele>
        <time>2014-09-17T13:03:44Z</time>
      </trkpt>
      <trkpt lat="44.44938" lon="5.13327">
        <ele>728.34</ele>
        <time>2014-09-17T13:03:57Z</time>
      </trkpt>
      <trkpt lat="44.44943" lon="5.13321">
        <ele>728.34</ele>
        <time>2014-09-17T13:04:04Z</time>
      </trkpt>
      <trkpt lat="44.4495" lon="5.13311">
        <ele>727.37</ele>
        <time>2014-09-17T13:04:15Z</time>
      </trkpt>
      <trkpt lat="44.44957" lon="5.13304">
        <ele>726.89</ele>
        <time>2014-09-17T13:04:27Z</time>
      </trkpt>
      <trkpt lat="44.44958" lon="5.13295">
        <ele>726.89</ele>
        <time>2014-09-17T13:04:41Z</time>
      </trkpt>
      <trkpt lat="44.44961" lon="5.1329">
        <ele>725.93</ele>
        <time>2014-09-17T13:04:45Z</time>
      </trkpt>
      <trkpt lat="44.44966" lon="5.13269">
        <ele>723.05</ele>
        <time>2014-09-17T13:05:04Z</time>
      </trkpt>
      <trkpt lat="44.44964" lon="5.13266">
        <ele>724.01</ele>
        <time>2014-09-17T13:05:33Z</time>
      </trkpt>
      <trkpt lat="44.44965" lon="5.13258">
        <ele>722.57</ele>
        <time>2014-09-17T13:05:54Z</time>
      </trkpt>
      <trkpt lat="44.44967" lon="5.13249">
        <ele>722.57</ele>
        <time>2014-09-17T13:06:06Z</time>
      </trkpt>
      <trkpt lat="44.44969" lon="5.13243">
        <ele>722.09</ele>
        <time>2014-09-17T13:06:17Z</time>
      </trkpt>
      <trkpt lat="44.44969" lon="5.13243">
        <ele>721.61</ele>
        <time>2014-09-17T13:06:19Z</time>
      </trkpt>
      <trkpt lat="44.44971" lon="5.13236">
        <ele>721.61</ele>
        <time>2014-09-17T13:06:30Z</time>
      </trkpt>
      <trkpt lat="44.44978" lon="5.13225">
        <ele>720.65</ele>
        <time>2014-09-17T13:06:40Z</time>
      </trkpt>
      <trkpt lat="44.44979" lon="5.13224">
        <ele>720.65</ele>
        <time>2014-09-17T13:06:41Z</time>
      </trkpt>
      <trkpt lat="44.44986" lon="5.13209">
        <ele>718.72</ele>
        <time>2014-09-17T13:06:51Z</time>
      </trkpt>
      <trkpt lat="44.44988" lon="5.13204">
        <ele>718.72</ele>
        <time>2014-09-17T13:06:56Z</time>
      </trkpt>
      <trkpt lat="44.45001" lon="5.13195">
        <ele>717.28</ele>
        <time>2014-09-17T13:07:10Z</time>
      </trkpt>
      <trkpt lat="44.45003" lon="5.13184">
        <ele>716.8</ele>
        <time>2014-09-17T13:07:19Z</time>
      </trkpt>
      <trkpt lat="44.45002" lon="5.13183">
        <ele>716.8</ele>
        <time>2014-09-17T13:07:20Z</time>
      </trkpt>
      <trkpt lat="44.45" lon="5.13181">
        <ele>716.8</ele>
        <time>2014-09-17T13:07:22Z</time>
      </trkpt>
      <trkpt lat="44.44997" lon="5.13182">
        <ele>717.28</ele>
        <time>2014-09-17T13:07:32Z</time>
      </trkpt>
      <trkpt lat="44.44995" lon="5.1318">
        <ele>717.28</ele>
        <time>2014-09-17T13:08:00Z</time>
      </trkpt>
      <trkpt lat="44.44995" lon="5.1318">
        <ele>717.28</ele>
        <time>2014-09-17T13:08:22Z</time>
      </trkpt>
      <trkpt lat="44.44994" lon="5.13182">
        <ele>717.28</ele>
        <time>2014-09-17T13:08:39Z</time>
      </trkpt>
      <trkpt lat="44.44994" lon="5.13182">
        <ele>721.13</ele>
        <time>2014-09-17T13:09:03Z</time>
      </trkpt>
      <trkpt lat="44.44994" lon="5.13182">
        <ele>719.2</ele>
        <time>2014-09-17T13:09:04Z</time>
      </trkpt>
      <trkpt lat="44.44995" lon="5.13182">
        <ele>723.05</ele>
        <time>2014-09-17T13:09:07Z</time>
      </trkpt>
      <trkpt lat="44.44995" lon="5.13182">
        <ele>715.84</ele>
        <time>2014-09-17T13:09:09Z</time>
      </trkpt>
      <trkpt lat="44.44995" lon="5.13182">
        <ele>717.28</ele>
        <time>2014-09-17T13:09:10Z</time>
      </trkpt>
    </trkseg>
  </trk>
</gpx>